<?xml version="1.0" encoding="UTF-8" standalone="no" ?>
<gpx xmlns="http://www.topografix.com/GPX/1/1" xmlns:xsi="http://www.w3.org/2001/XMLSchema-instance" xsi:schemaLocation="http://www.topografix.com/GPX/1/1 http://www.topografix.com/GPX/1/1/gpx.xsd" version="1.1" creator="VisuGPX - https://www.visugpx.com">
  <metadata>
    <name>rando saint clar  32  19 km</name>
    <desc><![CDATA[aller retour saint clar /castelnau d arbieu pas de difficultés particulieres]]></desc>
  </metadata>
  <trk>
    <name><![CDATA[saint clar 05 04 2014]]></name>
    <trkseg>
      <trkpt lat="43.89205" lon="0.76769">
        <ele>156.35</ele>
        <time>2014-04-05T08:27:50Z</time>
      </trkpt>
      <trkpt lat="43.89205" lon="0.7677">
        <ele>153.95</ele>
        <time>2014-04-05T08:28:30Z</time>
      </trkpt>
      <trkpt lat="43.89207" lon="0.76769">
        <ele>152.03</ele>
        <time>2014-04-05T08:29:05Z</time>
      </trkpt>
      <trkpt lat="43.89205" lon="0.76767">
        <ele>151.54</ele>
        <time>2014-04-05T08:29:43Z</time>
      </trkpt>
      <trkpt lat="43.89205" lon="0.76766">
        <ele>154.43</ele>
        <time>2014-04-05T08:30:05Z</time>
      </trkpt>
      <trkpt lat="43.89201" lon="0.7676">
        <ele>156.35</ele>
        <time>2014-04-05T08:30:18Z</time>
      </trkpt>
      <trkpt lat="43.89201" lon="0.76761">
        <ele>155.87</ele>
        <time>2014-04-05T08:30:32Z</time>
      </trkpt>
      <trkpt lat="43.89202" lon="0.76765">
        <ele>155.87</ele>
        <time>2014-04-05T08:30:52Z</time>
      </trkpt>
      <trkpt lat="43.89204" lon="0.76765">
        <ele>156.83</ele>
        <time>2014-04-05T08:31:26Z</time>
      </trkpt>
      <trkpt lat="43.89206" lon="0.76761">
        <ele>158.27</ele>
        <time>2014-04-05T08:31:41Z</time>
      </trkpt>
      <trkpt lat="43.89204" lon="0.76765">
        <ele>158.75</ele>
        <time>2014-04-05T08:31:58Z</time>
      </trkpt>
      <trkpt lat="43.89205" lon="0.76766">
        <ele>157.31</ele>
        <time>2014-04-05T08:32:11Z</time>
      </trkpt>
      <trkpt lat="43.89204" lon="0.76763">
        <ele>154.43</ele>
        <time>2014-04-05T08:32:45Z</time>
      </trkpt>
      <trkpt lat="43.89206" lon="0.76766">
        <ele>156.83</ele>
        <time>2014-04-05T08:33:01Z</time>
      </trkpt>
      <trkpt lat="43.89205" lon="0.76766">
        <ele>157.79</ele>
        <time>2014-04-05T08:33:22Z</time>
      </trkpt>
      <trkpt lat="43.89205" lon="0.76767">
        <ele>157.79</ele>
        <time>2014-04-05T08:33:37Z</time>
      </trkpt>
      <trkpt lat="43.89204" lon="0.76767">
        <ele>156.83</ele>
        <time>2014-04-05T08:34:13Z</time>
      </trkpt>
      <trkpt lat="43.892" lon="0.76761">
        <ele>165</ele>
        <time>2014-04-05T08:34:52Z</time>
      </trkpt>
      <trkpt lat="43.89198" lon="0.76761">
        <ele>164.04</ele>
        <time>2014-04-05T08:35:34Z</time>
      </trkpt>
      <trkpt lat="43.892" lon="0.76762">
        <ele>166.45</ele>
        <time>2014-04-05T08:36:23Z</time>
      </trkpt>
      <trkpt lat="43.89203" lon="0.76765">
        <ele>162.6</ele>
        <time>2014-04-05T08:36:47Z</time>
      </trkpt>
      <trkpt lat="43.89202" lon="0.76765">
        <ele>162.12</ele>
        <time>2014-04-05T08:37:17Z</time>
      </trkpt>
      <trkpt lat="43.89205" lon="0.7677">
        <ele>160.68</ele>
        <time>2014-04-05T08:37:37Z</time>
      </trkpt>
      <trkpt lat="43.89207" lon="0.76771">
        <ele>160.2</ele>
        <time>2014-04-05T08:37:56Z</time>
      </trkpt>
      <trkpt lat="43.89206" lon="0.7677">
        <ele>161.16</ele>
        <time>2014-04-05T08:38:06Z</time>
      </trkpt>
      <trkpt lat="43.89207" lon="0.76768">
        <ele>164.52</ele>
        <time>2014-04-05T08:38:30Z</time>
      </trkpt>
      <trkpt lat="43.89209" lon="0.76772">
        <ele>160.68</ele>
        <time>2014-04-05T08:38:59Z</time>
      </trkpt>
      <trkpt lat="43.89209" lon="0.76771">
        <ele>159.24</ele>
        <time>2014-04-05T08:39:17Z</time>
      </trkpt>
      <trkpt lat="43.89208" lon="0.76771">
        <ele>159.24</ele>
        <time>2014-04-05T08:39:32Z</time>
      </trkpt>
      <trkpt lat="43.89209" lon="0.76773">
        <ele>159.72</ele>
        <time>2014-04-05T08:39:51Z</time>
      </trkpt>
      <trkpt lat="43.89209" lon="0.76773">
        <ele>159.24</ele>
        <time>2014-04-05T08:40:08Z</time>
      </trkpt>
      <trkpt lat="43.89208" lon="0.76769">
        <ele>158.75</ele>
        <time>2014-04-05T08:40:30Z</time>
      </trkpt>
      <trkpt lat="43.89209" lon="0.76769">
        <ele>157.31</ele>
        <time>2014-04-05T08:40:54Z</time>
      </trkpt>
      <trkpt lat="43.89209" lon="0.76772">
        <ele>157.31</ele>
        <time>2014-04-05T08:41:12Z</time>
      </trkpt>
      <trkpt lat="43.8921" lon="0.76773">
        <ele>157.31</ele>
        <time>2014-04-05T08:41:26Z</time>
      </trkpt>
      <trkpt lat="43.89209" lon="0.76774">
        <ele>157.79</ele>
        <time>2014-04-05T08:41:48Z</time>
      </trkpt>
      <trkpt lat="43.89209" lon="0.76775">
        <ele>159.24</ele>
        <time>2014-04-05T08:42:02Z</time>
      </trkpt>
      <trkpt lat="43.89209" lon="0.76775">
        <ele>157.79</ele>
        <time>2014-04-05T08:42:28Z</time>
      </trkpt>
      <trkpt lat="43.89209" lon="0.76773">
        <ele>157.31</ele>
        <time>2014-04-05T08:42:50Z</time>
      </trkpt>
      <trkpt lat="43.89209" lon="0.76774">
        <ele>158.27</ele>
        <time>2014-04-05T08:43:12Z</time>
      </trkpt>
      <trkpt lat="43.8921" lon="0.7677">
        <ele>155.39</ele>
        <time>2014-04-05T08:43:42Z</time>
      </trkpt>
      <trkpt lat="43.89209" lon="0.76773">
        <ele>157.31</ele>
        <time>2014-04-05T08:44:04Z</time>
      </trkpt>
      <trkpt lat="43.89207" lon="0.76774">
        <ele>158.75</ele>
        <time>2014-04-05T08:44:22Z</time>
      </trkpt>
      <trkpt lat="43.89201" lon="0.76772">
        <ele>158.27</ele>
        <time>2014-04-05T08:44:30Z</time>
      </trkpt>
      <trkpt lat="43.89182" lon="0.7677">
        <ele>159.72</ele>
        <time>2014-04-05T08:44:48Z</time>
      </trkpt>
      <trkpt lat="43.89165" lon="0.76778">
        <ele>159.72</ele>
        <time>2014-04-05T08:45:05Z</time>
      </trkpt>
      <trkpt lat="43.89148" lon="0.76798">
        <ele>161.64</ele>
        <time>2014-04-05T08:45:25Z</time>
      </trkpt>
      <trkpt lat="43.89131" lon="0.7682">
        <ele>160.68</ele>
        <time>2014-04-05T08:45:45Z</time>
      </trkpt>
      <trkpt lat="43.89109" lon="0.76846">
        <ele>161.64</ele>
        <time>2014-04-05T08:46:09Z</time>
      </trkpt>
      <trkpt lat="43.891" lon="0.76858">
        <ele>162.12</ele>
        <time>2014-04-05T08:46:25Z</time>
      </trkpt>
      <trkpt lat="43.89098" lon="0.76861">
        <ele>163.56</ele>
        <time>2014-04-05T08:46:28Z</time>
      </trkpt>
      <trkpt lat="43.89081" lon="0.76885">
        <ele>165</ele>
        <time>2014-04-05T08:46:49Z</time>
      </trkpt>
      <trkpt lat="43.89069" lon="0.7688">
        <ele>163.08</ele>
        <time>2014-04-05T08:46:59Z</time>
      </trkpt>
      <trkpt lat="43.89047" lon="0.76876">
        <ele>161.16</ele>
        <time>2014-04-05T08:47:18Z</time>
      </trkpt>
      <trkpt lat="43.89028" lon="0.7687">
        <ele>159.24</ele>
        <time>2014-04-05T08:47:36Z</time>
      </trkpt>
      <trkpt lat="43.8902" lon="0.76843">
        <ele>159.24</ele>
        <time>2014-04-05T08:47:52Z</time>
      </trkpt>
      <trkpt lat="43.89011" lon="0.76814">
        <ele>164.52</ele>
        <time>2014-04-05T08:48:09Z</time>
      </trkpt>
      <trkpt lat="43.89003" lon="0.76784">
        <ele>165.48</ele>
        <time>2014-04-05T08:48:27Z</time>
      </trkpt>
      <trkpt lat="43.88998" lon="0.76752">
        <ele>164.04</ele>
        <time>2014-04-05T08:48:45Z</time>
      </trkpt>
      <trkpt lat="43.88995" lon="0.76741">
        <ele>163.08</ele>
        <time>2014-04-05T08:48:52Z</time>
      </trkpt>
      <trkpt lat="43.88996" lon="0.76734">
        <ele>161.64</ele>
        <time>2014-04-05T08:48:56Z</time>
      </trkpt>
      <trkpt lat="43.88996" lon="0.76724">
        <ele>160.68</ele>
        <time>2014-04-05T08:49:02Z</time>
      </trkpt>
      <trkpt lat="43.88994" lon="0.76692">
        <ele>159.72</ele>
        <time>2014-04-05T08:49:21Z</time>
      </trkpt>
      <trkpt lat="43.88989" lon="0.76662">
        <ele>162.6</ele>
        <time>2014-04-05T08:49:38Z</time>
      </trkpt>
      <trkpt lat="43.88985" lon="0.76637">
        <ele>165</ele>
        <time>2014-04-05T08:49:53Z</time>
      </trkpt>
      <trkpt lat="43.88981" lon="0.76606">
        <ele>161.64</ele>
        <time>2014-04-05T08:50:13Z</time>
      </trkpt>
      <trkpt lat="43.88979" lon="0.76578">
        <ele>161.64</ele>
        <time>2014-04-05T08:50:31Z</time>
      </trkpt>
      <trkpt lat="43.88978" lon="0.76545">
        <ele>160.68</ele>
        <time>2014-04-05T08:50:50Z</time>
      </trkpt>
      <trkpt lat="43.88977" lon="0.76509">
        <ele>160.68</ele>
        <time>2014-04-05T08:51:10Z</time>
      </trkpt>
      <trkpt lat="43.88975" lon="0.76477">
        <ele>161.16</ele>
        <time>2014-04-05T08:51:28Z</time>
      </trkpt>
      <trkpt lat="43.88973" lon="0.76449">
        <ele>162.12</ele>
        <time>2014-04-05T08:51:44Z</time>
      </trkpt>
      <trkpt lat="43.88969" lon="0.76413">
        <ele>162.6</ele>
        <time>2014-04-05T08:52:04Z</time>
      </trkpt>
      <trkpt lat="43.88968" lon="0.76382">
        <ele>163.08</ele>
        <time>2014-04-05T08:52:22Z</time>
      </trkpt>
      <trkpt lat="43.88966" lon="0.76351">
        <ele>161.16</ele>
        <time>2014-04-05T08:52:39Z</time>
      </trkpt>
      <trkpt lat="43.88964" lon="0.7631">
        <ele>161.16</ele>
        <time>2014-04-05T08:53:02Z</time>
      </trkpt>
      <trkpt lat="43.88962" lon="0.76274">
        <ele>160.68</ele>
        <time>2014-04-05T08:53:22Z</time>
      </trkpt>
      <trkpt lat="43.8896" lon="0.76233">
        <ele>162.12</ele>
        <time>2014-04-05T08:53:44Z</time>
      </trkpt>
      <trkpt lat="43.88958" lon="0.76194">
        <ele>162.6</ele>
        <time>2014-04-05T08:54:05Z</time>
      </trkpt>
      <trkpt lat="43.88957" lon="0.76166">
        <ele>163.56</ele>
        <time>2014-04-05T08:54:22Z</time>
      </trkpt>
      <trkpt lat="43.88955" lon="0.76133">
        <ele>165.96</ele>
        <time>2014-04-05T08:54:42Z</time>
      </trkpt>
      <trkpt lat="43.88953" lon="0.76094">
        <ele>166.45</ele>
        <time>2014-04-05T08:55:04Z</time>
      </trkpt>
      <trkpt lat="43.8895" lon="0.76051">
        <ele>165.48</ele>
        <time>2014-04-05T08:55:28Z</time>
      </trkpt>
      <trkpt lat="43.88947" lon="0.76022">
        <ele>165.48</ele>
        <time>2014-04-05T08:55:46Z</time>
      </trkpt>
      <trkpt lat="43.88944" lon="0.76027">
        <ele>165.48</ele>
        <time>2014-04-05T08:55:50Z</time>
      </trkpt>
      <trkpt lat="43.88921" lon="0.76035">
        <ele>165.48</ele>
        <time>2014-04-05T08:56:11Z</time>
      </trkpt>
      <trkpt lat="43.88916" lon="0.76007">
        <ele>164.04</ele>
        <time>2014-04-05T08:56:28Z</time>
      </trkpt>
      <trkpt lat="43.88906" lon="0.75966">
        <ele>163.08</ele>
        <time>2014-04-05T08:56:53Z</time>
      </trkpt>
      <trkpt lat="43.88891" lon="0.75932">
        <ele>162.6</ele>
        <time>2014-04-05T08:57:16Z</time>
      </trkpt>
      <trkpt lat="43.88905" lon="0.75912">
        <ele>162.6</ele>
        <time>2014-04-05T08:57:32Z</time>
      </trkpt>
      <trkpt lat="43.88901" lon="0.75903">
        <ele>162.12</ele>
        <time>2014-04-05T08:57:38Z</time>
      </trkpt>
      <trkpt lat="43.88915" lon="0.75873">
        <ele>163.56</ele>
        <time>2014-04-05T08:57:57Z</time>
      </trkpt>
      <trkpt lat="43.88927" lon="0.75836">
        <ele>165.48</ele>
        <time>2014-04-05T08:58:20Z</time>
      </trkpt>
      <trkpt lat="43.88923" lon="0.75812">
        <ele>167.41</ele>
        <time>2014-04-05T08:58:35Z</time>
      </trkpt>
      <trkpt lat="43.88928" lon="0.75797">
        <ele>167.41</ele>
        <time>2014-04-05T08:58:45Z</time>
      </trkpt>
      <trkpt lat="43.88936" lon="0.75754">
        <ele>167.89</ele>
        <time>2014-04-05T08:59:09Z</time>
      </trkpt>
      <trkpt lat="43.88945" lon="0.75741">
        <ele>167.89</ele>
        <time>2014-04-05T08:59:23Z</time>
      </trkpt>
      <trkpt lat="43.88946" lon="0.75739">
        <ele>166.45</ele>
        <time>2014-04-05T08:59:33Z</time>
      </trkpt>
      <trkpt lat="43.88946" lon="0.7574">
        <ele>166.45</ele>
        <time>2014-04-05T08:59:57Z</time>
      </trkpt>
      <trkpt lat="43.88944" lon="0.75737">
        <ele>167.89</ele>
        <time>2014-04-05T09:00:28Z</time>
      </trkpt>
      <trkpt lat="43.88944" lon="0.75728">
        <ele>167.89</ele>
        <time>2014-04-05T09:00:34Z</time>
      </trkpt>
      <trkpt lat="43.88943" lon="0.75725">
        <ele>167.89</ele>
        <time>2014-04-05T09:00:36Z</time>
      </trkpt>
      <trkpt lat="43.88943" lon="0.75694">
        <ele>169.81</ele>
        <time>2014-04-05T09:00:55Z</time>
      </trkpt>
      <trkpt lat="43.88942" lon="0.75658">
        <ele>171.73</ele>
        <time>2014-04-05T09:01:17Z</time>
      </trkpt>
      <trkpt lat="43.88947" lon="0.75638">
        <ele>171.73</ele>
        <time>2014-04-05T09:01:31Z</time>
      </trkpt>
      <trkpt lat="43.88966" lon="0.75606">
        <ele>172.21</ele>
        <time>2014-04-05T09:01:54Z</time>
      </trkpt>
      <trkpt lat="43.88987" lon="0.75578">
        <ele>171.73</ele>
        <time>2014-04-05T09:02:16Z</time>
      </trkpt>
      <trkpt lat="43.89006" lon="0.75557">
        <ele>173.17</ele>
        <time>2014-04-05T09:02:34Z</time>
      </trkpt>
      <trkpt lat="43.8902" lon="0.75536">
        <ele>175.1</ele>
        <time>2014-04-05T09:02:51Z</time>
      </trkpt>
      <trkpt lat="43.89018" lon="0.7552">
        <ele>175.1</ele>
        <time>2014-04-05T09:03:02Z</time>
      </trkpt>
      <trkpt lat="43.89017" lon="0.75495">
        <ele>174.14</ele>
        <time>2014-04-05T09:03:15Z</time>
      </trkpt>
      <trkpt lat="43.89019" lon="0.75453">
        <ele>172.69</ele>
        <time>2014-04-05T09:03:37Z</time>
      </trkpt>
      <trkpt lat="43.89018" lon="0.75414">
        <ele>171.73</ele>
        <time>2014-04-05T09:03:59Z</time>
      </trkpt>
      <trkpt lat="43.8902" lon="0.75371">
        <ele>170.29</ele>
        <time>2014-04-05T09:04:23Z</time>
      </trkpt>
      <trkpt lat="43.8902" lon="0.75331">
        <ele>167.89</ele>
        <time>2014-04-05T09:04:45Z</time>
      </trkpt>
      <trkpt lat="43.89021" lon="0.75288">
        <ele>167.41</ele>
        <time>2014-04-05T09:05:08Z</time>
      </trkpt>
      <trkpt lat="43.89019" lon="0.75252">
        <ele>165.96</ele>
        <time>2014-04-05T09:05:28Z</time>
      </trkpt>
      <trkpt lat="43.89019" lon="0.7522">
        <ele>164.52</ele>
        <time>2014-04-05T09:05:45Z</time>
      </trkpt>
      <trkpt lat="43.89018" lon="0.75179">
        <ele>165.48</ele>
        <time>2014-04-05T09:06:07Z</time>
      </trkpt>
      <trkpt lat="43.89017" lon="0.75134">
        <ele>164.52</ele>
        <time>2014-04-05T09:06:31Z</time>
      </trkpt>
      <trkpt lat="43.89016" lon="0.75087">
        <ele>161.16</ele>
        <time>2014-04-05T09:06:56Z</time>
      </trkpt>
      <trkpt lat="43.89016" lon="0.75045">
        <ele>161.16</ele>
        <time>2014-04-05T09:07:19Z</time>
      </trkpt>
      <trkpt lat="43.89015" lon="0.75001">
        <ele>160.68</ele>
        <time>2014-04-05T09:07:43Z</time>
      </trkpt>
      <trkpt lat="43.89016" lon="0.74957">
        <ele>159.72</ele>
        <time>2014-04-05T09:08:07Z</time>
      </trkpt>
      <trkpt lat="43.89024" lon="0.74934">
        <ele>158.75</ele>
        <time>2014-04-05T09:08:25Z</time>
      </trkpt>
      <trkpt lat="43.8904" lon="0.74911">
        <ele>156.83</ele>
        <time>2014-04-05T09:08:44Z</time>
      </trkpt>
      <trkpt lat="43.89052" lon="0.74872">
        <ele>157.31</ele>
        <time>2014-04-05T09:09:07Z</time>
      </trkpt>
      <trkpt lat="43.89058" lon="0.74856">
        <ele>156.83</ele>
        <time>2014-04-05T09:09:20Z</time>
      </trkpt>
      <trkpt lat="43.89067" lon="0.74824">
        <ele>153.47</ele>
        <time>2014-04-05T09:09:40Z</time>
      </trkpt>
      <trkpt lat="43.89074" lon="0.74792">
        <ele>153.47</ele>
        <time>2014-04-05T09:09:58Z</time>
      </trkpt>
      <trkpt lat="43.89077" lon="0.74762">
        <ele>156.83</ele>
        <time>2014-04-05T09:10:15Z</time>
      </trkpt>
      <trkpt lat="43.89079" lon="0.74738">
        <ele>155.39</ele>
        <time>2014-04-05T09:10:29Z</time>
      </trkpt>
      <trkpt lat="43.8908" lon="0.7471">
        <ele>158.27</ele>
        <time>2014-04-05T09:10:44Z</time>
      </trkpt>
      <trkpt lat="43.8908" lon="0.74671">
        <ele>159.72</ele>
        <time>2014-04-05T09:11:04Z</time>
      </trkpt>
      <trkpt lat="43.8908" lon="0.74644">
        <ele>162.6</ele>
        <time>2014-04-05T09:11:20Z</time>
      </trkpt>
      <trkpt lat="43.89081" lon="0.74625">
        <ele>164.52</ele>
        <time>2014-04-05T09:11:31Z</time>
      </trkpt>
      <trkpt lat="43.89083" lon="0.74598">
        <ele>163.56</ele>
        <time>2014-04-05T09:11:46Z</time>
      </trkpt>
      <trkpt lat="43.89081" lon="0.74584">
        <ele>162.6</ele>
        <time>2014-04-05T09:11:56Z</time>
      </trkpt>
      <trkpt lat="43.8908" lon="0.74578">
        <ele>161.64</ele>
        <time>2014-04-05T09:12:08Z</time>
      </trkpt>
      <trkpt lat="43.89072" lon="0.74541">
        <ele>157.31</ele>
        <time>2014-04-05T09:12:29Z</time>
      </trkpt>
      <trkpt lat="43.89064" lon="0.74505">
        <ele>152.03</ele>
        <time>2014-04-05T09:12:49Z</time>
      </trkpt>
      <trkpt lat="43.89065" lon="0.74476">
        <ele>153.95</ele>
        <time>2014-04-05T09:13:04Z</time>
      </trkpt>
      <trkpt lat="43.89064" lon="0.74458">
        <ele>153.95</ele>
        <time>2014-04-05T09:13:22Z</time>
      </trkpt>
      <trkpt lat="43.89065" lon="0.74456">
        <ele>149.14</ele>
        <time>2014-04-05T09:13:50Z</time>
      </trkpt>
      <trkpt lat="43.89066" lon="0.74455">
        <ele>146.74</ele>
        <time>2014-04-05T09:14:04Z</time>
      </trkpt>
      <trkpt lat="43.89065" lon="0.74456">
        <ele>144.82</ele>
        <time>2014-04-05T09:14:22Z</time>
      </trkpt>
      <trkpt lat="43.89065" lon="0.74455">
        <ele>143.85</ele>
        <time>2014-04-05T09:14:42Z</time>
      </trkpt>
      <trkpt lat="43.89067" lon="0.74458">
        <ele>143.85</ele>
        <time>2014-04-05T09:15:06Z</time>
      </trkpt>
      <trkpt lat="43.89064" lon="0.74456">
        <ele>143.85</ele>
        <time>2014-04-05T09:15:09Z</time>
      </trkpt>
      <trkpt lat="43.89057" lon="0.74455">
        <ele>144.34</ele>
        <time>2014-04-05T09:15:15Z</time>
      </trkpt>
      <trkpt lat="43.89039" lon="0.74454">
        <ele>145.3</ele>
        <time>2014-04-05T09:15:33Z</time>
      </trkpt>
      <trkpt lat="43.89037" lon="0.74452">
        <ele>145.3</ele>
        <time>2014-04-05T09:15:52Z</time>
      </trkpt>
      <trkpt lat="43.89025" lon="0.74451">
        <ele>145.78</ele>
        <time>2014-04-05T09:16:04Z</time>
      </trkpt>
      <trkpt lat="43.89022" lon="0.74433">
        <ele>145.3</ele>
        <time>2014-04-05T09:16:18Z</time>
      </trkpt>
      <trkpt lat="43.89023" lon="0.74431">
        <ele>144.82</ele>
        <time>2014-04-05T09:16:22Z</time>
      </trkpt>
      <trkpt lat="43.89027" lon="0.74448">
        <ele>145.78</ele>
        <time>2014-04-05T09:16:35Z</time>
      </trkpt>
      <trkpt lat="43.89049" lon="0.74452">
        <ele>146.26</ele>
        <time>2014-04-05T09:16:53Z</time>
      </trkpt>
      <trkpt lat="43.89064" lon="0.74454">
        <ele>144.34</ele>
        <time>2014-04-05T09:17:12Z</time>
      </trkpt>
      <trkpt lat="43.89067" lon="0.74452">
        <ele>143.37</ele>
        <time>2014-04-05T09:17:28Z</time>
      </trkpt>
      <trkpt lat="43.8907" lon="0.74452">
        <ele>142.89</ele>
        <time>2014-04-05T09:17:46Z</time>
      </trkpt>
      <trkpt lat="43.89069" lon="0.74453">
        <ele>142.89</ele>
        <time>2014-04-05T09:18:03Z</time>
      </trkpt>
      <trkpt lat="43.89068" lon="0.74455">
        <ele>143.37</ele>
        <time>2014-04-05T09:18:05Z</time>
      </trkpt>
      <trkpt lat="43.89069" lon="0.74458">
        <ele>142.89</ele>
        <time>2014-04-05T09:18:07Z</time>
      </trkpt>
      <trkpt lat="43.89068" lon="0.74487">
        <ele>141.93</ele>
        <time>2014-04-05T09:18:24Z</time>
      </trkpt>
      <trkpt lat="43.89069" lon="0.74518">
        <ele>142.89</ele>
        <time>2014-04-05T09:18:39Z</time>
      </trkpt>
      <trkpt lat="43.8908" lon="0.74549">
        <ele>146.26</ele>
        <time>2014-04-05T09:18:58Z</time>
      </trkpt>
      <trkpt lat="43.89085" lon="0.74576">
        <ele>151.06</ele>
        <time>2014-04-05T09:19:15Z</time>
      </trkpt>
      <trkpt lat="43.89087" lon="0.74585">
        <ele>157.79</ele>
        <time>2014-04-05T09:19:29Z</time>
      </trkpt>
      <trkpt lat="43.89087" lon="0.74584">
        <ele>159.24</ele>
        <time>2014-04-05T09:19:50Z</time>
      </trkpt>
      <trkpt lat="43.89085" lon="0.74587">
        <ele>159.72</ele>
        <time>2014-04-05T09:20:04Z</time>
      </trkpt>
      <trkpt lat="43.89083" lon="0.74592">
        <ele>157.31</ele>
        <time>2014-04-05T09:20:26Z</time>
      </trkpt>
      <trkpt lat="43.89087" lon="0.7459">
        <ele>156.35</ele>
        <time>2014-04-05T09:20:45Z</time>
      </trkpt>
      <trkpt lat="43.89087" lon="0.74591">
        <ele>154.91</ele>
        <time>2014-04-05T09:21:04Z</time>
      </trkpt>
      <trkpt lat="43.89088" lon="0.74591">
        <ele>156.35</ele>
        <time>2014-04-05T09:21:28Z</time>
      </trkpt>
      <trkpt lat="43.8909" lon="0.74591">
        <ele>155.87</ele>
        <time>2014-04-05T09:21:47Z</time>
      </trkpt>
      <trkpt lat="43.8909" lon="0.74588">
        <ele>156.35</ele>
        <time>2014-04-05T09:22:11Z</time>
      </trkpt>
      <trkpt lat="43.89088" lon="0.74588">
        <ele>159.72</ele>
        <time>2014-04-05T09:22:30Z</time>
      </trkpt>
      <trkpt lat="43.89084" lon="0.74583">
        <ele>160.68</ele>
        <time>2014-04-05T09:22:54Z</time>
      </trkpt>
      <trkpt lat="43.89083" lon="0.74591">
        <ele>158.27</ele>
        <time>2014-04-05T09:23:22Z</time>
      </trkpt>
      <trkpt lat="43.89085" lon="0.74594">
        <ele>156.35</ele>
        <time>2014-04-05T09:23:36Z</time>
      </trkpt>
      <trkpt lat="43.89087" lon="0.74593">
        <ele>154.43</ele>
        <time>2014-04-05T09:23:49Z</time>
      </trkpt>
      <trkpt lat="43.89085" lon="0.74591">
        <ele>156.83</ele>
        <time>2014-04-05T09:24:08Z</time>
      </trkpt>
      <trkpt lat="43.89089" lon="0.74589">
        <ele>155.87</ele>
        <time>2014-04-05T09:24:32Z</time>
      </trkpt>
      <trkpt lat="43.89087" lon="0.74589">
        <ele>154.91</ele>
        <time>2014-04-05T09:24:54Z</time>
      </trkpt>
      <trkpt lat="43.89087" lon="0.74586">
        <ele>157.31</ele>
        <time>2014-04-05T09:25:13Z</time>
      </trkpt>
      <trkpt lat="43.89087" lon="0.74585">
        <ele>155.39</ele>
        <time>2014-04-05T09:25:28Z</time>
      </trkpt>
      <trkpt lat="43.89086" lon="0.74589">
        <ele>154.43</ele>
        <time>2014-04-05T09:25:43Z</time>
      </trkpt>
      <trkpt lat="43.89086" lon="0.74587">
        <ele>156.35</ele>
        <time>2014-04-05T09:26:00Z</time>
      </trkpt>
      <trkpt lat="43.89088" lon="0.74586">
        <ele>157.79</ele>
        <time>2014-04-05T09:26:30Z</time>
      </trkpt>
      <trkpt lat="43.89091" lon="0.74587">
        <ele>158.27</ele>
        <time>2014-04-05T09:26:59Z</time>
      </trkpt>
      <trkpt lat="43.89083" lon="0.74575">
        <ele>157.79</ele>
        <time>2014-04-05T09:27:11Z</time>
      </trkpt>
      <trkpt lat="43.89085" lon="0.74578">
        <ele>155.39</ele>
        <time>2014-04-05T09:27:20Z</time>
      </trkpt>
      <trkpt lat="43.89083" lon="0.74572">
        <ele>153.95</ele>
        <time>2014-04-05T09:27:29Z</time>
      </trkpt>
      <trkpt lat="43.89082" lon="0.74564">
        <ele>152.99</ele>
        <time>2014-04-05T09:27:34Z</time>
      </trkpt>
      <trkpt lat="43.89073" lon="0.74542">
        <ele>150.1</ele>
        <time>2014-04-05T09:27:48Z</time>
      </trkpt>
      <trkpt lat="43.89065" lon="0.74517">
        <ele>146.74</ele>
        <time>2014-04-05T09:28:02Z</time>
      </trkpt>
      <trkpt lat="43.89065" lon="0.74497">
        <ele>142.41</ele>
        <time>2014-04-05T09:28:13Z</time>
      </trkpt>
      <trkpt lat="43.89066" lon="0.74489">
        <ele>141.93</ele>
        <time>2014-04-05T09:28:17Z</time>
      </trkpt>
      <trkpt lat="43.89064" lon="0.74463">
        <ele>143.85</ele>
        <time>2014-04-05T09:28:30Z</time>
      </trkpt>
      <trkpt lat="43.89052" lon="0.74451">
        <ele>145.78</ele>
        <time>2014-04-05T09:28:44Z</time>
      </trkpt>
      <trkpt lat="43.89034" lon="0.7445">
        <ele>146.26</ele>
        <time>2014-04-05T09:28:57Z</time>
      </trkpt>
      <trkpt lat="43.89025" lon="0.74448">
        <ele>143.85</ele>
        <time>2014-04-05T09:29:09Z</time>
      </trkpt>
      <trkpt lat="43.89024" lon="0.74447">
        <ele>143.85</ele>
        <time>2014-04-05T09:29:10Z</time>
      </trkpt>
      <trkpt lat="43.89023" lon="0.74429">
        <ele>143.85</ele>
        <time>2014-04-05T09:29:24Z</time>
      </trkpt>
      <trkpt lat="43.89017" lon="0.74422">
        <ele>145.78</ele>
        <time>2014-04-05T09:29:37Z</time>
      </trkpt>
      <trkpt lat="43.89014" lon="0.74409">
        <ele>147.22</ele>
        <time>2014-04-05T09:29:51Z</time>
      </trkpt>
      <trkpt lat="43.89012" lon="0.74404">
        <ele>149.14</ele>
        <time>2014-04-05T09:30:07Z</time>
      </trkpt>
      <trkpt lat="43.89009" lon="0.74402">
        <ele>150.58</ele>
        <time>2014-04-05T09:30:26Z</time>
      </trkpt>
      <trkpt lat="43.89008" lon="0.74399">
        <ele>150.1</ele>
        <time>2014-04-05T09:30:41Z</time>
      </trkpt>
      <trkpt lat="43.89008" lon="0.74396">
        <ele>149.62</ele>
        <time>2014-04-05T09:30:56Z</time>
      </trkpt>
      <trkpt lat="43.89011" lon="0.74386">
        <ele>149.14</ele>
        <time>2014-04-05T09:31:09Z</time>
      </trkpt>
      <trkpt lat="43.89013" lon="0.74366">
        <ele>150.58</ele>
        <time>2014-04-05T09:31:25Z</time>
      </trkpt>
      <trkpt lat="43.89014" lon="0.74354">
        <ele>153.47</ele>
        <time>2014-04-05T09:31:39Z</time>
      </trkpt>
      <trkpt lat="43.89017" lon="0.74332">
        <ele>153.47</ele>
        <time>2014-04-05T09:31:53Z</time>
      </trkpt>
      <trkpt lat="43.89017" lon="0.74326">
        <ele>152.99</ele>
        <time>2014-04-05T09:31:56Z</time>
      </trkpt>
      <trkpt lat="43.89018" lon="0.74319">
        <ele>152.51</ele>
        <time>2014-04-05T09:32:02Z</time>
      </trkpt>
      <trkpt lat="43.89015" lon="0.74299">
        <ele>154.43</ele>
        <time>2014-04-05T09:32:16Z</time>
      </trkpt>
      <trkpt lat="43.89011" lon="0.74281">
        <ele>156.35</ele>
        <time>2014-04-05T09:32:29Z</time>
      </trkpt>
      <trkpt lat="43.89004" lon="0.74261">
        <ele>153.95</ele>
        <time>2014-04-05T09:32:42Z</time>
      </trkpt>
      <trkpt lat="43.88992" lon="0.74248">
        <ele>152.99</ele>
        <time>2014-04-05T09:32:54Z</time>
      </trkpt>
      <trkpt lat="43.8899" lon="0.74248">
        <ele>152.99</ele>
        <time>2014-04-05T09:32:55Z</time>
      </trkpt>
      <trkpt lat="43.88972" lon="0.74239">
        <ele>153.47</ele>
        <time>2014-04-05T09:33:10Z</time>
      </trkpt>
      <trkpt lat="43.88959" lon="0.74239">
        <ele>155.87</ele>
        <time>2014-04-05T09:33:23Z</time>
      </trkpt>
      <trkpt lat="43.88945" lon="0.74238">
        <ele>157.31</ele>
        <time>2014-04-05T09:33:33Z</time>
      </trkpt>
      <trkpt lat="43.88936" lon="0.74238">
        <ele>158.27</ele>
        <time>2014-04-05T09:33:45Z</time>
      </trkpt>
      <trkpt lat="43.88936" lon="0.7424">
        <ele>157.31</ele>
        <time>2014-04-05T09:34:00Z</time>
      </trkpt>
      <trkpt lat="43.88935" lon="0.74242">
        <ele>152.99</ele>
        <time>2014-04-05T09:34:13Z</time>
      </trkpt>
      <trkpt lat="43.88934" lon="0.74242">
        <ele>151.54</ele>
        <time>2014-04-05T09:34:23Z</time>
      </trkpt>
      <trkpt lat="43.88934" lon="0.74244">
        <ele>152.03</ele>
        <time>2014-04-05T09:34:37Z</time>
      </trkpt>
      <trkpt lat="43.88934" lon="0.74243">
        <ele>151.54</ele>
        <time>2014-04-05T09:34:56Z</time>
      </trkpt>
      <trkpt lat="43.88932" lon="0.7424">
        <ele>151.06</ele>
        <time>2014-04-05T09:35:11Z</time>
      </trkpt>
      <trkpt lat="43.88931" lon="0.74243">
        <ele>150.1</ele>
        <time>2014-04-05T09:35:32Z</time>
      </trkpt>
      <trkpt lat="43.88932" lon="0.74243">
        <ele>149.14</ele>
        <time>2014-04-05T09:35:51Z</time>
      </trkpt>
      <trkpt lat="43.88931" lon="0.74235">
        <ele>146.26</ele>
        <time>2014-04-05T09:36:19Z</time>
      </trkpt>
      <trkpt lat="43.88935" lon="0.74248">
        <ele>144.34</ele>
        <time>2014-04-05T09:36:40Z</time>
      </trkpt>
      <trkpt lat="43.88936" lon="0.74247">
        <ele>144.82</ele>
        <time>2014-04-05T09:36:54Z</time>
      </trkpt>
      <trkpt lat="43.88935" lon="0.74244">
        <ele>145.3</ele>
        <time>2014-04-05T09:37:11Z</time>
      </trkpt>
      <trkpt lat="43.88944" lon="0.74246">
        <ele>143.37</ele>
        <time>2014-04-05T09:37:26Z</time>
      </trkpt>
      <trkpt lat="43.88958" lon="0.74248">
        <ele>137.61</ele>
        <time>2014-04-05T09:37:40Z</time>
      </trkpt>
      <trkpt lat="43.88971" lon="0.74249">
        <ele>135.68</ele>
        <time>2014-04-05T09:37:53Z</time>
      </trkpt>
      <trkpt lat="43.88986" lon="0.74253">
        <ele>133.28</ele>
        <time>2014-04-05T09:38:07Z</time>
      </trkpt>
      <trkpt lat="43.88997" lon="0.74263">
        <ele>133.28</ele>
        <time>2014-04-05T09:38:20Z</time>
      </trkpt>
      <trkpt lat="43.89005" lon="0.74281">
        <ele>134.72</ele>
        <time>2014-04-05T09:38:36Z</time>
      </trkpt>
      <trkpt lat="43.89009" lon="0.74298">
        <ele>137.61</ele>
        <time>2014-04-05T09:38:50Z</time>
      </trkpt>
      <trkpt lat="43.89009" lon="0.74299">
        <ele>137.61</ele>
        <time>2014-04-05T09:38:51Z</time>
      </trkpt>
      <trkpt lat="43.89012" lon="0.74304">
        <ele>137.61</ele>
        <time>2014-04-05T09:38:54Z</time>
      </trkpt>
      <trkpt lat="43.89014" lon="0.74311">
        <ele>138.09</ele>
        <time>2014-04-05T09:39:00Z</time>
      </trkpt>
      <trkpt lat="43.89015" lon="0.74331">
        <ele>141.93</ele>
        <time>2014-04-05T09:39:12Z</time>
      </trkpt>
      <trkpt lat="43.89015" lon="0.74346">
        <ele>143.85</ele>
        <time>2014-04-05T09:39:23Z</time>
      </trkpt>
      <trkpt lat="43.89014" lon="0.74363">
        <ele>145.3</ele>
        <time>2014-04-05T09:39:30Z</time>
      </trkpt>
      <trkpt lat="43.89015" lon="0.74367">
        <ele>144.82</ele>
        <time>2014-04-05T09:39:34Z</time>
      </trkpt>
      <trkpt lat="43.89013" lon="0.7439">
        <ele>147.22</ele>
        <time>2014-04-05T09:39:50Z</time>
      </trkpt>
      <trkpt lat="43.89014" lon="0.74399">
        <ele>146.26</ele>
        <time>2014-04-05T09:40:06Z</time>
      </trkpt>
      <trkpt lat="43.8901" lon="0.74403">
        <ele>146.26</ele>
        <time>2014-04-05T09:40:27Z</time>
      </trkpt>
      <trkpt lat="43.89011" lon="0.74411">
        <ele>148.18</ele>
        <time>2014-04-05T09:40:39Z</time>
      </trkpt>
      <trkpt lat="43.89011" lon="0.74415">
        <ele>149.14</ele>
        <time>2014-04-05T09:40:42Z</time>
      </trkpt>
      <trkpt lat="43.89014" lon="0.74423">
        <ele>148.66</ele>
        <time>2014-04-05T09:40:49Z</time>
      </trkpt>
      <trkpt lat="43.89021" lon="0.74424">
        <ele>146.74</ele>
        <time>2014-04-05T09:40:56Z</time>
      </trkpt>
      <trkpt lat="43.89025" lon="0.74435">
        <ele>145.3</ele>
        <time>2014-04-05T09:41:04Z</time>
      </trkpt>
      <trkpt lat="43.89026" lon="0.74443">
        <ele>144.82</ele>
        <time>2014-04-05T09:41:09Z</time>
      </trkpt>
      <trkpt lat="43.89038" lon="0.74451">
        <ele>143.37</ele>
        <time>2014-04-05T09:41:24Z</time>
      </trkpt>
      <trkpt lat="43.89061" lon="0.74454">
        <ele>141.93</ele>
        <time>2014-04-05T09:41:43Z</time>
      </trkpt>
      <trkpt lat="43.89068" lon="0.74451">
        <ele>141.45</ele>
        <time>2014-04-05T09:41:51Z</time>
      </trkpt>
      <trkpt lat="43.89069" lon="0.74448">
        <ele>140.97</ele>
        <time>2014-04-05T09:41:53Z</time>
      </trkpt>
      <trkpt lat="43.89082" lon="0.74439">
        <ele>141.45</ele>
        <time>2014-04-05T09:42:09Z</time>
      </trkpt>
      <trkpt lat="43.89087" lon="0.74439">
        <ele>142.41</ele>
        <time>2014-04-05T09:42:25Z</time>
      </trkpt>
      <trkpt lat="43.89084" lon="0.7445">
        <ele>143.37</ele>
        <time>2014-04-05T09:42:48Z</time>
      </trkpt>
      <trkpt lat="43.89091" lon="0.74428">
        <ele>142.41</ele>
        <time>2014-04-05T09:43:08Z</time>
      </trkpt>
      <trkpt lat="43.89094" lon="0.74421">
        <ele>141.45</ele>
        <time>2014-04-05T09:43:37Z</time>
      </trkpt>
      <trkpt lat="43.89101" lon="0.7439">
        <ele>140.49</ele>
        <time>2014-04-05T09:44:01Z</time>
      </trkpt>
      <trkpt lat="43.89098" lon="0.74375">
        <ele>140.49</ele>
        <time>2014-04-05T09:44:10Z</time>
      </trkpt>
      <trkpt lat="43.89099" lon="0.7437">
        <ele>141.93</ele>
        <time>2014-04-05T09:44:14Z</time>
      </trkpt>
      <trkpt lat="43.891" lon="0.74361">
        <ele>138.57</ele>
        <time>2014-04-05T09:44:28Z</time>
      </trkpt>
      <trkpt lat="43.89101" lon="0.74368">
        <ele>138.09</ele>
        <time>2014-04-05T09:44:45Z</time>
      </trkpt>
      <trkpt lat="43.89101" lon="0.7437">
        <ele>138.09</ele>
        <time>2014-04-05T09:45:01Z</time>
      </trkpt>
      <trkpt lat="43.89102" lon="0.74366">
        <ele>140.97</ele>
        <time>2014-04-05T09:45:17Z</time>
      </trkpt>
      <trkpt lat="43.89102" lon="0.74374">
        <ele>141.45</ele>
        <time>2014-04-05T09:45:30Z</time>
      </trkpt>
      <trkpt lat="43.89101" lon="0.74388">
        <ele>142.41</ele>
        <time>2014-04-05T09:45:43Z</time>
      </trkpt>
      <trkpt lat="43.89097" lon="0.74405">
        <ele>144.82</ele>
        <time>2014-04-05T09:45:56Z</time>
      </trkpt>
      <trkpt lat="43.89098" lon="0.74404">
        <ele>145.78</ele>
        <time>2014-04-05T09:46:15Z</time>
      </trkpt>
      <trkpt lat="43.89094" lon="0.74417">
        <ele>145.78</ele>
        <time>2014-04-05T09:46:28Z</time>
      </trkpt>
      <trkpt lat="43.89093" lon="0.74422">
        <ele>146.26</ele>
        <time>2014-04-05T09:46:32Z</time>
      </trkpt>
      <trkpt lat="43.8909" lon="0.74437">
        <ele>146.26</ele>
        <time>2014-04-05T09:46:44Z</time>
      </trkpt>
      <trkpt lat="43.89089" lon="0.74455">
        <ele>146.26</ele>
        <time>2014-04-05T09:46:57Z</time>
      </trkpt>
      <trkpt lat="43.89089" lon="0.74466">
        <ele>146.26</ele>
        <time>2014-04-05T09:47:05Z</time>
      </trkpt>
      <trkpt lat="43.89088" lon="0.74481">
        <ele>148.66</ele>
        <time>2014-04-05T09:47:17Z</time>
      </trkpt>
      <trkpt lat="43.89089" lon="0.74498">
        <ele>150.58</ele>
        <time>2014-04-05T09:47:30Z</time>
      </trkpt>
      <trkpt lat="43.89095" lon="0.7452">
        <ele>152.03</ele>
        <time>2014-04-05T09:47:42Z</time>
      </trkpt>
      <trkpt lat="43.89095" lon="0.74523">
        <ele>152.03</ele>
        <time>2014-04-05T09:47:44Z</time>
      </trkpt>
      <trkpt lat="43.89095" lon="0.7454">
        <ele>150.58</ele>
        <time>2014-04-05T09:47:56Z</time>
      </trkpt>
      <trkpt lat="43.89095" lon="0.7456">
        <ele>149.62</ele>
        <time>2014-04-05T09:48:07Z</time>
      </trkpt>
      <trkpt lat="43.89093" lon="0.74581">
        <ele>151.54</ele>
        <time>2014-04-05T09:48:20Z</time>
      </trkpt>
      <trkpt lat="43.89092" lon="0.74582">
        <ele>151.54</ele>
        <time>2014-04-05T09:48:22Z</time>
      </trkpt>
      <trkpt lat="43.89089" lon="0.74603">
        <ele>150.1</ele>
        <time>2014-04-05T09:48:35Z</time>
      </trkpt>
      <trkpt lat="43.89085" lon="0.74628">
        <ele>151.06</ele>
        <time>2014-04-05T09:48:50Z</time>
      </trkpt>
      <trkpt lat="43.89085" lon="0.74652">
        <ele>150.1</ele>
        <time>2014-04-05T09:49:06Z</time>
      </trkpt>
      <trkpt lat="43.89086" lon="0.74685">
        <ele>151.06</ele>
        <time>2014-04-05T09:49:25Z</time>
      </trkpt>
      <trkpt lat="43.89084" lon="0.74715">
        <ele>153.95</ele>
        <time>2014-04-05T09:49:41Z</time>
      </trkpt>
      <trkpt lat="43.89083" lon="0.74738">
        <ele>156.35</ele>
        <time>2014-04-05T09:49:56Z</time>
      </trkpt>
      <trkpt lat="43.89076" lon="0.74769">
        <ele>159.24</ele>
        <time>2014-04-05T09:50:13Z</time>
      </trkpt>
      <trkpt lat="43.89072" lon="0.74796">
        <ele>158.27</ele>
        <time>2014-04-05T09:50:30Z</time>
      </trkpt>
      <trkpt lat="43.89064" lon="0.74827">
        <ele>157.79</ele>
        <time>2014-04-05T09:50:48Z</time>
      </trkpt>
      <trkpt lat="43.89059" lon="0.74844">
        <ele>158.75</ele>
        <time>2014-04-05T09:51:02Z</time>
      </trkpt>
      <trkpt lat="43.89062" lon="0.74838">
        <ele>154.43</ele>
        <time>2014-04-05T09:51:18Z</time>
      </trkpt>
      <trkpt lat="43.89067" lon="0.74821">
        <ele>151.06</ele>
        <time>2014-04-05T09:51:34Z</time>
      </trkpt>
      <trkpt lat="43.89071" lon="0.748">
        <ele>149.62</ele>
        <time>2014-04-05T09:51:44Z</time>
      </trkpt>
      <trkpt lat="43.89076" lon="0.74785">
        <ele>148.18</ele>
        <time>2014-04-05T09:51:59Z</time>
      </trkpt>
      <trkpt lat="43.89077" lon="0.74757">
        <ele>149.14</ele>
        <time>2014-04-05T09:52:11Z</time>
      </trkpt>
      <trkpt lat="43.89079" lon="0.74737">
        <ele>152.99</ele>
        <time>2014-04-05T09:52:22Z</time>
      </trkpt>
      <trkpt lat="43.89077" lon="0.74734">
        <ele>153.47</ele>
        <time>2014-04-05T09:52:25Z</time>
      </trkpt>
      <trkpt lat="43.89078" lon="0.74702">
        <ele>151.54</ele>
        <time>2014-04-05T09:52:41Z</time>
      </trkpt>
      <trkpt lat="43.89081" lon="0.74676">
        <ele>152.03</ele>
        <time>2014-04-05T09:52:56Z</time>
      </trkpt>
      <trkpt lat="43.8908" lon="0.74664">
        <ele>152.99</ele>
        <time>2014-04-05T09:53:09Z</time>
      </trkpt>
      <trkpt lat="43.89081" lon="0.74643">
        <ele>152.03</ele>
        <time>2014-04-05T09:53:24Z</time>
      </trkpt>
      <trkpt lat="43.89083" lon="0.7462">
        <ele>149.14</ele>
        <time>2014-04-05T09:53:40Z</time>
      </trkpt>
      <trkpt lat="43.89085" lon="0.746">
        <ele>147.7</ele>
        <time>2014-04-05T09:53:56Z</time>
      </trkpt>
      <trkpt lat="43.89087" lon="0.746">
        <ele>146.74</ele>
        <time>2014-04-05T09:54:24Z</time>
      </trkpt>
      <trkpt lat="43.89091" lon="0.7459">
        <ele>150.58</ele>
        <time>2014-04-05T09:54:38Z</time>
      </trkpt>
      <trkpt lat="43.89101" lon="0.74586">
        <ele>153.47</ele>
        <time>2014-04-05T09:54:52Z</time>
      </trkpt>
      <trkpt lat="43.89107" lon="0.7458">
        <ele>155.39</ele>
        <time>2014-04-05T09:55:07Z</time>
      </trkpt>
      <trkpt lat="43.89112" lon="0.74569">
        <ele>159.24</ele>
        <time>2014-04-05T09:55:22Z</time>
      </trkpt>
      <trkpt lat="43.89122" lon="0.74565">
        <ele>159.72</ele>
        <time>2014-04-05T09:55:36Z</time>
      </trkpt>
      <trkpt lat="43.89126" lon="0.7456">
        <ele>160.68</ele>
        <time>2014-04-05T09:55:47Z</time>
      </trkpt>
      <trkpt lat="43.89127" lon="0.74557">
        <ele>161.16</ele>
        <time>2014-04-05T09:55:48Z</time>
      </trkpt>
      <trkpt lat="43.8913" lon="0.74542">
        <ele>160.68</ele>
        <time>2014-04-05T09:55:59Z</time>
      </trkpt>
      <trkpt lat="43.89129" lon="0.74524">
        <ele>161.16</ele>
        <time>2014-04-05T09:56:10Z</time>
      </trkpt>
      <trkpt lat="43.89129" lon="0.74519">
        <ele>161.16</ele>
        <time>2014-04-05T09:56:15Z</time>
      </trkpt>
      <trkpt lat="43.8913" lon="0.74506">
        <ele>161.64</ele>
        <time>2014-04-05T09:56:27Z</time>
      </trkpt>
      <trkpt lat="43.89131" lon="0.74495">
        <ele>161.64</ele>
        <time>2014-04-05T09:56:35Z</time>
      </trkpt>
      <trkpt lat="43.89132" lon="0.74479">
        <ele>162.6</ele>
        <time>2014-04-05T09:56:45Z</time>
      </trkpt>
      <trkpt lat="43.89131" lon="0.74466">
        <ele>163.56</ele>
        <time>2014-04-05T09:56:55Z</time>
      </trkpt>
      <trkpt lat="43.8913" lon="0.74444">
        <ele>162.12</ele>
        <time>2014-04-05T09:57:07Z</time>
      </trkpt>
      <trkpt lat="43.89134" lon="0.74428">
        <ele>160.2</ele>
        <time>2014-04-05T09:57:19Z</time>
      </trkpt>
      <trkpt lat="43.89139" lon="0.74413">
        <ele>161.16</ele>
        <time>2014-04-05T09:57:31Z</time>
      </trkpt>
      <trkpt lat="43.89141" lon="0.74394">
        <ele>160.68</ele>
        <time>2014-04-05T09:57:43Z</time>
      </trkpt>
      <trkpt lat="43.89142" lon="0.74377">
        <ele>158.75</ele>
        <time>2014-04-05T09:57:55Z</time>
      </trkpt>
      <trkpt lat="43.89144" lon="0.74357">
        <ele>158.75</ele>
        <time>2014-04-05T09:58:08Z</time>
      </trkpt>
      <trkpt lat="43.89147" lon="0.74338">
        <ele>159.24</ele>
        <time>2014-04-05T09:58:19Z</time>
      </trkpt>
      <trkpt lat="43.89149" lon="0.74318">
        <ele>161.16</ele>
        <time>2014-04-05T09:58:32Z</time>
      </trkpt>
      <trkpt lat="43.89153" lon="0.74301">
        <ele>163.56</ele>
        <time>2014-04-05T09:58:42Z</time>
      </trkpt>
      <trkpt lat="43.89153" lon="0.74276">
        <ele>163.08</ele>
        <time>2014-04-05T09:58:55Z</time>
      </trkpt>
      <trkpt lat="43.89154" lon="0.74267">
        <ele>163.08</ele>
        <time>2014-04-05T09:59:01Z</time>
      </trkpt>
      <trkpt lat="43.8915" lon="0.74246">
        <ele>164.52</ele>
        <time>2014-04-05T09:59:13Z</time>
      </trkpt>
      <trkpt lat="43.89148" lon="0.74231">
        <ele>164.52</ele>
        <time>2014-04-05T09:59:20Z</time>
      </trkpt>
      <trkpt lat="43.89152" lon="0.74216">
        <ele>164.52</ele>
        <time>2014-04-05T09:59:28Z</time>
      </trkpt>
      <trkpt lat="43.89154" lon="0.74212">
        <ele>165</ele>
        <time>2014-04-05T09:59:31Z</time>
      </trkpt>
      <trkpt lat="43.8915" lon="0.74194">
        <ele>164.52</ele>
        <time>2014-04-05T09:59:43Z</time>
      </trkpt>
      <trkpt lat="43.89152" lon="0.74177">
        <ele>164.52</ele>
        <time>2014-04-05T09:59:54Z</time>
      </trkpt>
      <trkpt lat="43.89154" lon="0.74173">
        <ele>164.52</ele>
        <time>2014-04-05T09:59:56Z</time>
      </trkpt>
      <trkpt lat="43.8916" lon="0.74142">
        <ele>162.6</ele>
        <time>2014-04-05T10:00:12Z</time>
      </trkpt>
      <trkpt lat="43.89165" lon="0.74124">
        <ele>161.16</ele>
        <time>2014-04-05T10:00:24Z</time>
      </trkpt>
      <trkpt lat="43.89172" lon="0.74117">
        <ele>160.68</ele>
        <time>2014-04-05T10:00:36Z</time>
      </trkpt>
      <trkpt lat="43.89173" lon="0.74112">
        <ele>160.2</ele>
        <time>2014-04-05T10:00:40Z</time>
      </trkpt>
      <trkpt lat="43.8918" lon="0.74111">
        <ele>160.2</ele>
        <time>2014-04-05T10:00:50Z</time>
      </trkpt>
      <trkpt lat="43.89184" lon="0.741">
        <ele>160.68</ele>
        <time>2014-04-05T10:01:04Z</time>
      </trkpt>
      <trkpt lat="43.89184" lon="0.74089">
        <ele>159.24</ele>
        <time>2014-04-05T10:01:17Z</time>
      </trkpt>
      <trkpt lat="43.89183" lon="0.74086">
        <ele>158.27</ele>
        <time>2014-04-05T10:01:20Z</time>
      </trkpt>
      <trkpt lat="43.89179" lon="0.74078">
        <ele>155.39</ele>
        <time>2014-04-05T10:01:28Z</time>
      </trkpt>
      <trkpt lat="43.89178" lon="0.74071">
        <ele>152.51</ele>
        <time>2014-04-05T10:01:36Z</time>
      </trkpt>
      <trkpt lat="43.89168" lon="0.74067">
        <ele>150.1</ele>
        <time>2014-04-05T10:01:48Z</time>
      </trkpt>
      <trkpt lat="43.89155" lon="0.74063">
        <ele>144.34</ele>
        <time>2014-04-05T10:02:03Z</time>
      </trkpt>
      <trkpt lat="43.89155" lon="0.74056">
        <ele>140.49</ele>
        <time>2014-04-05T10:02:12Z</time>
      </trkpt>
      <trkpt lat="43.89163" lon="0.74048">
        <ele>138.09</ele>
        <time>2014-04-05T10:02:20Z</time>
      </trkpt>
      <trkpt lat="43.89178" lon="0.74043">
        <ele>138.57</ele>
        <time>2014-04-05T10:02:34Z</time>
      </trkpt>
      <trkpt lat="43.89194" lon="0.74034">
        <ele>139.53</ele>
        <time>2014-04-05T10:02:46Z</time>
      </trkpt>
      <trkpt lat="43.89196" lon="0.74032">
        <ele>139.53</ele>
        <time>2014-04-05T10:02:47Z</time>
      </trkpt>
      <trkpt lat="43.89206" lon="0.74033">
        <ele>139.53</ele>
        <time>2014-04-05T10:02:59Z</time>
      </trkpt>
      <trkpt lat="43.89208" lon="0.74034">
        <ele>139.53</ele>
        <time>2014-04-05T10:03:01Z</time>
      </trkpt>
      <trkpt lat="43.89213" lon="0.74035">
        <ele>139.53</ele>
        <time>2014-04-05T10:03:04Z</time>
      </trkpt>
      <trkpt lat="43.8922" lon="0.7404">
        <ele>138.09</ele>
        <time>2014-04-05T10:03:15Z</time>
      </trkpt>
      <trkpt lat="43.89222" lon="0.74036">
        <ele>133.28</ele>
        <time>2014-04-05T10:03:31Z</time>
      </trkpt>
      <trkpt lat="43.89218" lon="0.74017">
        <ele>133.28</ele>
        <time>2014-04-05T10:03:45Z</time>
      </trkpt>
      <trkpt lat="43.89211" lon="0.73999">
        <ele>129.92</ele>
        <time>2014-04-05T10:03:58Z</time>
      </trkpt>
      <trkpt lat="43.89208" lon="0.73967">
        <ele>131.84</ele>
        <time>2014-04-05T10:04:13Z</time>
      </trkpt>
      <trkpt lat="43.89208" lon="0.73935">
        <ele>129.43</ele>
        <time>2014-04-05T10:04:33Z</time>
      </trkpt>
      <trkpt lat="43.89204" lon="0.73907">
        <ele>125.11</ele>
        <time>2014-04-05T10:04:49Z</time>
      </trkpt>
      <trkpt lat="43.89197" lon="0.73868">
        <ele>121.74</ele>
        <time>2014-04-05T10:05:07Z</time>
      </trkpt>
      <trkpt lat="43.89195" lon="0.73851">
        <ele>121.26</ele>
        <time>2014-04-05T10:05:21Z</time>
      </trkpt>
      <trkpt lat="43.89195" lon="0.73833">
        <ele>122.71</ele>
        <time>2014-04-05T10:05:32Z</time>
      </trkpt>
      <trkpt lat="43.89194" lon="0.73817">
        <ele>124.63</ele>
        <time>2014-04-05T10:05:38Z</time>
      </trkpt>
      <trkpt lat="43.89184" lon="0.73781">
        <ele>128.95</ele>
        <time>2014-04-05T10:05:53Z</time>
      </trkpt>
      <trkpt lat="43.89183" lon="0.7376">
        <ele>128.47</ele>
        <time>2014-04-05T10:06:04Z</time>
      </trkpt>
      <trkpt lat="43.89183" lon="0.73731">
        <ele>125.11</ele>
        <time>2014-04-05T10:06:19Z</time>
      </trkpt>
      <trkpt lat="43.89183" lon="0.73729">
        <ele>125.59</ele>
        <time>2014-04-05T10:06:20Z</time>
      </trkpt>
      <trkpt lat="43.89184" lon="0.73719">
        <ele>124.63</ele>
        <time>2014-04-05T10:06:26Z</time>
      </trkpt>
      <trkpt lat="43.89183" lon="0.73693">
        <ele>123.19</ele>
        <time>2014-04-05T10:06:40Z</time>
      </trkpt>
      <trkpt lat="43.89182" lon="0.73661">
        <ele>127.51</ele>
        <time>2014-04-05T10:06:56Z</time>
      </trkpt>
      <trkpt lat="43.89183" lon="0.73639">
        <ele>128.95</ele>
        <time>2014-04-05T10:07:07Z</time>
      </trkpt>
      <trkpt lat="43.89183" lon="0.73626">
        <ele>128.95</ele>
        <time>2014-04-05T10:07:15Z</time>
      </trkpt>
      <trkpt lat="43.89176" lon="0.73629">
        <ele>127.99</ele>
        <time>2014-04-05T10:07:26Z</time>
      </trkpt>
      <trkpt lat="43.89161" lon="0.73646">
        <ele>127.03</ele>
        <time>2014-04-05T10:07:37Z</time>
      </trkpt>
      <trkpt lat="43.89148" lon="0.73654">
        <ele>126.07</ele>
        <time>2014-04-05T10:07:51Z</time>
      </trkpt>
      <trkpt lat="43.89129" lon="0.73666">
        <ele>126.07</ele>
        <time>2014-04-05T10:08:03Z</time>
      </trkpt>
      <trkpt lat="43.89113" lon="0.73676">
        <ele>125.59</ele>
        <time>2014-04-05T10:08:15Z</time>
      </trkpt>
      <trkpt lat="43.89105" lon="0.73689">
        <ele>123.67</ele>
        <time>2014-04-05T10:08:30Z</time>
      </trkpt>
      <trkpt lat="43.89092" lon="0.73714">
        <ele>124.15</ele>
        <time>2014-04-05T10:08:43Z</time>
      </trkpt>
      <trkpt lat="43.89073" lon="0.73732">
        <ele>122.22</ele>
        <time>2014-04-05T10:08:58Z</time>
      </trkpt>
      <trkpt lat="43.89062" lon="0.73743">
        <ele>119.34</ele>
        <time>2014-04-05T10:09:13Z</time>
      </trkpt>
      <trkpt lat="43.89039" lon="0.73764">
        <ele>120.78</ele>
        <time>2014-04-05T10:09:28Z</time>
      </trkpt>
      <trkpt lat="43.89039" lon="0.73766">
        <ele>120.78</ele>
        <time>2014-04-05T10:09:30Z</time>
      </trkpt>
      <trkpt lat="43.89024" lon="0.73779">
        <ele>123.19</ele>
        <time>2014-04-05T10:09:45Z</time>
      </trkpt>
      <trkpt lat="43.89012" lon="0.73797">
        <ele>123.19</ele>
        <time>2014-04-05T10:10:01Z</time>
      </trkpt>
      <trkpt lat="43.88996" lon="0.73814">
        <ele>126.07</ele>
        <time>2014-04-05T10:10:14Z</time>
      </trkpt>
      <trkpt lat="43.88986" lon="0.73827">
        <ele>126.55</ele>
        <time>2014-04-05T10:10:25Z</time>
      </trkpt>
      <trkpt lat="43.8898" lon="0.73836">
        <ele>127.51</ele>
        <time>2014-04-05T10:10:36Z</time>
      </trkpt>
      <trkpt lat="43.88963" lon="0.73855">
        <ele>130.4</ele>
        <time>2014-04-05T10:10:50Z</time>
      </trkpt>
      <trkpt lat="43.88952" lon="0.73867">
        <ele>132.8</ele>
        <time>2014-04-05T10:11:02Z</time>
      </trkpt>
      <trkpt lat="43.88943" lon="0.73876">
        <ele>131.84</ele>
        <time>2014-04-05T10:11:14Z</time>
      </trkpt>
      <trkpt lat="43.88922" lon="0.73897">
        <ele>129.92</ele>
        <time>2014-04-05T10:11:26Z</time>
      </trkpt>
      <trkpt lat="43.88916" lon="0.73903">
        <ele>127.03</ele>
        <time>2014-04-05T10:11:39Z</time>
      </trkpt>
      <trkpt lat="43.88913" lon="0.73907">
        <ele>127.03</ele>
        <time>2014-04-05T10:11:43Z</time>
      </trkpt>
      <trkpt lat="43.88907" lon="0.73913">
        <ele>126.55</ele>
        <time>2014-04-05T10:11:47Z</time>
      </trkpt>
      <trkpt lat="43.88884" lon="0.73935">
        <ele>123.67</ele>
        <time>2014-04-05T10:12:01Z</time>
      </trkpt>
      <trkpt lat="43.88871" lon="0.73925">
        <ele>121.74</ele>
        <time>2014-04-05T10:12:14Z</time>
      </trkpt>
      <trkpt lat="43.8887" lon="0.73916">
        <ele>121.74</ele>
        <time>2014-04-05T10:12:21Z</time>
      </trkpt>
      <trkpt lat="43.88865" lon="0.73889">
        <ele>126.55</ele>
        <time>2014-04-05T10:12:35Z</time>
      </trkpt>
      <trkpt lat="43.88858" lon="0.73869">
        <ele>130.4</ele>
        <time>2014-04-05T10:12:48Z</time>
      </trkpt>
      <trkpt lat="43.88852" lon="0.73854">
        <ele>133.28</ele>
        <time>2014-04-05T10:12:59Z</time>
      </trkpt>
      <trkpt lat="43.88846" lon="0.7384">
        <ele>137.13</ele>
        <time>2014-04-05T10:13:11Z</time>
      </trkpt>
      <trkpt lat="43.8884" lon="0.73828">
        <ele>140.49</ele>
        <time>2014-04-05T10:13:21Z</time>
      </trkpt>
      <trkpt lat="43.88831" lon="0.73814">
        <ele>144.34</ele>
        <time>2014-04-05T10:13:33Z</time>
      </trkpt>
      <trkpt lat="43.88821" lon="0.73805">
        <ele>146.26</ele>
        <time>2014-04-05T10:13:45Z</time>
      </trkpt>
      <trkpt lat="43.88806" lon="0.73799">
        <ele>148.18</ele>
        <time>2014-04-05T10:13:58Z</time>
      </trkpt>
      <trkpt lat="43.88792" lon="0.73797">
        <ele>150.1</ele>
        <time>2014-04-05T10:14:11Z</time>
      </trkpt>
      <trkpt lat="43.88776" lon="0.73793">
        <ele>151.54</ele>
        <time>2014-04-05T10:14:27Z</time>
      </trkpt>
      <trkpt lat="43.88773" lon="0.73784">
        <ele>151.54</ele>
        <time>2014-04-05T10:14:33Z</time>
      </trkpt>
      <trkpt lat="43.88776" lon="0.73759">
        <ele>152.03</ele>
        <time>2014-04-05T10:14:47Z</time>
      </trkpt>
      <trkpt lat="43.88776" lon="0.73734">
        <ele>151.54</ele>
        <time>2014-04-05T10:15:01Z</time>
      </trkpt>
      <trkpt lat="43.88768" lon="0.73707">
        <ele>152.99</ele>
        <time>2014-04-05T10:15:18Z</time>
      </trkpt>
      <trkpt lat="43.88751" lon="0.73695">
        <ele>153.47</ele>
        <time>2014-04-05T10:15:33Z</time>
      </trkpt>
      <trkpt lat="43.88741" lon="0.7369">
        <ele>153.47</ele>
        <time>2014-04-05T10:15:43Z</time>
      </trkpt>
      <trkpt lat="43.88735" lon="0.73682">
        <ele>153.47</ele>
        <time>2014-04-05T10:15:49Z</time>
      </trkpt>
      <trkpt lat="43.8873" lon="0.73657">
        <ele>153.95</ele>
        <time>2014-04-05T10:16:05Z</time>
      </trkpt>
      <trkpt lat="43.88726" lon="0.73636">
        <ele>153.47</ele>
        <time>2014-04-05T10:16:18Z</time>
      </trkpt>
      <trkpt lat="43.88722" lon="0.73616">
        <ele>153.95</ele>
        <time>2014-04-05T10:16:30Z</time>
      </trkpt>
      <trkpt lat="43.88718" lon="0.736">
        <ele>154.91</ele>
        <time>2014-04-05T10:16:41Z</time>
      </trkpt>
      <trkpt lat="43.88716" lon="0.73584">
        <ele>154.91</ele>
        <time>2014-04-05T10:16:54Z</time>
      </trkpt>
      <trkpt lat="43.88711" lon="0.73561">
        <ele>155.39</ele>
        <time>2014-04-05T10:17:09Z</time>
      </trkpt>
      <trkpt lat="43.8871" lon="0.73555">
        <ele>155.87</ele>
        <time>2014-04-05T10:17:20Z</time>
      </trkpt>
      <trkpt lat="43.8871" lon="0.73554">
        <ele>156.35</ele>
        <time>2014-04-05T10:17:22Z</time>
      </trkpt>
      <trkpt lat="43.88705" lon="0.73532">
        <ele>156.35</ele>
        <time>2014-04-05T10:17:37Z</time>
      </trkpt>
      <trkpt lat="43.88703" lon="0.73517">
        <ele>157.31</ele>
        <time>2014-04-05T10:17:47Z</time>
      </trkpt>
      <trkpt lat="43.887" lon="0.735">
        <ele>158.27</ele>
        <time>2014-04-05T10:17:58Z</time>
      </trkpt>
      <trkpt lat="43.88696" lon="0.73479">
        <ele>158.75</ele>
        <time>2014-04-05T10:18:10Z</time>
      </trkpt>
      <trkpt lat="43.88694" lon="0.73461">
        <ele>158.75</ele>
        <time>2014-04-05T10:18:21Z</time>
      </trkpt>
      <trkpt lat="43.88694" lon="0.7345">
        <ele>156.83</ele>
        <time>2014-04-05T10:18:33Z</time>
      </trkpt>
      <trkpt lat="43.88689" lon="0.7342">
        <ele>156.83</ele>
        <time>2014-04-05T10:18:45Z</time>
      </trkpt>
      <trkpt lat="43.88689" lon="0.73412">
        <ele>154.91</ele>
        <time>2014-04-05T10:18:56Z</time>
      </trkpt>
      <trkpt lat="43.88689" lon="0.73388">
        <ele>153.95</ele>
        <time>2014-04-05T10:19:08Z</time>
      </trkpt>
      <trkpt lat="43.8869" lon="0.73361">
        <ele>154.43</ele>
        <time>2014-04-05T10:19:19Z</time>
      </trkpt>
      <trkpt lat="43.88694" lon="0.73333">
        <ele>152.03</ele>
        <time>2014-04-05T10:19:32Z</time>
      </trkpt>
      <trkpt lat="43.88698" lon="0.73329">
        <ele>148.18</ele>
        <time>2014-04-05T10:19:43Z</time>
      </trkpt>
      <trkpt lat="43.88689" lon="0.73306">
        <ele>149.14</ele>
        <time>2014-04-05T10:19:55Z</time>
      </trkpt>
      <trkpt lat="43.88673" lon="0.73299">
        <ele>150.58</ele>
        <time>2014-04-05T10:20:09Z</time>
      </trkpt>
      <trkpt lat="43.8866" lon="0.73294">
        <ele>153.47</ele>
        <time>2014-04-05T10:20:21Z</time>
      </trkpt>
      <trkpt lat="43.88647" lon="0.73288">
        <ele>155.87</ele>
        <time>2014-04-05T10:20:34Z</time>
      </trkpt>
      <trkpt lat="43.88631" lon="0.73283">
        <ele>156.83</ele>
        <time>2014-04-05T10:20:45Z</time>
      </trkpt>
      <trkpt lat="43.88611" lon="0.73279">
        <ele>156.35</ele>
        <time>2014-04-05T10:21:03Z</time>
      </trkpt>
      <trkpt lat="43.88593" lon="0.73277">
        <ele>155.39</ele>
        <time>2014-04-05T10:21:18Z</time>
      </trkpt>
      <trkpt lat="43.88574" lon="0.73274">
        <ele>154.91</ele>
        <time>2014-04-05T10:21:33Z</time>
      </trkpt>
      <trkpt lat="43.88559" lon="0.7327">
        <ele>155.39</ele>
        <time>2014-04-05T10:21:45Z</time>
      </trkpt>
      <trkpt lat="43.8854" lon="0.73263">
        <ele>155.39</ele>
        <time>2014-04-05T10:22:00Z</time>
      </trkpt>
      <trkpt lat="43.88522" lon="0.73247">
        <ele>154.43</ele>
        <time>2014-04-05T10:22:16Z</time>
      </trkpt>
      <trkpt lat="43.88508" lon="0.73231">
        <ele>154.91</ele>
        <time>2014-04-05T10:22:32Z</time>
      </trkpt>
      <trkpt lat="43.88491" lon="0.73217">
        <ele>155.87</ele>
        <time>2014-04-05T10:22:49Z</time>
      </trkpt>
      <trkpt lat="43.88481" lon="0.73205">
        <ele>154.43</ele>
        <time>2014-04-05T10:23:03Z</time>
      </trkpt>
      <trkpt lat="43.88471" lon="0.73198">
        <ele>154.43</ele>
        <time>2014-04-05T10:23:09Z</time>
      </trkpt>
      <trkpt lat="43.88461" lon="0.73183">
        <ele>155.39</ele>
        <time>2014-04-05T10:23:23Z</time>
      </trkpt>
      <trkpt lat="43.88446" lon="0.73169">
        <ele>154.43</ele>
        <time>2014-04-05T10:23:34Z</time>
      </trkpt>
      <trkpt lat="43.88444" lon="0.73167">
        <ele>154.91</ele>
        <time>2014-04-05T10:23:36Z</time>
      </trkpt>
      <trkpt lat="43.88432" lon="0.73158">
        <ele>156.35</ele>
        <time>2014-04-05T10:23:50Z</time>
      </trkpt>
      <trkpt lat="43.88425" lon="0.73155">
        <ele>156.83</ele>
        <time>2014-04-05T10:23:54Z</time>
      </trkpt>
      <trkpt lat="43.88408" lon="0.73146">
        <ele>159.24</ele>
        <time>2014-04-05T10:24:07Z</time>
      </trkpt>
      <trkpt lat="43.88392" lon="0.73126">
        <ele>156.35</ele>
        <time>2014-04-05T10:24:22Z</time>
      </trkpt>
      <trkpt lat="43.88379" lon="0.73112">
        <ele>153.95</ele>
        <time>2014-04-05T10:24:35Z</time>
      </trkpt>
      <trkpt lat="43.8837" lon="0.73105">
        <ele>154.43</ele>
        <time>2014-04-05T10:24:46Z</time>
      </trkpt>
      <trkpt lat="43.88359" lon="0.73096">
        <ele>157.79</ele>
        <time>2014-04-05T10:24:57Z</time>
      </trkpt>
      <trkpt lat="43.88348" lon="0.73095">
        <ele>160.68</ele>
        <time>2014-04-05T10:25:08Z</time>
      </trkpt>
      <trkpt lat="43.88335" lon="0.73096">
        <ele>163.08</ele>
        <time>2014-04-05T10:25:19Z</time>
      </trkpt>
      <trkpt lat="43.88319" lon="0.731">
        <ele>164.04</ele>
        <time>2014-04-05T10:25:32Z</time>
      </trkpt>
      <trkpt lat="43.88308" lon="0.73104">
        <ele>164.52</ele>
        <time>2014-04-05T10:25:42Z</time>
      </trkpt>
      <trkpt lat="43.88292" lon="0.73116">
        <ele>162.6</ele>
        <time>2014-04-05T10:25:52Z</time>
      </trkpt>
      <trkpt lat="43.88283" lon="0.73122">
        <ele>160.68</ele>
        <time>2014-04-05T10:26:03Z</time>
      </trkpt>
      <trkpt lat="43.8828" lon="0.73123">
        <ele>159.72</ele>
        <time>2014-04-05T10:26:07Z</time>
      </trkpt>
      <trkpt lat="43.88276" lon="0.73121">
        <ele>157.31</ele>
        <time>2014-04-05T10:26:14Z</time>
      </trkpt>
      <trkpt lat="43.88274" lon="0.73115">
        <ele>156.83</ele>
        <time>2014-04-05T10:26:17Z</time>
      </trkpt>
      <trkpt lat="43.88275" lon="0.73103">
        <ele>155.39</ele>
        <time>2014-04-05T10:26:27Z</time>
      </trkpt>
      <trkpt lat="43.88274" lon="0.73094">
        <ele>154.91</ele>
        <time>2014-04-05T10:26:31Z</time>
      </trkpt>
      <trkpt lat="43.88272" lon="0.73075">
        <ele>155.39</ele>
        <time>2014-04-05T10:26:44Z</time>
      </trkpt>
      <trkpt lat="43.88272" lon="0.73073">
        <ele>155.39</ele>
        <time>2014-04-05T10:26:45Z</time>
      </trkpt>
      <trkpt lat="43.88272" lon="0.73063">
        <ele>156.35</ele>
        <time>2014-04-05T10:26:52Z</time>
      </trkpt>
      <trkpt lat="43.88269" lon="0.7305">
        <ele>156.35</ele>
        <time>2014-04-05T10:26:58Z</time>
      </trkpt>
      <trkpt lat="43.88269" lon="0.73044">
        <ele>155.87</ele>
        <time>2014-04-05T10:27:03Z</time>
      </trkpt>
      <trkpt lat="43.88261" lon="0.73023">
        <ele>156.35</ele>
        <time>2014-04-05T10:27:17Z</time>
      </trkpt>
      <trkpt lat="43.8826" lon="0.73023">
        <ele>156.35</ele>
        <time>2014-04-05T10:27:20Z</time>
      </trkpt>
      <trkpt lat="43.88248" lon="0.73018">
        <ele>157.31</ele>
        <time>2014-04-05T10:27:26Z</time>
      </trkpt>
      <trkpt lat="43.88236" lon="0.73004">
        <ele>159.24</ele>
        <time>2014-04-05T10:27:38Z</time>
      </trkpt>
      <trkpt lat="43.88229" lon="0.72993">
        <ele>160.68</ele>
        <time>2014-04-05T10:27:48Z</time>
      </trkpt>
      <trkpt lat="43.88222" lon="0.72988">
        <ele>161.64</ele>
        <time>2014-04-05T10:27:57Z</time>
      </trkpt>
      <trkpt lat="43.88214" lon="0.7298">
        <ele>162.6</ele>
        <time>2014-04-05T10:28:02Z</time>
      </trkpt>
      <trkpt lat="43.88204" lon="0.72971">
        <ele>162.6</ele>
        <time>2014-04-05T10:28:14Z</time>
      </trkpt>
      <trkpt lat="43.88196" lon="0.72959">
        <ele>164.04</ele>
        <time>2014-04-05T10:28:24Z</time>
      </trkpt>
      <trkpt lat="43.88189" lon="0.7295">
        <ele>164.04</ele>
        <time>2014-04-05T10:28:31Z</time>
      </trkpt>
      <trkpt lat="43.88186" lon="0.72947">
        <ele>164.52</ele>
        <time>2014-04-05T10:28:37Z</time>
      </trkpt>
      <trkpt lat="43.88176" lon="0.7294">
        <ele>163.08</ele>
        <time>2014-04-05T10:28:47Z</time>
      </trkpt>
      <trkpt lat="43.88176" lon="0.72938">
        <ele>163.08</ele>
        <time>2014-04-05T10:28:49Z</time>
      </trkpt>
      <trkpt lat="43.88174" lon="0.72922">
        <ele>159.24</ele>
        <time>2014-04-05T10:29:01Z</time>
      </trkpt>
      <trkpt lat="43.88173" lon="0.72915">
        <ele>157.79</ele>
        <time>2014-04-05T10:29:04Z</time>
      </trkpt>
      <trkpt lat="43.88173" lon="0.72907">
        <ele>157.31</ele>
        <time>2014-04-05T10:29:07Z</time>
      </trkpt>
      <trkpt lat="43.88175" lon="0.72899">
        <ele>157.79</ele>
        <time>2014-04-05T10:29:15Z</time>
      </trkpt>
      <trkpt lat="43.88174" lon="0.72895">
        <ele>157.79</ele>
        <time>2014-04-05T10:29:18Z</time>
      </trkpt>
      <trkpt lat="43.88167" lon="0.7289">
        <ele>159.72</ele>
        <time>2014-04-05T10:29:22Z</time>
      </trkpt>
      <trkpt lat="43.8816" lon="0.72882">
        <ele>165.48</ele>
        <time>2014-04-05T10:29:34Z</time>
      </trkpt>
      <trkpt lat="43.88148" lon="0.72871">
        <ele>170.29</ele>
        <time>2014-04-05T10:29:47Z</time>
      </trkpt>
      <trkpt lat="43.88133" lon="0.72857">
        <ele>173.17</ele>
        <time>2014-04-05T10:29:58Z</time>
      </trkpt>
      <trkpt lat="43.88122" lon="0.72848">
        <ele>173.17</ele>
        <time>2014-04-05T10:30:10Z</time>
      </trkpt>
      <trkpt lat="43.88112" lon="0.72843">
        <ele>175.1</ele>
        <time>2014-04-05T10:30:20Z</time>
      </trkpt>
      <trkpt lat="43.88102" lon="0.72846">
        <ele>176.54</ele>
        <time>2014-04-05T10:30:25Z</time>
      </trkpt>
      <trkpt lat="43.88093" lon="0.72846">
        <ele>180.38</ele>
        <time>2014-04-05T10:30:36Z</time>
      </trkpt>
      <trkpt lat="43.88079" lon="0.72846">
        <ele>181.35</ele>
        <time>2014-04-05T10:30:46Z</time>
      </trkpt>
      <trkpt lat="43.88058" lon="0.72853">
        <ele>180.87</ele>
        <time>2014-04-05T10:30:59Z</time>
      </trkpt>
      <trkpt lat="43.88055" lon="0.72852">
        <ele>181.35</ele>
        <time>2014-04-05T10:31:02Z</time>
      </trkpt>
      <trkpt lat="43.8805" lon="0.72853">
        <ele>180.87</ele>
        <time>2014-04-05T10:31:06Z</time>
      </trkpt>
      <trkpt lat="43.88037" lon="0.72851">
        <ele>178.94</ele>
        <time>2014-04-05T10:31:19Z</time>
      </trkpt>
      <trkpt lat="43.88025" lon="0.72852">
        <ele>177.5</ele>
        <time>2014-04-05T10:31:30Z</time>
      </trkpt>
      <trkpt lat="43.88011" lon="0.72855">
        <ele>175.1</ele>
        <time>2014-04-05T10:31:38Z</time>
      </trkpt>
      <trkpt lat="43.8801" lon="0.72854">
        <ele>175.1</ele>
        <time>2014-04-05T10:31:40Z</time>
      </trkpt>
      <trkpt lat="43.88004" lon="0.72849">
        <ele>166.93</ele>
        <time>2014-04-05T10:31:52Z</time>
      </trkpt>
      <trkpt lat="43.88004" lon="0.72848">
        <ele>160.68</ele>
        <time>2014-04-05T10:32:09Z</time>
      </trkpt>
      <trkpt lat="43.88004" lon="0.72847">
        <ele>159.72</ele>
        <time>2014-04-05T10:32:26Z</time>
      </trkpt>
      <trkpt lat="43.88005" lon="0.72847">
        <ele>159.72</ele>
        <time>2014-04-05T10:32:41Z</time>
      </trkpt>
      <trkpt lat="43.88001" lon="0.72844">
        <ele>161.64</ele>
        <time>2014-04-05T10:32:56Z</time>
      </trkpt>
      <trkpt lat="43.88" lon="0.72844">
        <ele>160.2</ele>
        <time>2014-04-05T10:33:14Z</time>
      </trkpt>
      <trkpt lat="43.88" lon="0.72844">
        <ele>156.83</ele>
        <time>2014-04-05T10:33:46Z</time>
      </trkpt>
      <trkpt lat="43.88" lon="0.72845">
        <ele>157.79</ele>
        <time>2014-04-05T10:33:58Z</time>
      </trkpt>
      <trkpt lat="43.88003" lon="0.7284">
        <ele>160.2</ele>
        <time>2014-04-05T10:34:12Z</time>
      </trkpt>
      <trkpt lat="43.88013" lon="0.72824">
        <ele>161.16</ele>
        <time>2014-04-05T10:34:28Z</time>
      </trkpt>
      <trkpt lat="43.88027" lon="0.72804">
        <ele>162.12</ele>
        <time>2014-04-05T10:34:44Z</time>
      </trkpt>
      <trkpt lat="43.8804" lon="0.72787">
        <ele>163.08</ele>
        <time>2014-04-05T10:34:59Z</time>
      </trkpt>
      <trkpt lat="43.88052" lon="0.72768">
        <ele>165.96</ele>
        <time>2014-04-05T10:35:15Z</time>
      </trkpt>
      <trkpt lat="43.88064" lon="0.72751">
        <ele>166.93</ele>
        <time>2014-04-05T10:35:31Z</time>
      </trkpt>
      <trkpt lat="43.88078" lon="0.72732">
        <ele>166.93</ele>
        <time>2014-04-05T10:35:48Z</time>
      </trkpt>
      <trkpt lat="43.88084" lon="0.72724">
        <ele>167.41</ele>
        <time>2014-04-05T10:35:56Z</time>
      </trkpt>
      <trkpt lat="43.88099" lon="0.72708">
        <ele>169.33</ele>
        <time>2014-04-05T10:36:13Z</time>
      </trkpt>
      <trkpt lat="43.8811" lon="0.72702">
        <ele>169.81</ele>
        <time>2014-04-05T10:36:24Z</time>
      </trkpt>
      <trkpt lat="43.88123" lon="0.72687">
        <ele>170.29</ele>
        <time>2014-04-05T10:36:40Z</time>
      </trkpt>
      <trkpt lat="43.88136" lon="0.72669">
        <ele>172.21</ele>
        <time>2014-04-05T10:36:58Z</time>
      </trkpt>
      <trkpt lat="43.88148" lon="0.72653">
        <ele>174.62</ele>
        <time>2014-04-05T10:37:14Z</time>
      </trkpt>
      <trkpt lat="43.88163" lon="0.72633">
        <ele>176.54</ele>
        <time>2014-04-05T10:37:34Z</time>
      </trkpt>
      <trkpt lat="43.88175" lon="0.72618">
        <ele>177.5</ele>
        <time>2014-04-05T10:37:49Z</time>
      </trkpt>
      <trkpt lat="43.8819" lon="0.72597">
        <ele>179.42</ele>
        <time>2014-04-05T10:38:08Z</time>
      </trkpt>
      <trkpt lat="43.88206" lon="0.72582">
        <ele>181.83</ele>
        <time>2014-04-05T10:38:26Z</time>
      </trkpt>
      <trkpt lat="43.88224" lon="0.72573">
        <ele>184.23</ele>
        <time>2014-04-05T10:38:43Z</time>
      </trkpt>
      <trkpt lat="43.88237" lon="0.7257">
        <ele>186.63</ele>
        <time>2014-04-05T10:38:56Z</time>
      </trkpt>
      <trkpt lat="43.88252" lon="0.72569">
        <ele>188.56</ele>
        <time>2014-04-05T10:39:12Z</time>
      </trkpt>
      <trkpt lat="43.88268" lon="0.72568">
        <ele>188.56</ele>
        <time>2014-04-05T10:39:27Z</time>
      </trkpt>
      <trkpt lat="43.88282" lon="0.72565">
        <ele>188.08</ele>
        <time>2014-04-05T10:39:40Z</time>
      </trkpt>
      <trkpt lat="43.88302" lon="0.72552">
        <ele>188.56</ele>
        <time>2014-04-05T10:40:00Z</time>
      </trkpt>
      <trkpt lat="43.88316" lon="0.72536">
        <ele>189.04</ele>
        <time>2014-04-05T10:40:17Z</time>
      </trkpt>
      <trkpt lat="43.88329" lon="0.72521">
        <ele>188.56</ele>
        <time>2014-04-05T10:40:31Z</time>
      </trkpt>
      <trkpt lat="43.88344" lon="0.72501">
        <ele>189.52</ele>
        <time>2014-04-05T10:40:48Z</time>
      </trkpt>
      <trkpt lat="43.88355" lon="0.72484">
        <ele>188.56</ele>
        <time>2014-04-05T10:41:02Z</time>
      </trkpt>
      <trkpt lat="43.88356" lon="0.72483">
        <ele>188.08</ele>
        <time>2014-04-05T10:41:03Z</time>
      </trkpt>
      <trkpt lat="43.88368" lon="0.72462">
        <ele>186.15</ele>
        <time>2014-04-05T10:41:19Z</time>
      </trkpt>
      <trkpt lat="43.8838" lon="0.72445">
        <ele>183.75</ele>
        <time>2014-04-05T10:41:33Z</time>
      </trkpt>
      <trkpt lat="43.88395" lon="0.72423">
        <ele>180.38</ele>
        <time>2014-04-05T10:41:51Z</time>
      </trkpt>
      <trkpt lat="43.88404" lon="0.72407">
        <ele>179.42</ele>
        <time>2014-04-05T10:42:03Z</time>
      </trkpt>
      <trkpt lat="43.88415" lon="0.72385">
        <ele>177.98</ele>
        <time>2014-04-05T10:42:20Z</time>
      </trkpt>
      <trkpt lat="43.88425" lon="0.72363">
        <ele>177.02</ele>
        <time>2014-04-05T10:42:35Z</time>
      </trkpt>
      <trkpt lat="43.88438" lon="0.72336">
        <ele>174.62</ele>
        <time>2014-04-05T10:42:51Z</time>
      </trkpt>
      <trkpt lat="43.88454" lon="0.72304">
        <ele>173.66</ele>
        <time>2014-04-05T10:43:12Z</time>
      </trkpt>
      <trkpt lat="43.88465" lon="0.72284">
        <ele>173.66</ele>
        <time>2014-04-05T10:43:26Z</time>
      </trkpt>
      <trkpt lat="43.88481" lon="0.72253">
        <ele>171.73</ele>
        <time>2014-04-05T10:43:47Z</time>
      </trkpt>
      <trkpt lat="43.88494" lon="0.72228">
        <ele>170.29</ele>
        <time>2014-04-05T10:44:05Z</time>
      </trkpt>
      <trkpt lat="43.88508" lon="0.72203">
        <ele>168.37</ele>
        <time>2014-04-05T10:44:23Z</time>
      </trkpt>
      <trkpt lat="43.88524" lon="0.72173">
        <ele>165.48</ele>
        <time>2014-04-05T10:44:43Z</time>
      </trkpt>
      <trkpt lat="43.88536" lon="0.72145">
        <ele>165.96</ele>
        <time>2014-04-05T10:45:03Z</time>
      </trkpt>
      <trkpt lat="43.88552" lon="0.72112">
        <ele>165.96</ele>
        <time>2014-04-05T10:45:25Z</time>
      </trkpt>
      <trkpt lat="43.8857" lon="0.72079">
        <ele>164.04</ele>
        <time>2014-04-05T10:45:47Z</time>
      </trkpt>
      <trkpt lat="43.88584" lon="0.72051">
        <ele>162.6</ele>
        <time>2014-04-05T10:46:06Z</time>
      </trkpt>
      <trkpt lat="43.88596" lon="0.72026">
        <ele>161.64</ele>
        <time>2014-04-05T10:46:24Z</time>
      </trkpt>
      <trkpt lat="43.8861" lon="0.71997">
        <ele>161.64</ele>
        <time>2014-04-05T10:46:45Z</time>
      </trkpt>
      <trkpt lat="43.8862" lon="0.71974">
        <ele>162.12</ele>
        <time>2014-04-05T10:47:00Z</time>
      </trkpt>
      <trkpt lat="43.8863" lon="0.71948">
        <ele>161.16</ele>
        <time>2014-04-05T10:47:16Z</time>
      </trkpt>
      <trkpt lat="43.88639" lon="0.7192">
        <ele>161.64</ele>
        <time>2014-04-05T10:47:34Z</time>
      </trkpt>
      <trkpt lat="43.88648" lon="0.71898">
        <ele>161.16</ele>
        <time>2014-04-05T10:47:51Z</time>
      </trkpt>
      <trkpt lat="43.88651" lon="0.71895">
        <ele>161.16</ele>
        <time>2014-04-05T10:47:54Z</time>
      </trkpt>
      <trkpt lat="43.8867" lon="0.71879">
        <ele>161.16</ele>
        <time>2014-04-05T10:48:12Z</time>
      </trkpt>
      <trkpt lat="43.8867" lon="0.71879">
        <ele>161.64</ele>
        <time>2014-04-05T10:48:13Z</time>
      </trkpt>
      <trkpt lat="43.88684" lon="0.71867">
        <ele>162.12</ele>
        <time>2014-04-05T10:48:28Z</time>
      </trkpt>
      <trkpt lat="43.88696" lon="0.71856">
        <ele>164.52</ele>
        <time>2014-04-05T10:48:42Z</time>
      </trkpt>
      <trkpt lat="43.88702" lon="0.71846">
        <ele>166.45</ele>
        <time>2014-04-05T10:48:51Z</time>
      </trkpt>
      <trkpt lat="43.88712" lon="0.71828">
        <ele>167.89</ele>
        <time>2014-04-05T10:49:06Z</time>
      </trkpt>
      <trkpt lat="43.88717" lon="0.71822">
        <ele>169.33</ele>
        <time>2014-04-05T10:49:21Z</time>
      </trkpt>
      <trkpt lat="43.88718" lon="0.7182">
        <ele>169.81</ele>
        <time>2014-04-05T10:49:36Z</time>
      </trkpt>
      <trkpt lat="43.88718" lon="0.71819">
        <ele>169.81</ele>
        <time>2014-04-05T10:49:43Z</time>
      </trkpt>
      <trkpt lat="43.88723" lon="0.71807">
        <ele>168.37</ele>
        <time>2014-04-05T10:49:55Z</time>
      </trkpt>
      <trkpt lat="43.88734" lon="0.71786">
        <ele>168.37</ele>
        <time>2014-04-05T10:50:13Z</time>
      </trkpt>
      <trkpt lat="43.88742" lon="0.71763">
        <ele>169.81</ele>
        <time>2014-04-05T10:50:29Z</time>
      </trkpt>
      <trkpt lat="43.88752" lon="0.71743">
        <ele>169.81</ele>
        <time>2014-04-05T10:50:44Z</time>
      </trkpt>
      <trkpt lat="43.88764" lon="0.7172">
        <ele>169.81</ele>
        <time>2014-04-05T10:51:01Z</time>
      </trkpt>
      <trkpt lat="43.88775" lon="0.71695">
        <ele>170.77</ele>
        <time>2014-04-05T10:51:18Z</time>
      </trkpt>
      <trkpt lat="43.88787" lon="0.7167">
        <ele>172.21</ele>
        <time>2014-04-05T10:51:35Z</time>
      </trkpt>
      <trkpt lat="43.88797" lon="0.71648">
        <ele>173.66</ele>
        <time>2014-04-05T10:51:52Z</time>
      </trkpt>
      <trkpt lat="43.88806" lon="0.71625">
        <ele>175.1</ele>
        <time>2014-04-05T10:52:09Z</time>
      </trkpt>
      <trkpt lat="43.88808" lon="0.7162">
        <ele>175.1</ele>
        <time>2014-04-05T10:52:12Z</time>
      </trkpt>
      <trkpt lat="43.88815" lon="0.71602">
        <ele>177.02</ele>
        <time>2014-04-05T10:52:26Z</time>
      </trkpt>
      <trkpt lat="43.88821" lon="0.71585">
        <ele>177.5</ele>
        <time>2014-04-05T10:52:39Z</time>
      </trkpt>
      <trkpt lat="43.88831" lon="0.7156">
        <ele>177.5</ele>
        <time>2014-04-05T10:52:57Z</time>
      </trkpt>
      <trkpt lat="43.88833" lon="0.71556">
        <ele>178.46</ele>
        <time>2014-04-05T10:53:00Z</time>
      </trkpt>
      <trkpt lat="43.88843" lon="0.71533">
        <ele>180.38</ele>
        <time>2014-04-05T10:53:18Z</time>
      </trkpt>
      <trkpt lat="43.88847" lon="0.71517">
        <ele>182.79</ele>
        <time>2014-04-05T10:53:30Z</time>
      </trkpt>
      <trkpt lat="43.8885" lon="0.71506">
        <ele>184.23</ele>
        <time>2014-04-05T10:53:38Z</time>
      </trkpt>
      <trkpt lat="43.88852" lon="0.71503">
        <ele>184.23</ele>
        <time>2014-04-05T10:53:40Z</time>
      </trkpt>
      <trkpt lat="43.88852" lon="0.715">
        <ele>184.71</ele>
        <time>2014-04-05T10:53:43Z</time>
      </trkpt>
      <trkpt lat="43.8886" lon="0.71481">
        <ele>185.19</ele>
        <time>2014-04-05T10:53:58Z</time>
      </trkpt>
      <trkpt lat="43.88861" lon="0.71478">
        <ele>185.19</ele>
        <time>2014-04-05T10:54:00Z</time>
      </trkpt>
      <trkpt lat="43.88871" lon="0.71457">
        <ele>185.19</ele>
        <time>2014-04-05T10:54:15Z</time>
      </trkpt>
      <trkpt lat="43.88882" lon="0.71434">
        <ele>185.19</ele>
        <time>2014-04-05T10:54:32Z</time>
      </trkpt>
      <trkpt lat="43.88895" lon="0.71414">
        <ele>184.71</ele>
        <time>2014-04-05T10:54:49Z</time>
      </trkpt>
      <trkpt lat="43.8891" lon="0.71395">
        <ele>182.79</ele>
        <time>2014-04-05T10:55:07Z</time>
      </trkpt>
      <trkpt lat="43.88915" lon="0.71388">
        <ele>182.31</ele>
        <time>2014-04-05T10:55:22Z</time>
      </trkpt>
      <trkpt lat="43.88917" lon="0.71388">
        <ele>182.79</ele>
        <time>2014-04-05T10:55:37Z</time>
      </trkpt>
      <trkpt lat="43.88918" lon="0.71388">
        <ele>183.75</ele>
        <time>2014-04-05T10:56:06Z</time>
      </trkpt>
      <trkpt lat="43.88919" lon="0.71387">
        <ele>183.75</ele>
        <time>2014-04-05T10:56:29Z</time>
      </trkpt>
      <trkpt lat="43.88915" lon="0.71389">
        <ele>184.23</ele>
        <time>2014-04-05T10:56:55Z</time>
      </trkpt>
      <trkpt lat="43.88917" lon="0.71388">
        <ele>183.75</ele>
        <time>2014-04-05T10:57:16Z</time>
      </trkpt>
      <trkpt lat="43.88918" lon="0.71387">
        <ele>185.19</ele>
        <time>2014-04-05T10:57:42Z</time>
      </trkpt>
      <trkpt lat="43.88919" lon="0.71388">
        <ele>184.71</ele>
        <time>2014-04-05T10:58:14Z</time>
      </trkpt>
      <trkpt lat="43.88918" lon="0.71387">
        <ele>182.79</ele>
        <time>2014-04-05T10:58:28Z</time>
      </trkpt>
      <trkpt lat="43.88919" lon="0.71389">
        <ele>181.83</ele>
        <time>2014-04-05T10:58:45Z</time>
      </trkpt>
      <trkpt lat="43.88918" lon="0.71388">
        <ele>182.31</ele>
        <time>2014-04-05T10:59:23Z</time>
      </trkpt>
      <trkpt lat="43.88921" lon="0.71386">
        <ele>182.79</ele>
        <time>2014-04-05T11:00:07Z</time>
      </trkpt>
      <trkpt lat="43.88919" lon="0.71386">
        <ele>181.83</ele>
        <time>2014-04-05T11:00:47Z</time>
      </trkpt>
      <trkpt lat="43.88918" lon="0.71386">
        <ele>182.31</ele>
        <time>2014-04-05T11:01:19Z</time>
      </trkpt>
      <trkpt lat="43.88918" lon="0.71386">
        <ele>180.38</ele>
        <time>2014-04-05T11:01:52Z</time>
      </trkpt>
      <trkpt lat="43.88918" lon="0.71387">
        <ele>180.38</ele>
        <time>2014-04-05T11:02:18Z</time>
      </trkpt>
      <trkpt lat="43.88919" lon="0.71388">
        <ele>181.35</ele>
        <time>2014-04-05T11:03:01Z</time>
      </trkpt>
      <trkpt lat="43.8892" lon="0.71387">
        <ele>181.35</ele>
        <time>2014-04-05T11:03:47Z</time>
      </trkpt>
      <trkpt lat="43.88921" lon="0.71387">
        <ele>181.83</ele>
        <time>2014-04-05T11:04:24Z</time>
      </trkpt>
      <trkpt lat="43.8892" lon="0.71388">
        <ele>180.87</ele>
        <time>2014-04-05T11:05:10Z</time>
      </trkpt>
      <trkpt lat="43.8892" lon="0.71388">
        <ele>180.87</ele>
        <time>2014-04-05T11:05:55Z</time>
      </trkpt>
      <trkpt lat="43.8892" lon="0.71387">
        <ele>180.38</ele>
        <time>2014-04-05T11:06:45Z</time>
      </trkpt>
      <trkpt lat="43.88918" lon="0.71388">
        <ele>182.79</ele>
        <time>2014-04-05T11:07:39Z</time>
      </trkpt>
      <trkpt lat="43.88917" lon="0.71386">
        <ele>182.31</ele>
        <time>2014-04-05T11:08:34Z</time>
      </trkpt>
      <trkpt lat="43.88919" lon="0.71386">
        <ele>183.75</ele>
        <time>2014-04-05T11:09:17Z</time>
      </trkpt>
      <trkpt lat="43.88919" lon="0.71387">
        <ele>184.23</ele>
        <time>2014-04-05T11:10:07Z</time>
      </trkpt>
      <trkpt lat="43.88919" lon="0.71387">
        <ele>183.75</ele>
        <time>2014-04-05T11:10:52Z</time>
      </trkpt>
      <trkpt lat="43.8892" lon="0.71386">
        <ele>186.63</ele>
        <time>2014-04-05T11:11:38Z</time>
      </trkpt>
      <trkpt lat="43.8892" lon="0.71387">
        <ele>186.15</ele>
        <time>2014-04-05T11:12:21Z</time>
      </trkpt>
      <trkpt lat="43.88919" lon="0.71388">
        <ele>187.59</ele>
        <time>2014-04-05T11:13:01Z</time>
      </trkpt>
      <trkpt lat="43.88918" lon="0.71387">
        <ele>184.71</ele>
        <time>2014-04-05T11:13:56Z</time>
      </trkpt>
      <trkpt lat="43.88918" lon="0.71388">
        <ele>182.79</ele>
        <time>2014-04-05T11:14:47Z</time>
      </trkpt>
      <trkpt lat="43.88919" lon="0.71388">
        <ele>182.79</ele>
        <time>2014-04-05T11:15:26Z</time>
      </trkpt>
      <trkpt lat="43.88919" lon="0.71388">
        <ele>183.75</ele>
        <time>2014-04-05T11:16:17Z</time>
      </trkpt>
      <trkpt lat="43.8892" lon="0.71387">
        <ele>185.67</ele>
        <time>2014-04-05T11:17:07Z</time>
      </trkpt>
      <trkpt lat="43.88919" lon="0.71389">
        <ele>184.71</ele>
        <time>2014-04-05T11:17:48Z</time>
      </trkpt>
      <trkpt lat="43.88919" lon="0.71387">
        <ele>182.79</ele>
        <time>2014-04-05T11:18:30Z</time>
      </trkpt>
      <trkpt lat="43.8892" lon="0.71387">
        <ele>184.71</ele>
        <time>2014-04-05T11:19:08Z</time>
      </trkpt>
      <trkpt lat="43.88919" lon="0.71388">
        <ele>188.08</ele>
        <time>2014-04-05T11:19:56Z</time>
      </trkpt>
      <trkpt lat="43.88918" lon="0.71387">
        <ele>190</ele>
        <time>2014-04-05T11:20:46Z</time>
      </trkpt>
      <trkpt lat="43.88918" lon="0.71388">
        <ele>187.11</ele>
        <time>2014-04-05T11:21:22Z</time>
      </trkpt>
      <trkpt lat="43.88918" lon="0.71388">
        <ele>184.23</ele>
        <time>2014-04-05T11:22:16Z</time>
      </trkpt>
      <trkpt lat="43.88919" lon="0.71387">
        <ele>185.67</ele>
        <time>2014-04-05T11:23:02Z</time>
      </trkpt>
      <trkpt lat="43.88919" lon="0.71385">
        <ele>186.63</ele>
        <time>2014-04-05T11:23:45Z</time>
      </trkpt>
      <trkpt lat="43.88918" lon="0.71387">
        <ele>186.15</ele>
        <time>2014-04-05T11:24:24Z</time>
      </trkpt>
      <trkpt lat="43.88919" lon="0.71387">
        <ele>184.23</ele>
        <time>2014-04-05T11:25:02Z</time>
      </trkpt>
      <trkpt lat="43.88919" lon="0.71389">
        <ele>183.27</ele>
        <time>2014-04-05T11:25:45Z</time>
      </trkpt>
      <trkpt lat="43.88919" lon="0.71389">
        <ele>181.35</ele>
        <time>2014-04-05T11:26:21Z</time>
      </trkpt>
      <trkpt lat="43.88919" lon="0.71388">
        <ele>183.27</ele>
        <time>2014-04-05T11:27:04Z</time>
      </trkpt>
      <trkpt lat="43.88919" lon="0.71387">
        <ele>182.31</ele>
        <time>2014-04-05T11:27:38Z</time>
      </trkpt>
      <trkpt lat="43.88919" lon="0.71387">
        <ele>181.83</ele>
        <time>2014-04-05T11:28:13Z</time>
      </trkpt>
      <trkpt lat="43.88919" lon="0.71387">
        <ele>180.87</ele>
        <time>2014-04-05T11:28:57Z</time>
      </trkpt>
      <trkpt lat="43.88918" lon="0.71386">
        <ele>181.83</ele>
        <time>2014-04-05T11:29:35Z</time>
      </trkpt>
      <trkpt lat="43.88917" lon="0.71384">
        <ele>183.27</ele>
        <time>2014-04-05T11:30:02Z</time>
      </trkpt>
      <trkpt lat="43.88919" lon="0.71389">
        <ele>185.19</ele>
        <time>2014-04-05T11:30:40Z</time>
      </trkpt>
      <trkpt lat="43.88919" lon="0.71388">
        <ele>184.23</ele>
        <time>2014-04-05T11:31:08Z</time>
      </trkpt>
      <trkpt lat="43.88917" lon="0.71386">
        <ele>182.79</ele>
        <time>2014-04-05T11:31:37Z</time>
      </trkpt>
      <trkpt lat="43.88917" lon="0.71386">
        <ele>183.27</ele>
        <time>2014-04-05T11:32:10Z</time>
      </trkpt>
      <trkpt lat="43.88917" lon="0.71388">
        <ele>183.27</ele>
        <time>2014-04-05T11:32:41Z</time>
      </trkpt>
      <trkpt lat="43.88919" lon="0.71387">
        <ele>182.79</ele>
        <time>2014-04-05T11:33:18Z</time>
      </trkpt>
      <trkpt lat="43.88917" lon="0.71385">
        <ele>182.79</ele>
        <time>2014-04-05T11:33:51Z</time>
      </trkpt>
      <trkpt lat="43.88918" lon="0.71387">
        <ele>182.31</ele>
        <time>2014-04-05T11:34:23Z</time>
      </trkpt>
      <trkpt lat="43.88917" lon="0.71387">
        <ele>184.23</ele>
        <time>2014-04-05T11:34:56Z</time>
      </trkpt>
      <trkpt lat="43.88918" lon="0.71386">
        <ele>182.79</ele>
        <time>2014-04-05T11:35:27Z</time>
      </trkpt>
      <trkpt lat="43.88918" lon="0.71388">
        <ele>183.27</ele>
        <time>2014-04-05T11:36:00Z</time>
      </trkpt>
      <trkpt lat="43.88918" lon="0.71386">
        <ele>182.31</ele>
        <time>2014-04-05T11:36:33Z</time>
      </trkpt>
      <trkpt lat="43.88918" lon="0.71388">
        <ele>181.83</ele>
        <time>2014-04-05T11:37:13Z</time>
      </trkpt>
      <trkpt lat="43.88918" lon="0.7139">
        <ele>183.75</ele>
        <time>2014-04-05T11:37:58Z</time>
      </trkpt>
      <trkpt lat="43.8892" lon="0.71388">
        <ele>186.15</ele>
        <time>2014-04-05T11:38:39Z</time>
      </trkpt>
      <trkpt lat="43.88918" lon="0.71387">
        <ele>186.15</ele>
        <time>2014-04-05T11:39:13Z</time>
      </trkpt>
      <trkpt lat="43.88919" lon="0.71386">
        <ele>183.27</ele>
        <time>2014-04-05T11:39:51Z</time>
      </trkpt>
      <trkpt lat="43.8892" lon="0.71389">
        <ele>184.71</ele>
        <time>2014-04-05T11:40:24Z</time>
      </trkpt>
      <trkpt lat="43.88919" lon="0.71385">
        <ele>187.59</ele>
        <time>2014-04-05T11:41:04Z</time>
      </trkpt>
      <trkpt lat="43.88918" lon="0.71385">
        <ele>186.15</ele>
        <time>2014-04-05T11:41:47Z</time>
      </trkpt>
      <trkpt lat="43.88919" lon="0.71389">
        <ele>180.87</ele>
        <time>2014-04-05T11:42:38Z</time>
      </trkpt>
      <trkpt lat="43.8892" lon="0.71389">
        <ele>182.79</ele>
        <time>2014-04-05T11:43:28Z</time>
      </trkpt>
      <trkpt lat="43.8892" lon="0.71388">
        <ele>186.63</ele>
        <time>2014-04-05T11:44:20Z</time>
      </trkpt>
      <trkpt lat="43.88921" lon="0.71388">
        <ele>184.71</ele>
        <time>2014-04-05T11:45:14Z</time>
      </trkpt>
      <trkpt lat="43.88921" lon="0.71387">
        <ele>184.23</ele>
        <time>2014-04-05T11:45:53Z</time>
      </trkpt>
      <trkpt lat="43.8892" lon="0.7139">
        <ele>180.38</ele>
        <time>2014-04-05T11:46:36Z</time>
      </trkpt>
      <trkpt lat="43.88919" lon="0.71388">
        <ele>183.27</ele>
        <time>2014-04-05T11:47:30Z</time>
      </trkpt>
      <trkpt lat="43.88918" lon="0.71387">
        <ele>183.75</ele>
        <time>2014-04-05T11:48:21Z</time>
      </trkpt>
      <trkpt lat="43.8892" lon="0.71386">
        <ele>180.87</ele>
        <time>2014-04-05T11:49:07Z</time>
      </trkpt>
      <trkpt lat="43.88919" lon="0.71389">
        <ele>181.83</ele>
        <time>2014-04-05T11:49:51Z</time>
      </trkpt>
      <trkpt lat="43.88919" lon="0.71388">
        <ele>184.23</ele>
        <time>2014-04-05T11:50:42Z</time>
      </trkpt>
      <trkpt lat="43.88919" lon="0.71388">
        <ele>185.19</ele>
        <time>2014-04-05T11:51:32Z</time>
      </trkpt>
      <trkpt lat="43.88918" lon="0.71388">
        <ele>183.27</ele>
        <time>2014-04-05T11:52:10Z</time>
      </trkpt>
      <trkpt lat="43.88919" lon="0.71388">
        <ele>183.27</ele>
        <time>2014-04-05T11:52:57Z</time>
      </trkpt>
      <trkpt lat="43.88918" lon="0.71386">
        <ele>181.35</ele>
        <time>2014-04-05T11:53:43Z</time>
      </trkpt>
      <trkpt lat="43.88919" lon="0.71387">
        <ele>178.94</ele>
        <time>2014-04-05T11:54:24Z</time>
      </trkpt>
      <trkpt lat="43.88919" lon="0.71386">
        <ele>178.94</ele>
        <time>2014-04-05T11:55:09Z</time>
      </trkpt>
      <trkpt lat="43.8892" lon="0.71387">
        <ele>184.23</ele>
        <time>2014-04-05T11:55:48Z</time>
      </trkpt>
      <trkpt lat="43.8892" lon="0.71388">
        <ele>185.19</ele>
        <time>2014-04-05T11:56:36Z</time>
      </trkpt>
      <trkpt lat="43.8892" lon="0.71386">
        <ele>185.67</ele>
        <time>2014-04-05T11:57:24Z</time>
      </trkpt>
      <trkpt lat="43.8892" lon="0.71388">
        <ele>186.15</ele>
        <time>2014-04-05T11:58:17Z</time>
      </trkpt>
      <trkpt lat="43.88921" lon="0.71388">
        <ele>184.71</ele>
        <time>2014-04-05T11:59:02Z</time>
      </trkpt>
      <trkpt lat="43.8892" lon="0.71388">
        <ele>185.19</ele>
        <time>2014-04-05T11:59:41Z</time>
      </trkpt>
      <trkpt lat="43.8892" lon="0.71387">
        <ele>184.71</ele>
        <time>2014-04-05T11:59:54Z</time>
      </trkpt>
      <trkpt lat="43.8892" lon="0.71386">
        <ele>182.31</ele>
        <time>2014-04-05T12:00:08Z</time>
      </trkpt>
      <trkpt lat="43.88921" lon="0.71387">
        <ele>180.87</ele>
        <time>2014-04-05T12:00:26Z</time>
      </trkpt>
      <trkpt lat="43.88919" lon="0.71389">
        <ele>179.9</ele>
        <time>2014-04-05T12:00:43Z</time>
      </trkpt>
      <trkpt lat="43.88919" lon="0.7139">
        <ele>180.87</ele>
        <time>2014-04-05T12:01:07Z</time>
      </trkpt>
      <trkpt lat="43.88919" lon="0.71389">
        <ele>180.38</ele>
        <time>2014-04-05T12:01:26Z</time>
      </trkpt>
      <trkpt lat="43.88918" lon="0.7139">
        <ele>183.75</ele>
        <time>2014-04-05T12:01:58Z</time>
      </trkpt>
      <trkpt lat="43.88917" lon="0.71388">
        <ele>184.23</ele>
        <time>2014-04-05T12:02:17Z</time>
      </trkpt>
      <trkpt lat="43.88918" lon="0.71389">
        <ele>182.79</ele>
        <time>2014-04-05T12:02:44Z</time>
      </trkpt>
      <trkpt lat="43.88917" lon="0.71389">
        <ele>181.35</ele>
        <time>2014-04-05T12:03:06Z</time>
      </trkpt>
      <trkpt lat="43.88919" lon="0.71387">
        <ele>181.83</ele>
        <time>2014-04-05T12:03:31Z</time>
      </trkpt>
      <trkpt lat="43.88918" lon="0.71387">
        <ele>181.35</ele>
        <time>2014-04-05T12:03:48Z</time>
      </trkpt>
      <trkpt lat="43.88915" lon="0.71385">
        <ele>181.83</ele>
        <time>2014-04-05T12:04:10Z</time>
      </trkpt>
      <trkpt lat="43.88904" lon="0.7137">
        <ele>178.94</ele>
        <time>2014-04-05T12:04:28Z</time>
      </trkpt>
      <trkpt lat="43.88896" lon="0.71361">
        <ele>178.46</ele>
        <time>2014-04-05T12:04:40Z</time>
      </trkpt>
      <trkpt lat="43.88884" lon="0.71345">
        <ele>177.02</ele>
        <time>2014-04-05T12:04:56Z</time>
      </trkpt>
      <trkpt lat="43.88877" lon="0.71337">
        <ele>176.06</ele>
        <time>2014-04-05T12:05:04Z</time>
      </trkpt>
      <trkpt lat="43.8887" lon="0.71329">
        <ele>174.62</ele>
        <time>2014-04-05T12:05:18Z</time>
      </trkpt>
      <trkpt lat="43.88855" lon="0.71313">
        <ele>176.06</ele>
        <time>2014-04-05T12:05:36Z</time>
      </trkpt>
      <trkpt lat="43.88843" lon="0.71296">
        <ele>177.02</ele>
        <time>2014-04-05T12:05:52Z</time>
      </trkpt>
      <trkpt lat="43.88831" lon="0.71279">
        <ele>177.5</ele>
        <time>2014-04-05T12:06:07Z</time>
      </trkpt>
      <trkpt lat="43.88827" lon="0.71274">
        <ele>177.5</ele>
        <time>2014-04-05T12:06:11Z</time>
      </trkpt>
      <trkpt lat="43.88814" lon="0.71259">
        <ele>179.42</ele>
        <time>2014-04-05T12:06:27Z</time>
      </trkpt>
      <trkpt lat="43.88798" lon="0.71237">
        <ele>179.42</ele>
        <time>2014-04-05T12:06:46Z</time>
      </trkpt>
      <trkpt lat="43.88786" lon="0.71223">
        <ele>180.87</ele>
        <time>2014-04-05T12:07:02Z</time>
      </trkpt>
      <trkpt lat="43.88774" lon="0.71207">
        <ele>183.75</ele>
        <time>2014-04-05T12:07:18Z</time>
      </trkpt>
      <trkpt lat="43.88763" lon="0.71192">
        <ele>183.75</ele>
        <time>2014-04-05T12:07:32Z</time>
      </trkpt>
      <trkpt lat="43.88749" lon="0.71173">
        <ele>185.67</ele>
        <time>2014-04-05T12:07:49Z</time>
      </trkpt>
      <trkpt lat="43.88739" lon="0.71158">
        <ele>184.71</ele>
        <time>2014-04-05T12:08:02Z</time>
      </trkpt>
      <trkpt lat="43.8873" lon="0.71147">
        <ele>186.63</ele>
        <time>2014-04-05T12:08:15Z</time>
      </trkpt>
      <trkpt lat="43.88722" lon="0.71137">
        <ele>190.48</ele>
        <time>2014-04-05T12:08:30Z</time>
      </trkpt>
      <trkpt lat="43.88711" lon="0.71127">
        <ele>197.21</ele>
        <time>2014-04-05T12:08:45Z</time>
      </trkpt>
      <trkpt lat="43.88699" lon="0.71119">
        <ele>199.13</ele>
        <time>2014-04-05T12:08:58Z</time>
      </trkpt>
      <trkpt lat="43.88683" lon="0.71113">
        <ele>199.13</ele>
        <time>2014-04-05T12:09:12Z</time>
      </trkpt>
      <trkpt lat="43.88664" lon="0.71104">
        <ele>199.13</ele>
        <time>2014-04-05T12:09:26Z</time>
      </trkpt>
      <trkpt lat="43.88643" lon="0.71094">
        <ele>194.8</ele>
        <time>2014-04-05T12:09:42Z</time>
      </trkpt>
      <trkpt lat="43.88626" lon="0.71082">
        <ele>193.36</ele>
        <time>2014-04-05T12:09:58Z</time>
      </trkpt>
      <trkpt lat="43.88612" lon="0.71071">
        <ele>192.88</ele>
        <time>2014-04-05T12:10:12Z</time>
      </trkpt>
      <trkpt lat="43.88596" lon="0.71057">
        <ele>193.36</ele>
        <time>2014-04-05T12:10:28Z</time>
      </trkpt>
      <trkpt lat="43.88579" lon="0.71041">
        <ele>192.4</ele>
        <time>2014-04-05T12:10:43Z</time>
      </trkpt>
      <trkpt lat="43.88565" lon="0.71028">
        <ele>192.4</ele>
        <time>2014-04-05T12:10:58Z</time>
      </trkpt>
      <trkpt lat="43.88549" lon="0.71013">
        <ele>193.36</ele>
        <time>2014-04-05T12:11:16Z</time>
      </trkpt>
      <trkpt lat="43.88535" lon="0.70999">
        <ele>194.8</ele>
        <time>2014-04-05T12:11:31Z</time>
      </trkpt>
      <trkpt lat="43.88518" lon="0.70984">
        <ele>195.77</ele>
        <time>2014-04-05T12:11:47Z</time>
      </trkpt>
      <trkpt lat="43.88501" lon="0.70967">
        <ele>196.25</ele>
        <time>2014-04-05T12:12:06Z</time>
      </trkpt>
      <trkpt lat="43.8849" lon="0.70956">
        <ele>198.17</ele>
        <time>2014-04-05T12:12:19Z</time>
      </trkpt>
      <trkpt lat="43.88479" lon="0.70937">
        <ele>200.09</ele>
        <time>2014-04-05T12:12:36Z</time>
      </trkpt>
      <trkpt lat="43.88471" lon="0.70918">
        <ele>201.05</ele>
        <time>2014-04-05T12:12:52Z</time>
      </trkpt>
      <trkpt lat="43.88463" lon="0.70897">
        <ele>202.01</ele>
        <time>2014-04-05T12:13:08Z</time>
      </trkpt>
      <trkpt lat="43.88454" lon="0.70872">
        <ele>201.05</ele>
        <time>2014-04-05T12:13:26Z</time>
      </trkpt>
      <trkpt lat="43.88443" lon="0.70847">
        <ele>200.09</ele>
        <time>2014-04-05T12:13:44Z</time>
      </trkpt>
      <trkpt lat="43.88433" lon="0.70821">
        <ele>200.57</ele>
        <time>2014-04-05T12:14:03Z</time>
      </trkpt>
      <trkpt lat="43.88432" lon="0.70815">
        <ele>200.57</ele>
        <time>2014-04-05T12:14:07Z</time>
      </trkpt>
      <trkpt lat="43.88433" lon="0.70791">
        <ele>198.65</ele>
        <time>2014-04-05T12:14:23Z</time>
      </trkpt>
      <trkpt lat="43.88447" lon="0.70767">
        <ele>201.05</ele>
        <time>2014-04-05T12:14:42Z</time>
      </trkpt>
      <trkpt lat="43.88461" lon="0.70744">
        <ele>199.61</ele>
        <time>2014-04-05T12:14:58Z</time>
      </trkpt>
      <trkpt lat="43.88476" lon="0.70722">
        <ele>198.17</ele>
        <time>2014-04-05T12:15:16Z</time>
      </trkpt>
      <trkpt lat="43.88484" lon="0.70712">
        <ele>197.69</ele>
        <time>2014-04-05T12:15:25Z</time>
      </trkpt>
      <trkpt lat="43.88496" lon="0.70686">
        <ele>201.05</ele>
        <time>2014-04-05T12:15:42Z</time>
      </trkpt>
      <trkpt lat="43.88512" lon="0.70654">
        <ele>196.73</ele>
        <time>2014-04-05T12:16:01Z</time>
      </trkpt>
      <trkpt lat="43.88526" lon="0.70624">
        <ele>194.32</ele>
        <time>2014-04-05T12:16:21Z</time>
      </trkpt>
      <trkpt lat="43.8854" lon="0.70596">
        <ele>194.8</ele>
        <time>2014-04-05T12:16:40Z</time>
      </trkpt>
      <trkpt lat="43.88555" lon="0.70567">
        <ele>193.84</ele>
        <time>2014-04-05T12:17:00Z</time>
      </trkpt>
      <trkpt lat="43.88571" lon="0.70542">
        <ele>193.36</ele>
        <time>2014-04-05T12:17:18Z</time>
      </trkpt>
      <trkpt lat="43.88585" lon="0.70519">
        <ele>191.92</ele>
        <time>2014-04-05T12:17:35Z</time>
      </trkpt>
      <trkpt lat="43.88592" lon="0.70507">
        <ele>193.36</ele>
        <time>2014-04-05T12:17:43Z</time>
      </trkpt>
      <trkpt lat="43.88595" lon="0.70499">
        <ele>192.88</ele>
        <time>2014-04-05T12:17:49Z</time>
      </trkpt>
      <trkpt lat="43.88606" lon="0.70485">
        <ele>191.92</ele>
        <time>2014-04-05T12:18:01Z</time>
      </trkpt>
      <trkpt lat="43.88614" lon="0.70463">
        <ele>192.4</ele>
        <time>2014-04-05T12:18:16Z</time>
      </trkpt>
      <trkpt lat="43.88625" lon="0.70436">
        <ele>192.4</ele>
        <time>2014-04-05T12:18:35Z</time>
      </trkpt>
      <trkpt lat="43.88635" lon="0.70407">
        <ele>191.92</ele>
        <time>2014-04-05T12:18:53Z</time>
      </trkpt>
      <trkpt lat="43.88641" lon="0.7039">
        <ele>192.4</ele>
        <time>2014-04-05T12:19:05Z</time>
      </trkpt>
      <trkpt lat="43.88641" lon="0.70385">
        <ele>190.96</ele>
        <time>2014-04-05T12:19:08Z</time>
      </trkpt>
      <trkpt lat="43.88648" lon="0.70373">
        <ele>190.96</ele>
        <time>2014-04-05T12:19:23Z</time>
      </trkpt>
      <trkpt lat="43.88649" lon="0.70373">
        <ele>193.36</ele>
        <time>2014-04-05T12:19:41Z</time>
      </trkpt>
      <trkpt lat="43.88651" lon="0.70375">
        <ele>193.36</ele>
        <time>2014-04-05T12:20:00Z</time>
      </trkpt>
      <trkpt lat="43.88652" lon="0.70373">
        <ele>192.4</ele>
        <time>2014-04-05T12:20:30Z</time>
      </trkpt>
      <trkpt lat="43.88649" lon="0.70377">
        <ele>191.44</ele>
        <time>2014-04-05T12:20:54Z</time>
      </trkpt>
      <trkpt lat="43.88648" lon="0.70377">
        <ele>190.96</ele>
        <time>2014-04-05T12:21:17Z</time>
      </trkpt>
      <trkpt lat="43.88647" lon="0.70375">
        <ele>191.92</ele>
        <time>2014-04-05T12:21:30Z</time>
      </trkpt>
      <trkpt lat="43.88646" lon="0.70374">
        <ele>191.92</ele>
        <time>2014-04-05T12:21:53Z</time>
      </trkpt>
      <trkpt lat="43.88641" lon="0.70377">
        <ele>190</ele>
        <time>2014-04-05T12:22:11Z</time>
      </trkpt>
      <trkpt lat="43.88636" lon="0.70378">
        <ele>189.52</ele>
        <time>2014-04-05T12:22:21Z</time>
      </trkpt>
      <trkpt lat="43.88627" lon="0.7038">
        <ele>190</ele>
        <time>2014-04-05T12:22:37Z</time>
      </trkpt>
      <trkpt lat="43.88614" lon="0.70383">
        <ele>190.48</ele>
        <time>2014-04-05T12:22:54Z</time>
      </trkpt>
      <trkpt lat="43.88602" lon="0.70386">
        <ele>189.52</ele>
        <time>2014-04-05T12:23:09Z</time>
      </trkpt>
      <trkpt lat="43.88603" lon="0.70382">
        <ele>189.04</ele>
        <time>2014-04-05T12:23:27Z</time>
      </trkpt>
      <trkpt lat="43.88601" lon="0.70382">
        <ele>189.04</ele>
        <time>2014-04-05T12:23:43Z</time>
      </trkpt>
      <trkpt lat="43.88603" lon="0.70379">
        <ele>192.88</ele>
        <time>2014-04-05T12:24:18Z</time>
      </trkpt>
      <trkpt lat="43.88604" lon="0.70379">
        <ele>193.36</ele>
        <time>2014-04-05T12:24:47Z</time>
      </trkpt>
      <trkpt lat="43.8861" lon="0.70378">
        <ele>192.4</ele>
        <time>2014-04-05T12:25:02Z</time>
      </trkpt>
      <trkpt lat="43.88616" lon="0.70377">
        <ele>193.36</ele>
        <time>2014-04-05T12:25:15Z</time>
      </trkpt>
      <trkpt lat="43.88616" lon="0.70376">
        <ele>193.84</ele>
        <time>2014-04-05T12:25:32Z</time>
      </trkpt>
      <trkpt lat="43.88617" lon="0.70376">
        <ele>193.36</ele>
        <time>2014-04-05T12:25:50Z</time>
      </trkpt>
      <trkpt lat="43.88618" lon="0.70376">
        <ele>193.36</ele>
        <time>2014-04-05T12:26:09Z</time>
      </trkpt>
      <trkpt lat="43.88619" lon="0.70377">
        <ele>190.96</ele>
        <time>2014-04-05T12:26:38Z</time>
      </trkpt>
      <trkpt lat="43.88619" lon="0.70376">
        <ele>192.4</ele>
        <time>2014-04-05T12:27:03Z</time>
      </trkpt>
      <trkpt lat="43.88616" lon="0.70376">
        <ele>194.8</ele>
        <time>2014-04-05T12:27:28Z</time>
      </trkpt>
      <trkpt lat="43.88615" lon="0.70379">
        <ele>193.84</ele>
        <time>2014-04-05T12:27:42Z</time>
      </trkpt>
      <trkpt lat="43.88616" lon="0.70379">
        <ele>189.52</ele>
        <time>2014-04-05T12:28:08Z</time>
      </trkpt>
      <trkpt lat="43.88616" lon="0.70379">
        <ele>188.56</ele>
        <time>2014-04-05T12:28:35Z</time>
      </trkpt>
      <trkpt lat="43.88612" lon="0.70381">
        <ele>188.56</ele>
        <time>2014-04-05T12:29:05Z</time>
      </trkpt>
      <trkpt lat="43.88605" lon="0.70382">
        <ele>190</ele>
        <time>2014-04-05T12:29:21Z</time>
      </trkpt>
      <trkpt lat="43.88597" lon="0.70384">
        <ele>189.04</ele>
        <time>2014-04-05T12:29:40Z</time>
      </trkpt>
      <trkpt lat="43.88591" lon="0.70385">
        <ele>188.56</ele>
        <time>2014-04-05T12:29:55Z</time>
      </trkpt>
      <trkpt lat="43.88583" lon="0.70386">
        <ele>189.04</ele>
        <time>2014-04-05T12:30:08Z</time>
      </trkpt>
      <trkpt lat="43.88573" lon="0.70392">
        <ele>188.08</ele>
        <time>2014-04-05T12:30:22Z</time>
      </trkpt>
      <trkpt lat="43.88557" lon="0.70399">
        <ele>184.71</ele>
        <time>2014-04-05T12:30:38Z</time>
      </trkpt>
      <trkpt lat="43.88538" lon="0.70406">
        <ele>183.75</ele>
        <time>2014-04-05T12:30:57Z</time>
      </trkpt>
      <trkpt lat="43.88521" lon="0.7041">
        <ele>181.35</ele>
        <time>2014-04-05T12:31:14Z</time>
      </trkpt>
      <trkpt lat="43.88505" lon="0.70411">
        <ele>181.35</ele>
        <time>2014-04-05T12:31:28Z</time>
      </trkpt>
      <trkpt lat="43.8849" lon="0.70412">
        <ele>182.31</ele>
        <time>2014-04-05T12:31:42Z</time>
      </trkpt>
      <trkpt lat="43.88475" lon="0.70413">
        <ele>185.67</ele>
        <time>2014-04-05T12:31:58Z</time>
      </trkpt>
      <trkpt lat="43.88462" lon="0.70414">
        <ele>187.59</ele>
        <time>2014-04-05T12:32:11Z</time>
      </trkpt>
      <trkpt lat="43.88452" lon="0.70415">
        <ele>187.59</ele>
        <time>2014-04-05T12:32:22Z</time>
      </trkpt>
      <trkpt lat="43.88436" lon="0.70417">
        <ele>190</ele>
        <time>2014-04-05T12:32:39Z</time>
      </trkpt>
      <trkpt lat="43.88425" lon="0.7042">
        <ele>191.92</ele>
        <time>2014-04-05T12:32:53Z</time>
      </trkpt>
      <trkpt lat="43.88406" lon="0.70435">
        <ele>192.88</ele>
        <time>2014-04-05T12:33:10Z</time>
      </trkpt>
      <trkpt lat="43.88396" lon="0.70457">
        <ele>193.84</ele>
        <time>2014-04-05T12:33:28Z</time>
      </trkpt>
      <trkpt lat="43.8839" lon="0.70467">
        <ele>193.84</ele>
        <time>2014-04-05T12:33:37Z</time>
      </trkpt>
      <trkpt lat="43.88388" lon="0.70468">
        <ele>194.32</ele>
        <time>2014-04-05T12:33:39Z</time>
      </trkpt>
      <trkpt lat="43.88386" lon="0.70466">
        <ele>194.32</ele>
        <time>2014-04-05T12:33:42Z</time>
      </trkpt>
      <trkpt lat="43.88388" lon="0.70448">
        <ele>196.73</ele>
        <time>2014-04-05T12:33:56Z</time>
      </trkpt>
      <trkpt lat="43.8839" lon="0.70422">
        <ele>200.09</ele>
        <time>2014-04-05T12:34:14Z</time>
      </trkpt>
      <trkpt lat="43.88393" lon="0.70397">
        <ele>201.53</ele>
        <time>2014-04-05T12:34:29Z</time>
      </trkpt>
      <trkpt lat="43.88396" lon="0.70373">
        <ele>197.21</ele>
        <time>2014-04-05T12:34:42Z</time>
      </trkpt>
      <trkpt lat="43.88398" lon="0.70364">
        <ele>198.17</ele>
        <time>2014-04-05T12:34:49Z</time>
      </trkpt>
      <trkpt lat="43.88402" lon="0.70348">
        <ele>198.17</ele>
        <time>2014-04-05T12:35:00Z</time>
      </trkpt>
      <trkpt lat="43.88404" lon="0.70324">
        <ele>199.13</ele>
        <time>2014-04-05T12:35:12Z</time>
      </trkpt>
      <trkpt lat="43.88402" lon="0.70312">
        <ele>199.61</ele>
        <time>2014-04-05T12:35:19Z</time>
      </trkpt>
      <trkpt lat="43.88402" lon="0.70308">
        <ele>199.61</ele>
        <time>2014-04-05T12:35:21Z</time>
      </trkpt>
      <trkpt lat="43.88397" lon="0.70295">
        <ele>199.13</ele>
        <time>2014-04-05T12:35:29Z</time>
      </trkpt>
      <trkpt lat="43.88395" lon="0.70286">
        <ele>200.09</ele>
        <time>2014-04-05T12:35:34Z</time>
      </trkpt>
      <trkpt lat="43.88383" lon="0.70279">
        <ele>204.9</ele>
        <time>2014-04-05T12:35:48Z</time>
      </trkpt>
      <trkpt lat="43.8837" lon="0.70275">
        <ele>209.22</ele>
        <time>2014-04-05T12:36:00Z</time>
      </trkpt>
      <trkpt lat="43.88352" lon="0.70274">
        <ele>207.3</ele>
        <time>2014-04-05T12:36:14Z</time>
      </trkpt>
      <trkpt lat="43.8835" lon="0.70275">
        <ele>207.3</ele>
        <time>2014-04-05T12:36:16Z</time>
      </trkpt>
      <trkpt lat="43.88334" lon="0.70292">
        <ele>205.86</ele>
        <time>2014-04-05T12:36:32Z</time>
      </trkpt>
      <trkpt lat="43.88323" lon="0.7031">
        <ele>203.46</ele>
        <time>2014-04-05T12:36:45Z</time>
      </trkpt>
      <trkpt lat="43.88315" lon="0.7032">
        <ele>202.98</ele>
        <time>2014-04-05T12:36:53Z</time>
      </trkpt>
      <trkpt lat="43.88306" lon="0.70349">
        <ele>201.05</ele>
        <time>2014-04-05T12:37:11Z</time>
      </trkpt>
      <trkpt lat="43.88304" lon="0.70378">
        <ele>201.05</ele>
        <time>2014-04-05T12:37:30Z</time>
      </trkpt>
      <trkpt lat="43.88308" lon="0.70393">
        <ele>200.09</ele>
        <time>2014-04-05T12:37:41Z</time>
      </trkpt>
      <trkpt lat="43.88298" lon="0.70414">
        <ele>201.53</ele>
        <time>2014-04-05T12:37:58Z</time>
      </trkpt>
      <trkpt lat="43.88283" lon="0.70421">
        <ele>202.01</ele>
        <time>2014-04-05T12:38:12Z</time>
      </trkpt>
      <trkpt lat="43.88279" lon="0.70418">
        <ele>202.49</ele>
        <time>2014-04-05T12:38:28Z</time>
      </trkpt>
      <trkpt lat="43.88269" lon="0.70434">
        <ele>202.01</ele>
        <time>2014-04-05T12:38:44Z</time>
      </trkpt>
      <trkpt lat="43.88265" lon="0.70434">
        <ele>200.09</ele>
        <time>2014-04-05T12:38:59Z</time>
      </trkpt>
      <trkpt lat="43.88261" lon="0.70434">
        <ele>200.09</ele>
        <time>2014-04-05T12:39:15Z</time>
      </trkpt>
      <trkpt lat="43.88259" lon="0.70436">
        <ele>200.09</ele>
        <time>2014-04-05T12:39:33Z</time>
      </trkpt>
      <trkpt lat="43.8826" lon="0.70432">
        <ele>199.13</ele>
        <time>2014-04-05T12:39:51Z</time>
      </trkpt>
      <trkpt lat="43.88258" lon="0.70429">
        <ele>199.13</ele>
        <time>2014-04-05T12:40:16Z</time>
      </trkpt>
      <trkpt lat="43.88257" lon="0.70435">
        <ele>198.17</ele>
        <time>2014-04-05T12:40:36Z</time>
      </trkpt>
      <trkpt lat="43.88257" lon="0.70436">
        <ele>198.17</ele>
        <time>2014-04-05T12:40:37Z</time>
      </trkpt>
      <trkpt lat="43.8825" lon="0.70439">
        <ele>198.17</ele>
        <time>2014-04-05T12:40:50Z</time>
      </trkpt>
      <trkpt lat="43.88245" lon="0.70444">
        <ele>198.17</ele>
        <time>2014-04-05T12:41:13Z</time>
      </trkpt>
      <trkpt lat="43.88241" lon="0.70451">
        <ele>198.17</ele>
        <time>2014-04-05T12:41:20Z</time>
      </trkpt>
      <trkpt lat="43.88239" lon="0.70452">
        <ele>198.17</ele>
        <time>2014-04-05T12:41:22Z</time>
      </trkpt>
      <trkpt lat="43.88236" lon="0.70457">
        <ele>197.69</ele>
        <time>2014-04-05T12:41:26Z</time>
      </trkpt>
      <trkpt lat="43.88224" lon="0.70476">
        <ele>196.25</ele>
        <time>2014-04-05T12:41:42Z</time>
      </trkpt>
      <trkpt lat="43.88215" lon="0.70489">
        <ele>195.77</ele>
        <time>2014-04-05T12:41:56Z</time>
      </trkpt>
      <trkpt lat="43.88209" lon="0.70505">
        <ele>194.32</ele>
        <time>2014-04-05T12:42:10Z</time>
      </trkpt>
      <trkpt lat="43.88211" lon="0.70513">
        <ele>193.84</ele>
        <time>2014-04-05T12:42:25Z</time>
      </trkpt>
      <trkpt lat="43.88218" lon="0.7052">
        <ele>196.25</ele>
        <time>2014-04-05T12:42:39Z</time>
      </trkpt>
      <trkpt lat="43.88221" lon="0.70525">
        <ele>196.73</ele>
        <time>2014-04-05T12:42:45Z</time>
      </trkpt>
      <trkpt lat="43.88235" lon="0.70534">
        <ele>201.53</ele>
        <time>2014-04-05T12:43:01Z</time>
      </trkpt>
      <trkpt lat="43.88242" lon="0.70542">
        <ele>202.49</ele>
        <time>2014-04-05T12:43:14Z</time>
      </trkpt>
      <trkpt lat="43.88243" lon="0.70542">
        <ele>202.98</ele>
        <time>2014-04-05T12:43:16Z</time>
      </trkpt>
      <trkpt lat="43.88257" lon="0.70526">
        <ele>205.86</ele>
        <time>2014-04-05T12:43:34Z</time>
      </trkpt>
      <trkpt lat="43.88269" lon="0.7051">
        <ele>207.78</ele>
        <time>2014-04-05T12:43:50Z</time>
      </trkpt>
      <trkpt lat="43.88283" lon="0.70493">
        <ele>211.63</ele>
        <time>2014-04-05T12:44:07Z</time>
      </trkpt>
      <trkpt lat="43.88296" lon="0.70477">
        <ele>215.95</ele>
        <time>2014-04-05T12:44:23Z</time>
      </trkpt>
      <trkpt lat="43.88308" lon="0.70475">
        <ele>219.32</ele>
        <time>2014-04-05T12:44:39Z</time>
      </trkpt>
      <trkpt lat="43.88318" lon="0.70478">
        <ele>226.53</ele>
        <time>2014-04-05T12:44:54Z</time>
      </trkpt>
      <trkpt lat="43.88322" lon="0.70478">
        <ele>234.22</ele>
        <time>2014-04-05T12:45:11Z</time>
      </trkpt>
      <trkpt lat="43.88324" lon="0.70479">
        <ele>234.22</ele>
        <time>2014-04-05T12:45:23Z</time>
      </trkpt>
      <trkpt lat="43.88327" lon="0.70489">
        <ele>226.05</ele>
        <time>2014-04-05T12:45:42Z</time>
      </trkpt>
      <trkpt lat="43.88335" lon="0.70484">
        <ele>223.16</ele>
        <time>2014-04-05T12:45:57Z</time>
      </trkpt>
      <trkpt lat="43.88355" lon="0.70481">
        <ele>220.28</ele>
        <time>2014-04-05T12:46:14Z</time>
      </trkpt>
      <trkpt lat="43.88365" lon="0.70477">
        <ele>219.8</ele>
        <time>2014-04-05T12:46:21Z</time>
      </trkpt>
      <trkpt lat="43.88382" lon="0.70467">
        <ele>219.8</ele>
        <time>2014-04-05T12:46:37Z</time>
      </trkpt>
      <trkpt lat="43.88386" lon="0.70463">
        <ele>219.8</ele>
        <time>2014-04-05T12:46:41Z</time>
      </trkpt>
      <trkpt lat="43.88396" lon="0.70438">
        <ele>213.07</ele>
        <time>2014-04-05T12:47:01Z</time>
      </trkpt>
      <trkpt lat="43.88398" lon="0.70433">
        <ele>211.63</ele>
        <time>2014-04-05T12:47:06Z</time>
      </trkpt>
      <trkpt lat="43.88403" lon="0.70429">
        <ele>209.7</ele>
        <time>2014-04-05T12:47:10Z</time>
      </trkpt>
      <trkpt lat="43.88425" lon="0.70414">
        <ele>202.01</ele>
        <time>2014-04-05T12:47:26Z</time>
      </trkpt>
      <trkpt lat="43.88451" lon="0.70405">
        <ele>191.44</ele>
        <time>2014-04-05T12:47:45Z</time>
      </trkpt>
      <trkpt lat="43.88473" lon="0.70404">
        <ele>187.11</ele>
        <time>2014-04-05T12:48:03Z</time>
      </trkpt>
      <trkpt lat="43.88495" lon="0.70401">
        <ele>183.75</ele>
        <time>2014-04-05T12:48:21Z</time>
      </trkpt>
      <trkpt lat="43.88504" lon="0.70402">
        <ele>182.79</ele>
        <time>2014-04-05T12:48:27Z</time>
      </trkpt>
      <trkpt lat="43.88507" lon="0.70418">
        <ele>181.83</ele>
        <time>2014-04-05T12:48:34Z</time>
      </trkpt>
      <trkpt lat="43.8851" lon="0.7044">
        <ele>180.38</ele>
        <time>2014-04-05T12:48:43Z</time>
      </trkpt>
      <trkpt lat="43.88511" lon="0.70459">
        <ele>179.42</ele>
        <time>2014-04-05T12:48:52Z</time>
      </trkpt>
      <trkpt lat="43.88514" lon="0.70493">
        <ele>179.9</ele>
        <time>2014-04-05T12:49:11Z</time>
      </trkpt>
      <trkpt lat="43.88502" lon="0.70539">
        <ele>179.42</ele>
        <time>2014-04-05T12:49:35Z</time>
      </trkpt>
      <trkpt lat="43.88487" lon="0.70574">
        <ele>181.35</ele>
        <time>2014-04-05T12:49:56Z</time>
      </trkpt>
      <trkpt lat="43.8847" lon="0.70612">
        <ele>182.31</ele>
        <time>2014-04-05T12:50:19Z</time>
      </trkpt>
      <trkpt lat="43.88453" lon="0.70646">
        <ele>186.63</ele>
        <time>2014-04-05T12:50:42Z</time>
      </trkpt>
      <trkpt lat="43.88435" lon="0.70684">
        <ele>185.67</ele>
        <time>2014-04-05T12:51:04Z</time>
      </trkpt>
      <trkpt lat="43.8842" lon="0.70722">
        <ele>189.04</ele>
        <time>2014-04-05T12:51:27Z</time>
      </trkpt>
      <trkpt lat="43.88415" lon="0.70755">
        <ele>195.77</ele>
        <time>2014-04-05T12:51:47Z</time>
      </trkpt>
      <trkpt lat="43.88414" lon="0.70783">
        <ele>194.32</ele>
        <time>2014-04-05T12:52:02Z</time>
      </trkpt>
      <trkpt lat="43.88415" lon="0.70794">
        <ele>194.8</ele>
        <time>2014-04-05T12:52:12Z</time>
      </trkpt>
      <trkpt lat="43.88412" lon="0.70798">
        <ele>195.28</ele>
        <time>2014-04-05T12:52:28Z</time>
      </trkpt>
      <trkpt lat="43.88409" lon="0.70806">
        <ele>194.8</ele>
        <time>2014-04-05T12:52:39Z</time>
      </trkpt>
      <trkpt lat="43.88409" lon="0.70807">
        <ele>194.8</ele>
        <time>2014-04-05T12:52:42Z</time>
      </trkpt>
      <trkpt lat="43.88405" lon="0.70835">
        <ele>197.21</ele>
        <time>2014-04-05T12:53:00Z</time>
      </trkpt>
      <trkpt lat="43.88405" lon="0.70841">
        <ele>198.17</ele>
        <time>2014-04-05T12:53:04Z</time>
      </trkpt>
      <trkpt lat="43.88404" lon="0.70848">
        <ele>198.17</ele>
        <time>2014-04-05T12:53:08Z</time>
      </trkpt>
      <trkpt lat="43.88395" lon="0.70885">
        <ele>200.57</ele>
        <time>2014-04-05T12:53:29Z</time>
      </trkpt>
      <trkpt lat="43.88392" lon="0.70924">
        <ele>199.61</ele>
        <time>2014-04-05T12:53:50Z</time>
      </trkpt>
      <trkpt lat="43.88391" lon="0.70965">
        <ele>198.65</ele>
        <time>2014-04-05T12:54:13Z</time>
      </trkpt>
      <trkpt lat="43.88392" lon="0.71003">
        <ele>195.77</ele>
        <time>2014-04-05T12:54:35Z</time>
      </trkpt>
      <trkpt lat="43.88397" lon="0.71032">
        <ele>196.25</ele>
        <time>2014-04-05T12:54:52Z</time>
      </trkpt>
      <trkpt lat="43.88406" lon="0.71061">
        <ele>195.77</ele>
        <time>2014-04-05T12:55:11Z</time>
      </trkpt>
      <trkpt lat="43.88412" lon="0.71086">
        <ele>195.77</ele>
        <time>2014-04-05T12:55:28Z</time>
      </trkpt>
      <trkpt lat="43.88421" lon="0.71125">
        <ele>195.77</ele>
        <time>2014-04-05T12:55:52Z</time>
      </trkpt>
      <trkpt lat="43.88429" lon="0.71155">
        <ele>194.8</ele>
        <time>2014-04-05T12:56:10Z</time>
      </trkpt>
      <trkpt lat="43.88436" lon="0.71186">
        <ele>194.8</ele>
        <time>2014-04-05T12:56:29Z</time>
      </trkpt>
      <trkpt lat="43.88444" lon="0.71217">
        <ele>193.36</ele>
        <time>2014-04-05T12:56:47Z</time>
      </trkpt>
      <trkpt lat="43.88449" lon="0.71242">
        <ele>192.4</ele>
        <time>2014-04-05T12:57:03Z</time>
      </trkpt>
      <trkpt lat="43.88457" lon="0.71271">
        <ele>191.44</ele>
        <time>2014-04-05T12:57:21Z</time>
      </trkpt>
      <trkpt lat="43.88465" lon="0.71302">
        <ele>189.52</ele>
        <time>2014-04-05T12:57:39Z</time>
      </trkpt>
      <trkpt lat="43.8847" lon="0.71326">
        <ele>187.59</ele>
        <time>2014-04-05T12:57:55Z</time>
      </trkpt>
      <trkpt lat="43.88476" lon="0.71355">
        <ele>187.59</ele>
        <time>2014-04-05T12:58:12Z</time>
      </trkpt>
      <trkpt lat="43.88481" lon="0.71385">
        <ele>188.56</ele>
        <time>2014-04-05T12:58:32Z</time>
      </trkpt>
      <trkpt lat="43.88486" lon="0.71416">
        <ele>190.48</ele>
        <time>2014-04-05T12:58:51Z</time>
      </trkpt>
      <trkpt lat="43.88491" lon="0.71444">
        <ele>190.48</ele>
        <time>2014-04-05T12:59:07Z</time>
      </trkpt>
      <trkpt lat="43.88493" lon="0.71471">
        <ele>194.8</ele>
        <time>2014-04-05T12:59:25Z</time>
      </trkpt>
      <trkpt lat="43.88498" lon="0.71508">
        <ele>188.56</ele>
        <time>2014-04-05T12:59:44Z</time>
      </trkpt>
      <trkpt lat="43.88501" lon="0.71542">
        <ele>182.79</ele>
        <time>2014-04-05T13:00:02Z</time>
      </trkpt>
      <trkpt lat="43.88503" lon="0.71574">
        <ele>179.42</ele>
        <time>2014-04-05T13:00:20Z</time>
      </trkpt>
      <trkpt lat="43.88507" lon="0.71595">
        <ele>178.46</ele>
        <time>2014-04-05T13:00:33Z</time>
      </trkpt>
      <trkpt lat="43.88517" lon="0.71621">
        <ele>177.5</ele>
        <time>2014-04-05T13:00:50Z</time>
      </trkpt>
      <trkpt lat="43.88531" lon="0.71642">
        <ele>177.02</ele>
        <time>2014-04-05T13:01:06Z</time>
      </trkpt>
      <trkpt lat="43.88537" lon="0.71652">
        <ele>177.98</ele>
        <time>2014-04-05T13:01:20Z</time>
      </trkpt>
      <trkpt lat="43.88541" lon="0.71654">
        <ele>176.54</ele>
        <time>2014-04-05T13:01:37Z</time>
      </trkpt>
      <trkpt lat="43.88548" lon="0.71662">
        <ele>176.54</ele>
        <time>2014-04-05T13:01:46Z</time>
      </trkpt>
      <trkpt lat="43.88565" lon="0.71677">
        <ele>175.58</ele>
        <time>2014-04-05T13:02:04Z</time>
      </trkpt>
      <trkpt lat="43.88582" lon="0.71693">
        <ele>177.02</ele>
        <time>2014-04-05T13:02:22Z</time>
      </trkpt>
      <trkpt lat="43.88601" lon="0.71711">
        <ele>177.02</ele>
        <time>2014-04-05T13:02:40Z</time>
      </trkpt>
      <trkpt lat="43.8862" lon="0.71729">
        <ele>177.02</ele>
        <time>2014-04-05T13:02:58Z</time>
      </trkpt>
      <trkpt lat="43.88629" lon="0.71738">
        <ele>175.58</ele>
        <time>2014-04-05T13:03:14Z</time>
      </trkpt>
      <trkpt lat="43.88633" lon="0.71741">
        <ele>177.02</ele>
        <time>2014-04-05T13:03:28Z</time>
      </trkpt>
      <trkpt lat="43.88643" lon="0.71749">
        <ele>177.02</ele>
        <time>2014-04-05T13:03:47Z</time>
      </trkpt>
      <trkpt lat="43.88652" lon="0.71758">
        <ele>175.58</ele>
        <time>2014-04-05T13:04:03Z</time>
      </trkpt>
      <trkpt lat="43.88659" lon="0.71766">
        <ele>174.62</ele>
        <time>2014-04-05T13:04:15Z</time>
      </trkpt>
      <trkpt lat="43.88676" lon="0.71782">
        <ele>172.69</ele>
        <time>2014-04-05T13:04:32Z</time>
      </trkpt>
      <trkpt lat="43.88689" lon="0.71796">
        <ele>171.25</ele>
        <time>2014-04-05T13:04:48Z</time>
      </trkpt>
      <trkpt lat="43.88713" lon="0.7182">
        <ele>170.29</ele>
        <time>2014-04-05T13:05:05Z</time>
      </trkpt>
      <trkpt lat="43.88715" lon="0.71825">
        <ele>168.37</ele>
        <time>2014-04-05T13:05:16Z</time>
      </trkpt>
      <trkpt lat="43.88715" lon="0.71825">
        <ele>167.41</ele>
        <time>2014-04-05T13:05:35Z</time>
      </trkpt>
      <trkpt lat="43.88714" lon="0.71827">
        <ele>167.41</ele>
        <time>2014-04-05T13:05:38Z</time>
      </trkpt>
      <trkpt lat="43.88716" lon="0.71827">
        <ele>167.41</ele>
        <time>2014-04-05T13:05:48Z</time>
      </trkpt>
      <trkpt lat="43.88714" lon="0.71829">
        <ele>168.37</ele>
        <time>2014-04-05T13:06:02Z</time>
      </trkpt>
      <trkpt lat="43.88715" lon="0.71829">
        <ele>170.29</ele>
        <time>2014-04-05T13:06:22Z</time>
      </trkpt>
      <trkpt lat="43.88714" lon="0.71829">
        <ele>171.73</ele>
        <time>2014-04-05T13:06:47Z</time>
      </trkpt>
      <trkpt lat="43.88715" lon="0.71829">
        <ele>172.69</ele>
        <time>2014-04-05T13:07:08Z</time>
      </trkpt>
      <trkpt lat="43.88715" lon="0.71828">
        <ele>172.21</ele>
        <time>2014-04-05T13:07:43Z</time>
      </trkpt>
      <trkpt lat="43.88716" lon="0.71827">
        <ele>172.69</ele>
        <time>2014-04-05T13:08:12Z</time>
      </trkpt>
      <trkpt lat="43.88716" lon="0.71829">
        <ele>174.14</ele>
        <time>2014-04-05T13:08:36Z</time>
      </trkpt>
      <trkpt lat="43.88713" lon="0.71831">
        <ele>171.25</ele>
        <time>2014-04-05T13:08:56Z</time>
      </trkpt>
      <trkpt lat="43.88711" lon="0.71829">
        <ele>170.77</ele>
        <time>2014-04-05T13:09:17Z</time>
      </trkpt>
      <trkpt lat="43.88713" lon="0.71828">
        <ele>170.29</ele>
        <time>2014-04-05T13:09:41Z</time>
      </trkpt>
      <trkpt lat="43.88714" lon="0.71829">
        <ele>169.33</ele>
        <time>2014-04-05T13:10:02Z</time>
      </trkpt>
      <trkpt lat="43.88714" lon="0.7183">
        <ele>168.85</ele>
        <time>2014-04-05T13:10:31Z</time>
      </trkpt>
      <trkpt lat="43.88714" lon="0.71826">
        <ele>170.29</ele>
        <time>2014-04-05T13:11:00Z</time>
      </trkpt>
      <trkpt lat="43.88711" lon="0.71829">
        <ele>169.33</ele>
        <time>2014-04-05T13:11:20Z</time>
      </trkpt>
      <trkpt lat="43.88708" lon="0.7183">
        <ele>170.29</ele>
        <time>2014-04-05T13:11:35Z</time>
      </trkpt>
      <trkpt lat="43.88708" lon="0.71832">
        <ele>170.29</ele>
        <time>2014-04-05T13:12:01Z</time>
      </trkpt>
      <trkpt lat="43.88709" lon="0.71836">
        <ele>168.37</ele>
        <time>2014-04-05T13:12:47Z</time>
      </trkpt>
      <trkpt lat="43.88708" lon="0.7183">
        <ele>171.25</ele>
        <time>2014-04-05T13:13:19Z</time>
      </trkpt>
      <trkpt lat="43.88708" lon="0.7183">
        <ele>172.21</ele>
        <time>2014-04-05T13:14:05Z</time>
      </trkpt>
      <trkpt lat="43.88708" lon="0.71831">
        <ele>171.25</ele>
        <time>2014-04-05T13:14:48Z</time>
      </trkpt>
      <trkpt lat="43.8871" lon="0.7183">
        <ele>169.81</ele>
        <time>2014-04-05T13:15:35Z</time>
      </trkpt>
      <trkpt lat="43.8871" lon="0.71829">
        <ele>170.77</ele>
        <time>2014-04-05T13:16:14Z</time>
      </trkpt>
      <trkpt lat="43.8871" lon="0.71831">
        <ele>170.29</ele>
        <time>2014-04-05T13:16:56Z</time>
      </trkpt>
      <trkpt lat="43.88709" lon="0.7183">
        <ele>172.21</ele>
        <time>2014-04-05T13:17:39Z</time>
      </trkpt>
      <trkpt lat="43.8871" lon="0.71831">
        <ele>171.25</ele>
        <time>2014-04-05T13:17:50Z</time>
      </trkpt>
      <trkpt lat="43.88709" lon="0.71831">
        <ele>169.81</ele>
        <time>2014-04-05T13:18:10Z</time>
      </trkpt>
      <trkpt lat="43.88713" lon="0.71827">
        <ele>166.93</ele>
        <time>2014-04-05T13:18:40Z</time>
      </trkpt>
      <trkpt lat="43.88713" lon="0.7183">
        <ele>167.89</ele>
        <time>2014-04-05T13:18:57Z</time>
      </trkpt>
      <trkpt lat="43.88711" lon="0.71832">
        <ele>169.33</ele>
        <time>2014-04-05T13:19:17Z</time>
      </trkpt>
      <trkpt lat="43.88705" lon="0.7184">
        <ele>169.33</ele>
        <time>2014-04-05T13:19:38Z</time>
      </trkpt>
      <trkpt lat="43.88702" lon="0.71848">
        <ele>168.85</ele>
        <time>2014-04-05T13:19:49Z</time>
      </trkpt>
      <trkpt lat="43.88694" lon="0.71859">
        <ele>167.41</ele>
        <time>2014-04-05T13:20:01Z</time>
      </trkpt>
      <trkpt lat="43.88682" lon="0.71871">
        <ele>165.48</ele>
        <time>2014-04-05T13:20:14Z</time>
      </trkpt>
      <trkpt lat="43.88674" lon="0.71878">
        <ele>163.56</ele>
        <time>2014-04-05T13:20:25Z</time>
      </trkpt>
      <trkpt lat="43.88662" lon="0.71886">
        <ele>162.6</ele>
        <time>2014-04-05T13:20:37Z</time>
      </trkpt>
      <trkpt lat="43.8865" lon="0.71896">
        <ele>161.64</ele>
        <time>2014-04-05T13:20:50Z</time>
      </trkpt>
      <trkpt lat="43.88645" lon="0.71912">
        <ele>163.56</ele>
        <time>2014-04-05T13:21:02Z</time>
      </trkpt>
      <trkpt lat="43.8864" lon="0.71922">
        <ele>165.96</ele>
        <time>2014-04-05T13:21:11Z</time>
      </trkpt>
      <trkpt lat="43.88633" lon="0.71934">
        <ele>167.41</ele>
        <time>2014-04-05T13:21:20Z</time>
      </trkpt>
      <trkpt lat="43.88628" lon="0.7195">
        <ele>169.33</ele>
        <time>2014-04-05T13:21:32Z</time>
      </trkpt>
      <trkpt lat="43.88623" lon="0.71966">
        <ele>168.37</ele>
        <time>2014-04-05T13:21:42Z</time>
      </trkpt>
      <trkpt lat="43.88617" lon="0.71979">
        <ele>166.45</ele>
        <time>2014-04-05T13:21:55Z</time>
      </trkpt>
      <trkpt lat="43.88611" lon="0.71994">
        <ele>165.96</ele>
        <time>2014-04-05T13:22:05Z</time>
      </trkpt>
      <trkpt lat="43.88605" lon="0.72007">
        <ele>164.52</ele>
        <time>2014-04-05T13:22:15Z</time>
      </trkpt>
      <trkpt lat="43.88597" lon="0.72022">
        <ele>165.48</ele>
        <time>2014-04-05T13:22:27Z</time>
      </trkpt>
      <trkpt lat="43.8859" lon="0.72036">
        <ele>165.48</ele>
        <time>2014-04-05T13:22:38Z</time>
      </trkpt>
      <trkpt lat="43.88589" lon="0.72038">
        <ele>165.48</ele>
        <time>2014-04-05T13:22:40Z</time>
      </trkpt>
      <trkpt lat="43.88579" lon="0.7206">
        <ele>167.41</ele>
        <time>2014-04-05T13:22:55Z</time>
      </trkpt>
      <trkpt lat="43.88574" lon="0.72073">
        <ele>166.93</ele>
        <time>2014-04-05T13:23:05Z</time>
      </trkpt>
      <trkpt lat="43.88569" lon="0.72082">
        <ele>166.93</ele>
        <time>2014-04-05T13:23:11Z</time>
      </trkpt>
      <trkpt lat="43.88564" lon="0.72086">
        <ele>167.89</ele>
        <time>2014-04-05T13:23:17Z</time>
      </trkpt>
      <trkpt lat="43.88564" lon="0.72089">
        <ele>167.89</ele>
        <time>2014-04-05T13:23:19Z</time>
      </trkpt>
      <trkpt lat="43.8856" lon="0.721">
        <ele>167.89</ele>
        <time>2014-04-05T13:23:24Z</time>
      </trkpt>
      <trkpt lat="43.88554" lon="0.72112">
        <ele>168.37</ele>
        <time>2014-04-05T13:23:36Z</time>
      </trkpt>
      <trkpt lat="43.88543" lon="0.72131">
        <ele>170.29</ele>
        <time>2014-04-05T13:23:48Z</time>
      </trkpt>
      <trkpt lat="43.88535" lon="0.72151">
        <ele>170.29</ele>
        <time>2014-04-05T13:24:00Z</time>
      </trkpt>
      <trkpt lat="43.88528" lon="0.72161">
        <ele>172.21</ele>
        <time>2014-04-05T13:24:11Z</time>
      </trkpt>
      <trkpt lat="43.88518" lon="0.72181">
        <ele>173.17</ele>
        <time>2014-04-05T13:24:22Z</time>
      </trkpt>
      <trkpt lat="43.88515" lon="0.72185">
        <ele>173.66</ele>
        <time>2014-04-05T13:24:34Z</time>
      </trkpt>
      <trkpt lat="43.88511" lon="0.72194">
        <ele>174.14</ele>
        <time>2014-04-05T13:24:49Z</time>
      </trkpt>
      <trkpt lat="43.88503" lon="0.7221">
        <ele>174.14</ele>
        <time>2014-04-05T13:25:00Z</time>
      </trkpt>
      <trkpt lat="43.88498" lon="0.72224">
        <ele>174.62</ele>
        <time>2014-04-05T13:25:09Z</time>
      </trkpt>
      <trkpt lat="43.88492" lon="0.72232">
        <ele>175.58</ele>
        <time>2014-04-05T13:25:18Z</time>
      </trkpt>
      <trkpt lat="43.88491" lon="0.72235">
        <ele>175.58</ele>
        <time>2014-04-05T13:25:23Z</time>
      </trkpt>
      <trkpt lat="43.88486" lon="0.72246">
        <ele>175.58</ele>
        <time>2014-04-05T13:25:29Z</time>
      </trkpt>
      <trkpt lat="43.88473" lon="0.72273">
        <ele>176.06</ele>
        <time>2014-04-05T13:25:49Z</time>
      </trkpt>
      <trkpt lat="43.88463" lon="0.72291">
        <ele>177.02</ele>
        <time>2014-04-05T13:26:02Z</time>
      </trkpt>
      <trkpt lat="43.88455" lon="0.72309">
        <ele>176.54</ele>
        <time>2014-04-05T13:26:15Z</time>
      </trkpt>
      <trkpt lat="43.88448" lon="0.72322">
        <ele>177.98</ele>
        <time>2014-04-05T13:26:25Z</time>
      </trkpt>
      <trkpt lat="43.88447" lon="0.72325">
        <ele>177.98</ele>
        <time>2014-04-05T13:26:28Z</time>
      </trkpt>
      <trkpt lat="43.88437" lon="0.72342">
        <ele>179.42</ele>
        <time>2014-04-05T13:26:41Z</time>
      </trkpt>
      <trkpt lat="43.8843" lon="0.72356">
        <ele>181.35</ele>
        <time>2014-04-05T13:26:53Z</time>
      </trkpt>
      <trkpt lat="43.88424" lon="0.72369">
        <ele>182.31</ele>
        <time>2014-04-05T13:27:04Z</time>
      </trkpt>
      <trkpt lat="43.88418" lon="0.72382">
        <ele>183.27</ele>
        <time>2014-04-05T13:27:15Z</time>
      </trkpt>
      <trkpt lat="43.88412" lon="0.72393">
        <ele>184.71</ele>
        <time>2014-04-05T13:27:24Z</time>
      </trkpt>
      <trkpt lat="43.88407" lon="0.72404">
        <ele>186.15</ele>
        <time>2014-04-05T13:27:35Z</time>
      </trkpt>
      <trkpt lat="43.88398" lon="0.7242">
        <ele>188.56</ele>
        <time>2014-04-05T13:27:47Z</time>
      </trkpt>
      <trkpt lat="43.88391" lon="0.7243">
        <ele>188.56</ele>
        <time>2014-04-05T13:27:58Z</time>
      </trkpt>
      <trkpt lat="43.88382" lon="0.72445">
        <ele>190.48</ele>
        <time>2014-04-05T13:28:10Z</time>
      </trkpt>
      <trkpt lat="43.88371" lon="0.72462">
        <ele>192.4</ele>
        <time>2014-04-05T13:28:25Z</time>
      </trkpt>
      <trkpt lat="43.88361" lon="0.7248">
        <ele>192.4</ele>
        <time>2014-04-05T13:28:40Z</time>
      </trkpt>
      <trkpt lat="43.88352" lon="0.72494">
        <ele>192.88</ele>
        <time>2014-04-05T13:28:51Z</time>
      </trkpt>
      <trkpt lat="43.88341" lon="0.72511">
        <ele>193.84</ele>
        <time>2014-04-05T13:29:06Z</time>
      </trkpt>
      <trkpt lat="43.88331" lon="0.72524">
        <ele>194.8</ele>
        <time>2014-04-05T13:29:17Z</time>
      </trkpt>
      <trkpt lat="43.88324" lon="0.72534">
        <ele>195.28</ele>
        <time>2014-04-05T13:29:23Z</time>
      </trkpt>
      <trkpt lat="43.88315" lon="0.72542">
        <ele>194.32</ele>
        <time>2014-04-05T13:29:35Z</time>
      </trkpt>
      <trkpt lat="43.88303" lon="0.72553">
        <ele>192.88</ele>
        <time>2014-04-05T13:29:47Z</time>
      </trkpt>
      <trkpt lat="43.8829" lon="0.72565">
        <ele>192.88</ele>
        <time>2014-04-05T13:30:00Z</time>
      </trkpt>
      <trkpt lat="43.88273" lon="0.72571">
        <ele>191.92</ele>
        <time>2014-04-05T13:30:13Z</time>
      </trkpt>
      <trkpt lat="43.8826" lon="0.72572">
        <ele>191.92</ele>
        <time>2014-04-05T13:30:24Z</time>
      </trkpt>
      <trkpt lat="43.88243" lon="0.72572">
        <ele>190.96</ele>
        <time>2014-04-05T13:30:34Z</time>
      </trkpt>
      <trkpt lat="43.88234" lon="0.72573">
        <ele>190.96</ele>
        <time>2014-04-05T13:30:45Z</time>
      </trkpt>
      <trkpt lat="43.8823" lon="0.72573">
        <ele>190.96</ele>
        <time>2014-04-05T13:30:48Z</time>
      </trkpt>
      <trkpt lat="43.88215" lon="0.72578">
        <ele>191.44</ele>
        <time>2014-04-05T13:30:56Z</time>
      </trkpt>
      <trkpt lat="43.88203" lon="0.72585">
        <ele>188.08</ele>
        <time>2014-04-05T13:31:09Z</time>
      </trkpt>
      <trkpt lat="43.88193" lon="0.72598">
        <ele>182.79</ele>
        <time>2014-04-05T13:31:22Z</time>
      </trkpt>
      <trkpt lat="43.88185" lon="0.72607">
        <ele>182.79</ele>
        <time>2014-04-05T13:31:35Z</time>
      </trkpt>
      <trkpt lat="43.88175" lon="0.7262">
        <ele>183.27</ele>
        <time>2014-04-05T13:31:45Z</time>
      </trkpt>
      <trkpt lat="43.88164" lon="0.72634">
        <ele>180.38</ele>
        <time>2014-04-05T13:31:59Z</time>
      </trkpt>
      <trkpt lat="43.88153" lon="0.72649">
        <ele>180.38</ele>
        <time>2014-04-05T13:32:12Z</time>
      </trkpt>
      <trkpt lat="43.88137" lon="0.7267">
        <ele>179.42</ele>
        <time>2014-04-05T13:32:30Z</time>
      </trkpt>
      <trkpt lat="43.88123" lon="0.72688">
        <ele>176.06</ele>
        <time>2014-04-05T13:32:46Z</time>
      </trkpt>
      <trkpt lat="43.88116" lon="0.72697">
        <ele>172.21</ele>
        <time>2014-04-05T13:32:56Z</time>
      </trkpt>
      <trkpt lat="43.88103" lon="0.7271">
        <ele>170.77</ele>
        <time>2014-04-05T13:33:07Z</time>
      </trkpt>
      <trkpt lat="43.88097" lon="0.72713">
        <ele>170.29</ele>
        <time>2014-04-05T13:33:13Z</time>
      </trkpt>
      <trkpt lat="43.88081" lon="0.72731">
        <ele>171.25</ele>
        <time>2014-04-05T13:33:32Z</time>
      </trkpt>
      <trkpt lat="43.88066" lon="0.72754">
        <ele>172.21</ele>
        <time>2014-04-05T13:33:53Z</time>
      </trkpt>
      <trkpt lat="43.8805" lon="0.72777">
        <ele>170.77</ele>
        <time>2014-04-05T13:34:12Z</time>
      </trkpt>
      <trkpt lat="43.88049" lon="0.72779">
        <ele>170.77</ele>
        <time>2014-04-05T13:34:14Z</time>
      </trkpt>
      <trkpt lat="43.88035" lon="0.72798">
        <ele>168.85</ele>
        <time>2014-04-05T13:34:31Z</time>
      </trkpt>
      <trkpt lat="43.88018" lon="0.7282">
        <ele>166.93</ele>
        <time>2014-04-05T13:34:50Z</time>
      </trkpt>
      <trkpt lat="43.88006" lon="0.72842">
        <ele>165.96</ele>
        <time>2014-04-05T13:35:07Z</time>
      </trkpt>
      <trkpt lat="43.87996" lon="0.72856">
        <ele>165.48</ele>
        <time>2014-04-05T13:35:24Z</time>
      </trkpt>
      <trkpt lat="43.87996" lon="0.72855">
        <ele>165.48</ele>
        <time>2014-04-05T13:35:38Z</time>
      </trkpt>
      <trkpt lat="43.87998" lon="0.72854">
        <ele>165.48</ele>
        <time>2014-04-05T13:35:51Z</time>
      </trkpt>
      <trkpt lat="43.88005" lon="0.72855">
        <ele>165.48</ele>
        <time>2014-04-05T13:36:06Z</time>
      </trkpt>
      <trkpt lat="43.8802" lon="0.72853">
        <ele>165.48</ele>
        <time>2014-04-05T13:36:21Z</time>
      </trkpt>
      <trkpt lat="43.88039" lon="0.72852">
        <ele>165</ele>
        <time>2014-04-05T13:36:37Z</time>
      </trkpt>
      <trkpt lat="43.88055" lon="0.72851">
        <ele>165.48</ele>
        <time>2014-04-05T13:36:53Z</time>
      </trkpt>
      <trkpt lat="43.88071" lon="0.72847">
        <ele>166.93</ele>
        <time>2014-04-05T13:37:08Z</time>
      </trkpt>
      <trkpt lat="43.88087" lon="0.72847">
        <ele>170.77</ele>
        <time>2014-04-05T13:37:23Z</time>
      </trkpt>
      <trkpt lat="43.88098" lon="0.72846">
        <ele>170.29</ele>
        <time>2014-04-05T13:37:36Z</time>
      </trkpt>
      <trkpt lat="43.88124" lon="0.72853">
        <ele>167.89</ele>
        <time>2014-04-05T13:37:56Z</time>
      </trkpt>
      <trkpt lat="43.88138" lon="0.72865">
        <ele>168.85</ele>
        <time>2014-04-05T13:38:10Z</time>
      </trkpt>
      <trkpt lat="43.88152" lon="0.72874">
        <ele>166.93</ele>
        <time>2014-04-05T13:38:21Z</time>
      </trkpt>
      <trkpt lat="43.88156" lon="0.72876">
        <ele>165</ele>
        <time>2014-04-05T13:38:25Z</time>
      </trkpt>
      <trkpt lat="43.88161" lon="0.72881">
        <ele>164.04</ele>
        <time>2014-04-05T13:38:29Z</time>
      </trkpt>
      <trkpt lat="43.88171" lon="0.72891">
        <ele>162.6</ele>
        <time>2014-04-05T13:38:39Z</time>
      </trkpt>
      <trkpt lat="43.88174" lon="0.72897">
        <ele>162.12</ele>
        <time>2014-04-05T13:38:43Z</time>
      </trkpt>
      <trkpt lat="43.88175" lon="0.72903">
        <ele>162.12</ele>
        <time>2014-04-05T13:38:48Z</time>
      </trkpt>
      <trkpt lat="43.88171" lon="0.72922">
        <ele>165.48</ele>
        <time>2014-04-05T13:39:03Z</time>
      </trkpt>
      <trkpt lat="43.88171" lon="0.72932">
        <ele>166.45</ele>
        <time>2014-04-05T13:39:10Z</time>
      </trkpt>
      <trkpt lat="43.88172" lon="0.72935">
        <ele>166.93</ele>
        <time>2014-04-05T13:39:12Z</time>
      </trkpt>
      <trkpt lat="43.88182" lon="0.72938">
        <ele>165.96</ele>
        <time>2014-04-05T13:39:25Z</time>
      </trkpt>
      <trkpt lat="43.8818" lon="0.72939">
        <ele>165.48</ele>
        <time>2014-04-05T13:39:49Z</time>
      </trkpt>
      <trkpt lat="43.88178" lon="0.72943">
        <ele>166.45</ele>
        <time>2014-04-05T13:39:57Z</time>
      </trkpt>
      <trkpt lat="43.88177" lon="0.7294">
        <ele>165.96</ele>
        <time>2014-04-05T13:40:00Z</time>
      </trkpt>
      <trkpt lat="43.88175" lon="0.72936">
        <ele>165</ele>
        <time>2014-04-05T13:40:12Z</time>
      </trkpt>
      <trkpt lat="43.88175" lon="0.72936">
        <ele>167.41</ele>
        <time>2014-04-05T13:40:28Z</time>
      </trkpt>
      <trkpt lat="43.88172" lon="0.72936">
        <ele>166.93</ele>
        <time>2014-04-05T13:40:47Z</time>
      </trkpt>
      <trkpt lat="43.88171" lon="0.72937">
        <ele>166.93</ele>
        <time>2014-04-05T13:40:59Z</time>
      </trkpt>
      <trkpt lat="43.88172" lon="0.72936">
        <ele>165.48</ele>
        <time>2014-04-05T13:41:19Z</time>
      </trkpt>
      <trkpt lat="43.88171" lon="0.72939">
        <ele>165</ele>
        <time>2014-04-05T13:41:39Z</time>
      </trkpt>
      <trkpt lat="43.88172" lon="0.72939">
        <ele>163.08</ele>
        <time>2014-04-05T13:42:02Z</time>
      </trkpt>
      <trkpt lat="43.88173" lon="0.7294">
        <ele>163.56</ele>
        <time>2014-04-05T13:42:23Z</time>
      </trkpt>
      <trkpt lat="43.88173" lon="0.72939">
        <ele>164.04</ele>
        <time>2014-04-05T13:42:52Z</time>
      </trkpt>
      <trkpt lat="43.88173" lon="0.72937">
        <ele>163.56</ele>
        <time>2014-04-05T13:43:24Z</time>
      </trkpt>
      <trkpt lat="43.88174" lon="0.72938">
        <ele>161.64</ele>
        <time>2014-04-05T13:43:47Z</time>
      </trkpt>
      <trkpt lat="43.88172" lon="0.72938">
        <ele>162.6</ele>
        <time>2014-04-05T13:43:58Z</time>
      </trkpt>
      <trkpt lat="43.88171" lon="0.72936">
        <ele>162.6</ele>
        <time>2014-04-05T13:44:13Z</time>
      </trkpt>
      <trkpt lat="43.88174" lon="0.72936">
        <ele>163.56</ele>
        <time>2014-04-05T13:44:25Z</time>
      </trkpt>
      <trkpt lat="43.8818" lon="0.7294">
        <ele>163.56</ele>
        <time>2014-04-05T13:44:31Z</time>
      </trkpt>
      <trkpt lat="43.88187" lon="0.72944">
        <ele>163.56</ele>
        <time>2014-04-05T13:44:39Z</time>
      </trkpt>
      <trkpt lat="43.88194" lon="0.72953">
        <ele>165</ele>
        <time>2014-04-05T13:44:47Z</time>
      </trkpt>
      <trkpt lat="43.882" lon="0.7296">
        <ele>165.48</ele>
        <time>2014-04-05T13:44:52Z</time>
      </trkpt>
      <trkpt lat="43.88215" lon="0.72973">
        <ele>163.08</ele>
        <time>2014-04-05T13:45:07Z</time>
      </trkpt>
      <trkpt lat="43.88236" lon="0.72997">
        <ele>162.12</ele>
        <time>2014-04-05T13:45:28Z</time>
      </trkpt>
      <trkpt lat="43.88252" lon="0.73018">
        <ele>161.16</ele>
        <time>2014-04-05T13:45:47Z</time>
      </trkpt>
      <trkpt lat="43.88267" lon="0.73049">
        <ele>161.16</ele>
        <time>2014-04-05T13:46:08Z</time>
      </trkpt>
      <trkpt lat="43.8827" lon="0.73074">
        <ele>160.2</ele>
        <time>2014-04-05T13:46:24Z</time>
      </trkpt>
      <trkpt lat="43.88273" lon="0.73098">
        <ele>163.08</ele>
        <time>2014-04-05T13:46:40Z</time>
      </trkpt>
      <trkpt lat="43.88274" lon="0.73116">
        <ele>164.52</ele>
        <time>2014-04-05T13:46:51Z</time>
      </trkpt>
      <trkpt lat="43.88273" lon="0.7312">
        <ele>165</ele>
        <time>2014-04-05T13:46:54Z</time>
      </trkpt>
      <trkpt lat="43.88273" lon="0.73133">
        <ele>165.96</ele>
        <time>2014-04-05T13:47:01Z</time>
      </trkpt>
      <trkpt lat="43.88272" lon="0.73158">
        <ele>166.93</ele>
        <time>2014-04-05T13:47:17Z</time>
      </trkpt>
      <trkpt lat="43.88271" lon="0.73165">
        <ele>168.37</ele>
        <time>2014-04-05T13:47:26Z</time>
      </trkpt>
      <trkpt lat="43.88274" lon="0.73132">
        <ele>164.52</ele>
        <time>2014-04-05T13:47:42Z</time>
      </trkpt>
      <trkpt lat="43.88278" lon="0.73125">
        <ele>161.64</ele>
        <time>2014-04-05T13:47:54Z</time>
      </trkpt>
      <trkpt lat="43.88279" lon="0.73124">
        <ele>162.12</ele>
        <time>2014-04-05T13:47:56Z</time>
      </trkpt>
      <trkpt lat="43.88302" lon="0.73108">
        <ele>165.96</ele>
        <time>2014-04-05T13:48:12Z</time>
      </trkpt>
      <trkpt lat="43.88318" lon="0.73102">
        <ele>167.41</ele>
        <time>2014-04-05T13:48:25Z</time>
      </trkpt>
      <trkpt lat="43.8833" lon="0.73098">
        <ele>167.89</ele>
        <time>2014-04-05T13:48:38Z</time>
      </trkpt>
      <trkpt lat="43.88343" lon="0.73097">
        <ele>168.37</ele>
        <time>2014-04-05T13:48:49Z</time>
      </trkpt>
      <trkpt lat="43.88364" lon="0.73099">
        <ele>166.93</ele>
        <time>2014-04-05T13:49:02Z</time>
      </trkpt>
      <trkpt lat="43.88379" lon="0.73114">
        <ele>164.04</ele>
        <time>2014-04-05T13:49:19Z</time>
      </trkpt>
      <trkpt lat="43.88396" lon="0.73129">
        <ele>162.6</ele>
        <time>2014-04-05T13:49:36Z</time>
      </trkpt>
      <trkpt lat="43.88416" lon="0.73151">
        <ele>164.04</ele>
        <time>2014-04-05T13:49:51Z</time>
      </trkpt>
      <trkpt lat="43.88419" lon="0.73152">
        <ele>164.52</ele>
        <time>2014-04-05T13:50:04Z</time>
      </trkpt>
      <trkpt lat="43.88427" lon="0.73157">
        <ele>160.2</ele>
        <time>2014-04-05T13:50:16Z</time>
      </trkpt>
      <trkpt lat="43.88446" lon="0.73168">
        <ele>159.24</ele>
        <time>2014-04-05T13:50:30Z</time>
      </trkpt>
      <trkpt lat="43.88463" lon="0.73187">
        <ele>157.79</ele>
        <time>2014-04-05T13:50:47Z</time>
      </trkpt>
      <trkpt lat="43.88481" lon="0.73205">
        <ele>157.79</ele>
        <time>2014-04-05T13:51:03Z</time>
      </trkpt>
      <trkpt lat="43.88501" lon="0.73223">
        <ele>158.75</ele>
        <time>2014-04-05T13:51:21Z</time>
      </trkpt>
      <trkpt lat="43.88519" lon="0.73238">
        <ele>160.2</ele>
        <time>2014-04-05T13:51:36Z</time>
      </trkpt>
      <trkpt lat="43.88524" lon="0.73246">
        <ele>158.27</ele>
        <time>2014-04-05T13:51:44Z</time>
      </trkpt>
      <trkpt lat="43.88528" lon="0.73252">
        <ele>156.83</ele>
        <time>2014-04-05T13:51:50Z</time>
      </trkpt>
      <trkpt lat="43.88547" lon="0.73267">
        <ele>158.27</ele>
        <time>2014-04-05T13:52:04Z</time>
      </trkpt>
      <trkpt lat="43.88554" lon="0.7327">
        <ele>157.79</ele>
        <time>2014-04-05T13:52:15Z</time>
      </trkpt>
      <trkpt lat="43.8857" lon="0.73274">
        <ele>160.2</ele>
        <time>2014-04-05T13:52:28Z</time>
      </trkpt>
      <trkpt lat="43.88582" lon="0.7328">
        <ele>160.68</ele>
        <time>2014-04-05T13:52:39Z</time>
      </trkpt>
      <trkpt lat="43.88593" lon="0.7328">
        <ele>160.68</ele>
        <time>2014-04-05T13:52:51Z</time>
      </trkpt>
      <trkpt lat="43.88608" lon="0.73281">
        <ele>160.2</ele>
        <time>2014-04-05T13:53:04Z</time>
      </trkpt>
      <trkpt lat="43.88625" lon="0.73283">
        <ele>159.72</ele>
        <time>2014-04-05T13:53:17Z</time>
      </trkpt>
      <trkpt lat="43.88631" lon="0.73285">
        <ele>161.64</ele>
        <time>2014-04-05T13:53:27Z</time>
      </trkpt>
      <trkpt lat="43.88641" lon="0.73288">
        <ele>163.08</ele>
        <time>2014-04-05T13:53:36Z</time>
      </trkpt>
      <trkpt lat="43.88655" lon="0.73294">
        <ele>162.6</ele>
        <time>2014-04-05T13:53:49Z</time>
      </trkpt>
      <trkpt lat="43.88656" lon="0.73294">
        <ele>162.6</ele>
        <time>2014-04-05T13:53:50Z</time>
      </trkpt>
      <trkpt lat="43.88667" lon="0.73301">
        <ele>162.12</ele>
        <time>2014-04-05T13:54:02Z</time>
      </trkpt>
      <trkpt lat="43.88682" lon="0.73307">
        <ele>160.68</ele>
        <time>2014-04-05T13:54:13Z</time>
      </trkpt>
      <trkpt lat="43.88689" lon="0.73318">
        <ele>160.68</ele>
        <time>2014-04-05T13:54:24Z</time>
      </trkpt>
      <trkpt lat="43.88693" lon="0.73331">
        <ele>163.08</ele>
        <time>2014-04-05T13:54:35Z</time>
      </trkpt>
      <trkpt lat="43.88694" lon="0.73346">
        <ele>164.52</ele>
        <time>2014-04-05T13:54:46Z</time>
      </trkpt>
      <trkpt lat="43.88691" lon="0.73371">
        <ele>165.96</ele>
        <time>2014-04-05T13:54:57Z</time>
      </trkpt>
      <trkpt lat="43.88689" lon="0.73393">
        <ele>165.96</ele>
        <time>2014-04-05T13:55:10Z</time>
      </trkpt>
      <trkpt lat="43.88689" lon="0.7341">
        <ele>165.48</ele>
        <time>2014-04-05T13:55:22Z</time>
      </trkpt>
      <trkpt lat="43.88691" lon="0.73429">
        <ele>166.93</ele>
        <time>2014-04-05T13:55:35Z</time>
      </trkpt>
      <trkpt lat="43.88692" lon="0.73449">
        <ele>167.89</ele>
        <time>2014-04-05T13:55:47Z</time>
      </trkpt>
      <trkpt lat="43.88695" lon="0.73475">
        <ele>168.85</ele>
        <time>2014-04-05T13:56:00Z</time>
      </trkpt>
      <trkpt lat="43.88698" lon="0.73488">
        <ele>167.41</ele>
        <time>2014-04-05T13:56:12Z</time>
      </trkpt>
      <trkpt lat="43.88702" lon="0.73512">
        <ele>166.93</ele>
        <time>2014-04-05T13:56:24Z</time>
      </trkpt>
      <trkpt lat="43.88703" lon="0.73517">
        <ele>166.45</ele>
        <time>2014-04-05T13:56:30Z</time>
      </trkpt>
      <trkpt lat="43.88704" lon="0.73521">
        <ele>165.96</ele>
        <time>2014-04-05T13:56:32Z</time>
      </trkpt>
      <trkpt lat="43.8871" lon="0.73551">
        <ele>166.93</ele>
        <time>2014-04-05T13:56:46Z</time>
      </trkpt>
      <trkpt lat="43.88713" lon="0.73566">
        <ele>164.04</ele>
        <time>2014-04-05T13:56:59Z</time>
      </trkpt>
      <trkpt lat="43.88718" lon="0.73593">
        <ele>161.64</ele>
        <time>2014-04-05T13:57:11Z</time>
      </trkpt>
      <trkpt lat="43.88719" lon="0.73604">
        <ele>161.64</ele>
        <time>2014-04-05T13:57:18Z</time>
      </trkpt>
      <trkpt lat="43.88727" lon="0.73638">
        <ele>163.08</ele>
        <time>2014-04-05T13:57:40Z</time>
      </trkpt>
      <trkpt lat="43.88733" lon="0.73673">
        <ele>162.6</ele>
        <time>2014-04-05T13:58:00Z</time>
      </trkpt>
      <trkpt lat="43.88737" lon="0.73685">
        <ele>162.12</ele>
        <time>2014-04-05T13:58:08Z</time>
      </trkpt>
      <trkpt lat="43.88739" lon="0.73687">
        <ele>162.12</ele>
        <time>2014-04-05T13:58:11Z</time>
      </trkpt>
      <trkpt lat="43.88751" lon="0.73695">
        <ele>161.64</ele>
        <time>2014-04-05T13:58:26Z</time>
      </trkpt>
      <trkpt lat="43.88766" lon="0.73704">
        <ele>161.16</ele>
        <time>2014-04-05T13:58:39Z</time>
      </trkpt>
      <trkpt lat="43.8877" lon="0.73709">
        <ele>161.16</ele>
        <time>2014-04-05T13:58:43Z</time>
      </trkpt>
      <trkpt lat="43.88779" lon="0.73738">
        <ele>161.16</ele>
        <time>2014-04-05T13:59:02Z</time>
      </trkpt>
      <trkpt lat="43.88778" lon="0.73764">
        <ele>162.6</ele>
        <time>2014-04-05T13:59:16Z</time>
      </trkpt>
      <trkpt lat="43.88776" lon="0.73778">
        <ele>161.64</ele>
        <time>2014-04-05T13:59:30Z</time>
      </trkpt>
      <trkpt lat="43.8878" lon="0.7379">
        <ele>165</ele>
        <time>2014-04-05T13:59:41Z</time>
      </trkpt>
      <trkpt lat="43.88784" lon="0.73793">
        <ele>165.96</ele>
        <time>2014-04-05T13:59:49Z</time>
      </trkpt>
      <trkpt lat="43.88795" lon="0.73794">
        <ele>165.48</ele>
        <time>2014-04-05T13:59:56Z</time>
      </trkpt>
      <trkpt lat="43.88807" lon="0.73799">
        <ele>162.12</ele>
        <time>2014-04-05T14:00:08Z</time>
      </trkpt>
      <trkpt lat="43.88823" lon="0.73805">
        <ele>157.79</ele>
        <time>2014-04-05T14:00:20Z</time>
      </trkpt>
      <trkpt lat="43.88825" lon="0.73808">
        <ele>154.91</ele>
        <time>2014-04-05T14:00:34Z</time>
      </trkpt>
      <trkpt lat="43.8883" lon="0.73812">
        <ele>153.47</ele>
        <time>2014-04-05T14:00:44Z</time>
      </trkpt>
      <trkpt lat="43.88831" lon="0.73811">
        <ele>152.99</ele>
        <time>2014-04-05T14:01:05Z</time>
      </trkpt>
      <trkpt lat="43.88845" lon="0.73828">
        <ele>153.47</ele>
        <time>2014-04-05T14:01:17Z</time>
      </trkpt>
      <trkpt lat="43.8886" lon="0.73852">
        <ele>156.35</ele>
        <time>2014-04-05T14:01:29Z</time>
      </trkpt>
      <trkpt lat="43.88868" lon="0.73876">
        <ele>148.18</ele>
        <time>2014-04-05T14:01:43Z</time>
      </trkpt>
      <trkpt lat="43.88865" lon="0.7388">
        <ele>143.37</ele>
        <time>2014-04-05T14:01:58Z</time>
      </trkpt>
      <trkpt lat="43.88869" lon="0.73889">
        <ele>142.41</ele>
        <time>2014-04-05T14:02:07Z</time>
      </trkpt>
      <trkpt lat="43.88875" lon="0.73909">
        <ele>140.01</ele>
        <time>2014-04-05T14:02:18Z</time>
      </trkpt>
      <trkpt lat="43.88886" lon="0.7393">
        <ele>138.09</ele>
        <time>2014-04-05T14:02:31Z</time>
      </trkpt>
      <trkpt lat="43.88909" lon="0.73918">
        <ele>140.49</ele>
        <time>2014-04-05T14:02:46Z</time>
      </trkpt>
      <trkpt lat="43.88923" lon="0.73902">
        <ele>142.89</ele>
        <time>2014-04-05T14:03:02Z</time>
      </trkpt>
      <trkpt lat="43.88942" lon="0.73882">
        <ele>143.85</ele>
        <time>2014-04-05T14:03:20Z</time>
      </trkpt>
      <trkpt lat="43.88967" lon="0.73856">
        <ele>143.37</ele>
        <time>2014-04-05T14:03:42Z</time>
      </trkpt>
      <trkpt lat="43.88989" lon="0.73831">
        <ele>142.41</ele>
        <time>2014-04-05T14:04:05Z</time>
      </trkpt>
      <trkpt lat="43.89005" lon="0.73809">
        <ele>140.49</ele>
        <time>2014-04-05T14:04:23Z</time>
      </trkpt>
      <trkpt lat="43.89029" lon="0.73781">
        <ele>138.09</ele>
        <time>2014-04-05T14:04:46Z</time>
      </trkpt>
      <trkpt lat="43.89058" lon="0.73752">
        <ele>139.53</ele>
        <time>2014-04-05T14:05:10Z</time>
      </trkpt>
      <trkpt lat="43.8908" lon="0.73733">
        <ele>142.89</ele>
        <time>2014-04-05T14:05:29Z</time>
      </trkpt>
      <trkpt lat="43.89089" lon="0.73726">
        <ele>143.37</ele>
        <time>2014-04-05T14:05:37Z</time>
      </trkpt>
      <trkpt lat="43.89098" lon="0.73716">
        <ele>138.57</ele>
        <time>2014-04-05T14:05:48Z</time>
      </trkpt>
      <trkpt lat="43.89101" lon="0.73715">
        <ele>139.05</ele>
        <time>2014-04-05T14:05:50Z</time>
      </trkpt>
      <trkpt lat="43.89113" lon="0.73689">
        <ele>138.57</ele>
        <time>2014-04-05T14:06:03Z</time>
      </trkpt>
      <trkpt lat="43.89124" lon="0.73675">
        <ele>137.61</ele>
        <time>2014-04-05T14:06:17Z</time>
      </trkpt>
      <trkpt lat="43.89131" lon="0.73671">
        <ele>138.57</ele>
        <time>2014-04-05T14:06:26Z</time>
      </trkpt>
      <trkpt lat="43.89153" lon="0.73659">
        <ele>140.49</ele>
        <time>2014-04-05T14:06:40Z</time>
      </trkpt>
      <trkpt lat="43.89171" lon="0.73644">
        <ele>142.41</ele>
        <time>2014-04-05T14:06:54Z</time>
      </trkpt>
      <trkpt lat="43.89176" lon="0.73636">
        <ele>140.97</ele>
        <time>2014-04-05T14:07:08Z</time>
      </trkpt>
      <trkpt lat="43.89178" lon="0.73635">
        <ele>140.49</ele>
        <time>2014-04-05T14:07:09Z</time>
      </trkpt>
      <trkpt lat="43.89186" lon="0.73638">
        <ele>140.49</ele>
        <time>2014-04-05T14:07:14Z</time>
      </trkpt>
      <trkpt lat="43.89188" lon="0.73635">
        <ele>139.53</ele>
        <time>2014-04-05T14:07:27Z</time>
      </trkpt>
      <trkpt lat="43.8919" lon="0.73641">
        <ele>139.53</ele>
        <time>2014-04-05T14:07:34Z</time>
      </trkpt>
      <trkpt lat="43.89185" lon="0.73669">
        <ele>143.85</ele>
        <time>2014-04-05T14:07:47Z</time>
      </trkpt>
      <trkpt lat="43.89186" lon="0.73687">
        <ele>145.3</ele>
        <time>2014-04-05T14:08:02Z</time>
      </trkpt>
      <trkpt lat="43.89187" lon="0.73719">
        <ele>145.78</ele>
        <time>2014-04-05T14:08:15Z</time>
      </trkpt>
      <trkpt lat="43.89189" lon="0.73746">
        <ele>141.45</ele>
        <time>2014-04-05T14:08:31Z</time>
      </trkpt>
      <trkpt lat="43.89186" lon="0.73764">
        <ele>142.41</ele>
        <time>2014-04-05T14:08:44Z</time>
      </trkpt>
      <trkpt lat="43.8919" lon="0.73774">
        <ele>143.37</ele>
        <time>2014-04-05T14:08:53Z</time>
      </trkpt>
      <trkpt lat="43.89192" lon="0.73784">
        <ele>142.89</ele>
        <time>2014-04-05T14:08:57Z</time>
      </trkpt>
      <trkpt lat="43.89196" lon="0.73813">
        <ele>144.82</ele>
        <time>2014-04-05T14:09:12Z</time>
      </trkpt>
      <trkpt lat="43.892" lon="0.73832">
        <ele>143.37</ele>
        <time>2014-04-05T14:09:27Z</time>
      </trkpt>
      <trkpt lat="43.89206" lon="0.73869">
        <ele>144.34</ele>
        <time>2014-04-05T14:09:41Z</time>
      </trkpt>
      <trkpt lat="43.89209" lon="0.73892">
        <ele>144.82</ele>
        <time>2014-04-05T14:09:54Z</time>
      </trkpt>
      <trkpt lat="43.89212" lon="0.73912">
        <ele>142.89</ele>
        <time>2014-04-05T14:10:06Z</time>
      </trkpt>
      <trkpt lat="43.89213" lon="0.73943">
        <ele>146.26</ele>
        <time>2014-04-05T14:10:19Z</time>
      </trkpt>
      <trkpt lat="43.89214" lon="0.73949">
        <ele>144.34</ele>
        <time>2014-04-05T14:10:26Z</time>
      </trkpt>
      <trkpt lat="43.89216" lon="0.73959">
        <ele>142.89</ele>
        <time>2014-04-05T14:10:31Z</time>
      </trkpt>
      <trkpt lat="43.89221" lon="0.73998">
        <ele>147.7</ele>
        <time>2014-04-05T14:10:46Z</time>
      </trkpt>
      <trkpt lat="43.89221" lon="0.74016">
        <ele>147.7</ele>
        <time>2014-04-05T14:11:02Z</time>
      </trkpt>
      <trkpt lat="43.89221" lon="0.74016">
        <ele>147.22</ele>
        <time>2014-04-05T14:11:03Z</time>
      </trkpt>
      <trkpt lat="43.89224" lon="0.74021">
        <ele>146.74</ele>
        <time>2014-04-05T14:11:06Z</time>
      </trkpt>
      <trkpt lat="43.89227" lon="0.74034">
        <ele>146.74</ele>
        <time>2014-04-05T14:11:17Z</time>
      </trkpt>
      <trkpt lat="43.8922" lon="0.74038">
        <ele>147.22</ele>
        <time>2014-04-05T14:11:31Z</time>
      </trkpt>
      <trkpt lat="43.89221" lon="0.74038">
        <ele>146.26</ele>
        <time>2014-04-05T14:11:42Z</time>
      </trkpt>
      <trkpt lat="43.8922" lon="0.74038">
        <ele>145.3</ele>
        <time>2014-04-05T14:12:05Z</time>
      </trkpt>
      <trkpt lat="43.89223" lon="0.74032">
        <ele>143.85</ele>
        <time>2014-04-05T14:12:29Z</time>
      </trkpt>
      <trkpt lat="43.89224" lon="0.74035">
        <ele>143.37</ele>
        <time>2014-04-05T14:12:57Z</time>
      </trkpt>
      <trkpt lat="43.89224" lon="0.74035">
        <ele>144.82</ele>
        <time>2014-04-05T14:13:21Z</time>
      </trkpt>
      <trkpt lat="43.89214" lon="0.74028">
        <ele>145.3</ele>
        <time>2014-04-05T14:13:35Z</time>
      </trkpt>
      <trkpt lat="43.8921" lon="0.74026">
        <ele>145.3</ele>
        <time>2014-04-05T14:13:51Z</time>
      </trkpt>
      <trkpt lat="43.89205" lon="0.74022">
        <ele>146.74</ele>
        <time>2014-04-05T14:13:56Z</time>
      </trkpt>
      <trkpt lat="43.8919" lon="0.74027">
        <ele>149.14</ele>
        <time>2014-04-05T14:14:09Z</time>
      </trkpt>
      <trkpt lat="43.89183" lon="0.74033">
        <ele>149.14</ele>
        <time>2014-04-05T14:14:19Z</time>
      </trkpt>
      <trkpt lat="43.89182" lon="0.74035">
        <ele>147.22</ele>
        <time>2014-04-05T14:14:31Z</time>
      </trkpt>
      <trkpt lat="43.89171" lon="0.74044">
        <ele>148.66</ele>
        <time>2014-04-05T14:14:46Z</time>
      </trkpt>
      <trkpt lat="43.89155" lon="0.74056">
        <ele>147.22</ele>
        <time>2014-04-05T14:15:03Z</time>
      </trkpt>
      <trkpt lat="43.89146" lon="0.74063">
        <ele>147.7</ele>
        <time>2014-04-05T14:15:14Z</time>
      </trkpt>
      <trkpt lat="43.89141" lon="0.74065">
        <ele>145.3</ele>
        <time>2014-04-05T14:15:28Z</time>
      </trkpt>
      <trkpt lat="43.89144" lon="0.7406">
        <ele>146.26</ele>
        <time>2014-04-05T14:15:42Z</time>
      </trkpt>
      <trkpt lat="43.8915" lon="0.74054">
        <ele>147.7</ele>
        <time>2014-04-05T14:15:52Z</time>
      </trkpt>
      <trkpt lat="43.89158" lon="0.74048">
        <ele>147.22</ele>
        <time>2014-04-05T14:16:07Z</time>
      </trkpt>
      <trkpt lat="43.89154" lon="0.74051">
        <ele>147.22</ele>
        <time>2014-04-05T14:16:16Z</time>
      </trkpt>
      <trkpt lat="43.89145" lon="0.74057">
        <ele>147.7</ele>
        <time>2014-04-05T14:16:30Z</time>
      </trkpt>
      <trkpt lat="43.89137" lon="0.74062">
        <ele>144.82</ele>
        <time>2014-04-05T14:16:44Z</time>
      </trkpt>
      <trkpt lat="43.89143" lon="0.74062">
        <ele>146.74</ele>
        <time>2014-04-05T14:17:02Z</time>
      </trkpt>
      <trkpt lat="43.89152" lon="0.74053">
        <ele>145.78</ele>
        <time>2014-04-05T14:17:17Z</time>
      </trkpt>
      <trkpt lat="43.89156" lon="0.7405">
        <ele>145.78</ele>
        <time>2014-04-05T14:17:32Z</time>
      </trkpt>
      <trkpt lat="43.89159" lon="0.74051">
        <ele>144.82</ele>
        <time>2014-04-05T14:17:49Z</time>
      </trkpt>
      <trkpt lat="43.89162" lon="0.74048">
        <ele>144.82</ele>
        <time>2014-04-05T14:17:56Z</time>
      </trkpt>
      <trkpt lat="43.89163" lon="0.74046">
        <ele>145.3</ele>
        <time>2014-04-05T14:17:58Z</time>
      </trkpt>
      <trkpt lat="43.89167" lon="0.74044">
        <ele>146.26</ele>
        <time>2014-04-05T14:18:02Z</time>
      </trkpt>
      <trkpt lat="43.89184" lon="0.74034">
        <ele>147.7</ele>
        <time>2014-04-05T14:18:21Z</time>
      </trkpt>
      <trkpt lat="43.89187" lon="0.74037">
        <ele>148.66</ele>
        <time>2014-04-05T14:18:33Z</time>
      </trkpt>
      <trkpt lat="43.8918" lon="0.74046">
        <ele>149.14</ele>
        <time>2014-04-05T14:18:47Z</time>
      </trkpt>
      <trkpt lat="43.89168" lon="0.7405">
        <ele>147.22</ele>
        <time>2014-04-05T14:19:00Z</time>
      </trkpt>
      <trkpt lat="43.89161" lon="0.74063">
        <ele>146.26</ele>
        <time>2014-04-05T14:19:11Z</time>
      </trkpt>
      <trkpt lat="43.89164" lon="0.74066">
        <ele>147.7</ele>
        <time>2014-04-05T14:19:25Z</time>
      </trkpt>
      <trkpt lat="43.89171" lon="0.74071">
        <ele>150.58</ele>
        <time>2014-04-05T14:19:40Z</time>
      </trkpt>
      <trkpt lat="43.89179" lon="0.74072">
        <ele>153.95</ele>
        <time>2014-04-05T14:19:54Z</time>
      </trkpt>
      <trkpt lat="43.8918" lon="0.7408">
        <ele>153.95</ele>
        <time>2014-04-05T14:20:07Z</time>
      </trkpt>
      <trkpt lat="43.89185" lon="0.74093">
        <ele>155.87</ele>
        <time>2014-04-05T14:20:22Z</time>
      </trkpt>
      <trkpt lat="43.89184" lon="0.74104">
        <ele>158.27</ele>
        <time>2014-04-05T14:20:35Z</time>
      </trkpt>
      <trkpt lat="43.89181" lon="0.74111">
        <ele>161.64</ele>
        <time>2014-04-05T14:20:49Z</time>
      </trkpt>
      <trkpt lat="43.89177" lon="0.74112">
        <ele>165.48</ele>
        <time>2014-04-05T14:21:06Z</time>
      </trkpt>
      <trkpt lat="43.89172" lon="0.7412">
        <ele>166.93</ele>
        <time>2014-04-05T14:21:18Z</time>
      </trkpt>
      <trkpt lat="43.89166" lon="0.74135">
        <ele>169.33</ele>
        <time>2014-04-05T14:21:31Z</time>
      </trkpt>
      <trkpt lat="43.89162" lon="0.74144">
        <ele>169.81</ele>
        <time>2014-04-05T14:21:41Z</time>
      </trkpt>
      <trkpt lat="43.89157" lon="0.74158">
        <ele>171.25</ele>
        <time>2014-04-05T14:21:51Z</time>
      </trkpt>
      <trkpt lat="43.89158" lon="0.74162">
        <ele>171.73</ele>
        <time>2014-04-05T14:21:55Z</time>
      </trkpt>
      <trkpt lat="43.89154" lon="0.74175">
        <ele>171.25</ele>
        <time>2014-04-05T14:22:05Z</time>
      </trkpt>
      <trkpt lat="43.89154" lon="0.74179">
        <ele>171.25</ele>
        <time>2014-04-05T14:22:08Z</time>
      </trkpt>
      <trkpt lat="43.89153" lon="0.74188">
        <ele>170.77</ele>
        <time>2014-04-05T14:22:12Z</time>
      </trkpt>
      <trkpt lat="43.89154" lon="0.74205">
        <ele>169.33</ele>
        <time>2014-04-05T14:22:25Z</time>
      </trkpt>
      <trkpt lat="43.89154" lon="0.74206">
        <ele>169.33</ele>
        <time>2014-04-05T14:22:26Z</time>
      </trkpt>
      <trkpt lat="43.89154" lon="0.74219">
        <ele>168.85</ele>
        <time>2014-04-05T14:22:32Z</time>
      </trkpt>
      <trkpt lat="43.89153" lon="0.74241">
        <ele>168.37</ele>
        <time>2014-04-05T14:22:47Z</time>
      </trkpt>
      <trkpt lat="43.89152" lon="0.74263">
        <ele>168.37</ele>
        <time>2014-04-05T14:22:57Z</time>
      </trkpt>
      <trkpt lat="43.89153" lon="0.74288">
        <ele>165.96</ele>
        <time>2014-04-05T14:23:14Z</time>
      </trkpt>
      <trkpt lat="43.89153" lon="0.74295">
        <ele>165.96</ele>
        <time>2014-04-05T14:23:18Z</time>
      </trkpt>
      <trkpt lat="43.89151" lon="0.74304">
        <ele>167.41</ele>
        <time>2014-04-05T14:23:27Z</time>
      </trkpt>
      <trkpt lat="43.89149" lon="0.74322">
        <ele>168.85</ele>
        <time>2014-04-05T14:23:39Z</time>
      </trkpt>
      <trkpt lat="43.89147" lon="0.74336">
        <ele>171.25</ele>
        <time>2014-04-05T14:23:49Z</time>
      </trkpt>
      <trkpt lat="43.89146" lon="0.74349">
        <ele>172.69</ele>
        <time>2014-04-05T14:23:59Z</time>
      </trkpt>
      <trkpt lat="43.89145" lon="0.74365">
        <ele>172.21</ele>
        <time>2014-04-05T14:24:09Z</time>
      </trkpt>
      <trkpt lat="43.8914" lon="0.74381">
        <ele>172.21</ele>
        <time>2014-04-05T14:24:19Z</time>
      </trkpt>
      <trkpt lat="43.89141" lon="0.74385">
        <ele>171.73</ele>
        <time>2014-04-05T14:24:23Z</time>
      </trkpt>
      <trkpt lat="43.89138" lon="0.74402">
        <ele>172.21</ele>
        <time>2014-04-05T14:24:36Z</time>
      </trkpt>
      <trkpt lat="43.89138" lon="0.74422">
        <ele>173.66</ele>
        <time>2014-04-05T14:24:48Z</time>
      </trkpt>
      <trkpt lat="43.89133" lon="0.74441">
        <ele>174.14</ele>
        <time>2014-04-05T14:25:01Z</time>
      </trkpt>
      <trkpt lat="43.89134" lon="0.74445">
        <ele>174.14</ele>
        <time>2014-04-05T14:25:06Z</time>
      </trkpt>
      <trkpt lat="43.89132" lon="0.74458">
        <ele>175.58</ele>
        <time>2014-04-05T14:25:14Z</time>
      </trkpt>
      <trkpt lat="43.89134" lon="0.74472">
        <ele>174.62</ele>
        <time>2014-04-05T14:25:23Z</time>
      </trkpt>
      <trkpt lat="43.89133" lon="0.7449">
        <ele>174.14</ele>
        <time>2014-04-05T14:25:33Z</time>
      </trkpt>
      <trkpt lat="43.89132" lon="0.74507">
        <ele>174.14</ele>
        <time>2014-04-05T14:25:44Z</time>
      </trkpt>
      <trkpt lat="43.89133" lon="0.74527">
        <ele>173.17</ele>
        <time>2014-04-05T14:25:55Z</time>
      </trkpt>
      <trkpt lat="43.89134" lon="0.74553">
        <ele>172.21</ele>
        <time>2014-04-05T14:26:08Z</time>
      </trkpt>
      <trkpt lat="43.89133" lon="0.74564">
        <ele>172.69</ele>
        <time>2014-04-05T14:26:14Z</time>
      </trkpt>
      <trkpt lat="43.89132" lon="0.7457">
        <ele>172.69</ele>
        <time>2014-04-05T14:26:18Z</time>
      </trkpt>
      <trkpt lat="43.89134" lon="0.74578">
        <ele>173.66</ele>
        <time>2014-04-05T14:26:26Z</time>
      </trkpt>
      <trkpt lat="43.89134" lon="0.74592">
        <ele>174.62</ele>
        <time>2014-04-05T14:26:31Z</time>
      </trkpt>
      <trkpt lat="43.89131" lon="0.74603">
        <ele>174.62</ele>
        <time>2014-04-05T14:26:42Z</time>
      </trkpt>
      <trkpt lat="43.89129" lon="0.74611">
        <ele>175.58</ele>
        <time>2014-04-05T14:26:46Z</time>
      </trkpt>
      <trkpt lat="43.89128" lon="0.74622">
        <ele>176.54</ele>
        <time>2014-04-05T14:26:50Z</time>
      </trkpt>
      <trkpt lat="43.89126" lon="0.74636">
        <ele>178.46</ele>
        <time>2014-04-05T14:27:01Z</time>
      </trkpt>
      <trkpt lat="43.89124" lon="0.74653">
        <ele>180.87</ele>
        <time>2014-04-05T14:27:11Z</time>
      </trkpt>
      <trkpt lat="43.89124" lon="0.74674">
        <ele>179.9</ele>
        <time>2014-04-05T14:27:22Z</time>
      </trkpt>
      <trkpt lat="43.89121" lon="0.74688">
        <ele>180.38</ele>
        <time>2014-04-05T14:27:33Z</time>
      </trkpt>
      <trkpt lat="43.8912" lon="0.74689">
        <ele>180.38</ele>
        <time>2014-04-05T14:27:34Z</time>
      </trkpt>
      <trkpt lat="43.89118" lon="0.74708">
        <ele>179.42</ele>
        <time>2014-04-05T14:27:46Z</time>
      </trkpt>
      <trkpt lat="43.89117" lon="0.74711">
        <ele>179.42</ele>
        <time>2014-04-05T14:27:48Z</time>
      </trkpt>
      <trkpt lat="43.89116" lon="0.7473">
        <ele>178.94</ele>
        <time>2014-04-05T14:27:58Z</time>
      </trkpt>
      <trkpt lat="43.89114" lon="0.74747">
        <ele>177.5</ele>
        <time>2014-04-05T14:28:08Z</time>
      </trkpt>
      <trkpt lat="43.89114" lon="0.7476">
        <ele>177.02</ele>
        <time>2014-04-05T14:28:18Z</time>
      </trkpt>
      <trkpt lat="43.89112" lon="0.74777">
        <ele>177.98</ele>
        <time>2014-04-05T14:28:27Z</time>
      </trkpt>
      <trkpt lat="43.89109" lon="0.74795">
        <ele>177.98</ele>
        <time>2014-04-05T14:28:37Z</time>
      </trkpt>
      <trkpt lat="43.89106" lon="0.74815">
        <ele>176.06</ele>
        <time>2014-04-05T14:28:48Z</time>
      </trkpt>
      <trkpt lat="43.89103" lon="0.74829">
        <ele>171.73</ele>
        <time>2014-04-05T14:29:00Z</time>
      </trkpt>
      <trkpt lat="43.89101" lon="0.7484">
        <ele>170.77</ele>
        <time>2014-04-05T14:29:09Z</time>
      </trkpt>
      <trkpt lat="43.89097" lon="0.74848">
        <ele>171.25</ele>
        <time>2014-04-05T14:29:19Z</time>
      </trkpt>
      <trkpt lat="43.89096" lon="0.74848">
        <ele>171.25</ele>
        <time>2014-04-05T14:29:21Z</time>
      </trkpt>
      <trkpt lat="43.89077" lon="0.74847">
        <ele>171.73</ele>
        <time>2014-04-05T14:29:37Z</time>
      </trkpt>
      <trkpt lat="43.89073" lon="0.74851">
        <ele>171.73</ele>
        <time>2014-04-05T14:29:42Z</time>
      </trkpt>
      <trkpt lat="43.89063" lon="0.7486">
        <ele>169.81</ele>
        <time>2014-04-05T14:29:58Z</time>
      </trkpt>
      <trkpt lat="43.89062" lon="0.74862">
        <ele>165</ele>
        <time>2014-04-05T14:30:20Z</time>
      </trkpt>
      <trkpt lat="43.89061" lon="0.74864">
        <ele>163.56</ele>
        <time>2014-04-05T14:30:32Z</time>
      </trkpt>
      <trkpt lat="43.89053" lon="0.74891">
        <ele>165.48</ele>
        <time>2014-04-05T14:30:50Z</time>
      </trkpt>
      <trkpt lat="43.89039" lon="0.74929">
        <ele>165.48</ele>
        <time>2014-04-05T14:31:13Z</time>
      </trkpt>
      <trkpt lat="43.8902" lon="0.7494">
        <ele>165.48</ele>
        <time>2014-04-05T14:31:30Z</time>
      </trkpt>
      <trkpt lat="43.8902" lon="0.74941">
        <ele>165.96</ele>
        <time>2014-04-05T14:31:31Z</time>
      </trkpt>
      <trkpt lat="43.89019" lon="0.74952">
        <ele>166.45</ele>
        <time>2014-04-05T14:31:38Z</time>
      </trkpt>
      <trkpt lat="43.89018" lon="0.74954">
        <ele>165.48</ele>
        <time>2014-04-05T14:31:41Z</time>
      </trkpt>
      <trkpt lat="43.89018" lon="0.74984">
        <ele>165.96</ele>
        <time>2014-04-05T14:31:59Z</time>
      </trkpt>
      <trkpt lat="43.89018" lon="0.75">
        <ele>165</ele>
        <time>2014-04-05T14:32:12Z</time>
      </trkpt>
      <trkpt lat="43.89019" lon="0.75031">
        <ele>166.45</ele>
        <time>2014-04-05T14:32:30Z</time>
      </trkpt>
      <trkpt lat="43.89019" lon="0.75034">
        <ele>166.45</ele>
        <time>2014-04-05T14:32:32Z</time>
      </trkpt>
      <trkpt lat="43.89019" lon="0.75042">
        <ele>166.93</ele>
        <time>2014-04-05T14:32:37Z</time>
      </trkpt>
      <trkpt lat="43.89021" lon="0.75062">
        <ele>167.89</ele>
        <time>2014-04-05T14:32:51Z</time>
      </trkpt>
      <trkpt lat="43.89021" lon="0.75095">
        <ele>168.85</ele>
        <time>2014-04-05T14:33:12Z</time>
      </trkpt>
      <trkpt lat="43.89021" lon="0.7513">
        <ele>167.89</ele>
        <time>2014-04-05T14:33:33Z</time>
      </trkpt>
      <trkpt lat="43.89021" lon="0.75136">
        <ele>167.89</ele>
        <time>2014-04-05T14:33:37Z</time>
      </trkpt>
      <trkpt lat="43.8902" lon="0.75139">
        <ele>167.41</ele>
        <time>2014-04-05T14:33:45Z</time>
      </trkpt>
      <trkpt lat="43.8902" lon="0.75144">
        <ele>167.41</ele>
        <time>2014-04-05T14:33:49Z</time>
      </trkpt>
      <trkpt lat="43.89022" lon="0.75176">
        <ele>168.37</ele>
        <time>2014-04-05T14:34:08Z</time>
      </trkpt>
      <trkpt lat="43.89021" lon="0.75194">
        <ele>169.33</ele>
        <time>2014-04-05T14:34:21Z</time>
      </trkpt>
      <trkpt lat="43.89022" lon="0.75196">
        <ele>169.33</ele>
        <time>2014-04-05T14:34:22Z</time>
      </trkpt>
      <trkpt lat="43.89022" lon="0.75226">
        <ele>170.29</ele>
        <time>2014-04-05T14:34:41Z</time>
      </trkpt>
      <trkpt lat="43.89023" lon="0.7526">
        <ele>172.21</ele>
        <time>2014-04-05T14:35:02Z</time>
      </trkpt>
      <trkpt lat="43.89024" lon="0.75286">
        <ele>173.66</ele>
        <time>2014-04-05T14:35:19Z</time>
      </trkpt>
      <trkpt lat="43.89023" lon="0.75305">
        <ele>174.14</ele>
        <time>2014-04-05T14:35:37Z</time>
      </trkpt>
      <trkpt lat="43.89022" lon="0.75307">
        <ele>174.14</ele>
        <time>2014-04-05T14:35:55Z</time>
      </trkpt>
      <trkpt lat="43.8902" lon="0.75306">
        <ele>173.66</ele>
        <time>2014-04-05T14:36:08Z</time>
      </trkpt>
      <trkpt lat="43.89022" lon="0.75314">
        <ele>172.69</ele>
        <time>2014-04-05T14:36:19Z</time>
      </trkpt>
      <trkpt lat="43.89022" lon="0.75321">
        <ele>173.17</ele>
        <time>2014-04-05T14:36:34Z</time>
      </trkpt>
      <trkpt lat="43.89022" lon="0.75318">
        <ele>172.69</ele>
        <time>2014-04-05T14:36:47Z</time>
      </trkpt>
      <trkpt lat="43.89023" lon="0.75317">
        <ele>172.69</ele>
        <time>2014-04-05T14:37:07Z</time>
      </trkpt>
      <trkpt lat="43.89022" lon="0.75316">
        <ele>172.21</ele>
        <time>2014-04-05T14:37:15Z</time>
      </trkpt>
      <trkpt lat="43.89023" lon="0.75322">
        <ele>172.69</ele>
        <time>2014-04-05T14:37:27Z</time>
      </trkpt>
      <trkpt lat="43.89022" lon="0.75323">
        <ele>173.66</ele>
        <time>2014-04-05T14:37:46Z</time>
      </trkpt>
      <trkpt lat="43.8902" lon="0.75325">
        <ele>171.25</ele>
        <time>2014-04-05T14:38:01Z</time>
      </trkpt>
      <trkpt lat="43.89019" lon="0.75324">
        <ele>170.29</ele>
        <time>2014-04-05T14:38:34Z</time>
      </trkpt>
      <trkpt lat="43.89017" lon="0.75325">
        <ele>167.41</ele>
        <time>2014-04-05T14:39:02Z</time>
      </trkpt>
      <trkpt lat="43.89019" lon="0.75329">
        <ele>168.85</ele>
        <time>2014-04-05T14:39:27Z</time>
      </trkpt>
      <trkpt lat="43.89021" lon="0.75342">
        <ele>171.73</ele>
        <time>2014-04-05T14:39:41Z</time>
      </trkpt>
      <trkpt lat="43.89022" lon="0.7535">
        <ele>171.73</ele>
        <time>2014-04-05T14:39:47Z</time>
      </trkpt>
      <trkpt lat="43.89022" lon="0.75371">
        <ele>172.69</ele>
        <time>2014-04-05T14:40:05Z</time>
      </trkpt>
      <trkpt lat="43.89022" lon="0.75398">
        <ele>173.17</ele>
        <time>2014-04-05T14:40:23Z</time>
      </trkpt>
      <trkpt lat="43.89023" lon="0.75419">
        <ele>174.14</ele>
        <time>2014-04-05T14:40:37Z</time>
      </trkpt>
      <trkpt lat="43.89023" lon="0.75448">
        <ele>176.06</ele>
        <time>2014-04-05T14:40:57Z</time>
      </trkpt>
      <trkpt lat="43.89022" lon="0.75475">
        <ele>176.54</ele>
        <time>2014-04-05T14:41:16Z</time>
      </trkpt>
      <trkpt lat="43.89023" lon="0.75497">
        <ele>177.98</ele>
        <time>2014-04-05T14:41:32Z</time>
      </trkpt>
      <trkpt lat="43.89022" lon="0.75514">
        <ele>177.98</ele>
        <time>2014-04-05T14:41:46Z</time>
      </trkpt>
      <trkpt lat="43.89028" lon="0.75534">
        <ele>178.46</ele>
        <time>2014-04-05T14:42:02Z</time>
      </trkpt>
      <trkpt lat="43.89025" lon="0.7554">
        <ele>179.42</ele>
        <time>2014-04-05T14:42:06Z</time>
      </trkpt>
      <trkpt lat="43.89022" lon="0.75545">
        <ele>181.35</ele>
        <time>2014-04-05T14:42:12Z</time>
      </trkpt>
      <trkpt lat="43.89014" lon="0.75556">
        <ele>181.83</ele>
        <time>2014-04-05T14:42:25Z</time>
      </trkpt>
      <trkpt lat="43.89006" lon="0.75568">
        <ele>182.79</ele>
        <time>2014-04-05T14:42:38Z</time>
      </trkpt>
      <trkpt lat="43.88991" lon="0.75588">
        <ele>183.75</ele>
        <time>2014-04-05T14:42:57Z</time>
      </trkpt>
      <trkpt lat="43.88975" lon="0.75607">
        <ele>182.79</ele>
        <time>2014-04-05T14:43:16Z</time>
      </trkpt>
      <trkpt lat="43.8896" lon="0.75629">
        <ele>182.31</ele>
        <time>2014-04-05T14:43:35Z</time>
      </trkpt>
      <trkpt lat="43.88949" lon="0.75655">
        <ele>177.98</ele>
        <time>2014-04-05T14:43:56Z</time>
      </trkpt>
      <trkpt lat="43.88948" lon="0.75686">
        <ele>176.06</ele>
        <time>2014-04-05T14:44:18Z</time>
      </trkpt>
      <trkpt lat="43.88949" lon="0.75717">
        <ele>173.66</ele>
        <time>2014-04-05T14:44:39Z</time>
      </trkpt>
      <trkpt lat="43.88949" lon="0.75718">
        <ele>173.66</ele>
        <time>2014-04-05T14:44:40Z</time>
      </trkpt>
      <trkpt lat="43.88949" lon="0.75741">
        <ele>172.21</ele>
        <time>2014-04-05T14:44:55Z</time>
      </trkpt>
      <trkpt lat="43.88945" lon="0.75749">
        <ele>171.73</ele>
        <time>2014-04-05T14:45:01Z</time>
      </trkpt>
      <trkpt lat="43.88942" lon="0.75752">
        <ele>172.69</ele>
        <time>2014-04-05T14:45:05Z</time>
      </trkpt>
      <trkpt lat="43.88939" lon="0.75773">
        <ele>173.17</ele>
        <time>2014-04-05T14:45:22Z</time>
      </trkpt>
      <trkpt lat="43.88932" lon="0.75805">
        <ele>171.73</ele>
        <time>2014-04-05T14:45:42Z</time>
      </trkpt>
      <trkpt lat="43.88929" lon="0.75814">
        <ele>171.73</ele>
        <time>2014-04-05T14:45:51Z</time>
      </trkpt>
      <trkpt lat="43.88932" lon="0.7582">
        <ele>171.73</ele>
        <time>2014-04-05T14:45:56Z</time>
      </trkpt>
      <trkpt lat="43.88933" lon="0.75851">
        <ele>168.37</ele>
        <time>2014-04-05T14:46:16Z</time>
      </trkpt>
      <trkpt lat="43.88932" lon="0.75854">
        <ele>168.37</ele>
        <time>2014-04-05T14:46:18Z</time>
      </trkpt>
      <trkpt lat="43.88921" lon="0.75875">
        <ele>166.93</ele>
        <time>2014-04-05T14:46:35Z</time>
      </trkpt>
      <trkpt lat="43.88906" lon="0.759">
        <ele>166.45</ele>
        <time>2014-04-05T14:46:54Z</time>
      </trkpt>
      <trkpt lat="43.88898" lon="0.75925">
        <ele>167.41</ele>
        <time>2014-04-05T14:47:11Z</time>
      </trkpt>
      <trkpt lat="43.88899" lon="0.75946">
        <ele>168.85</ele>
        <time>2014-04-05T14:47:27Z</time>
      </trkpt>
      <trkpt lat="43.88909" lon="0.75964">
        <ele>168.37</ele>
        <time>2014-04-05T14:47:44Z</time>
      </trkpt>
      <trkpt lat="43.88914" lon="0.75977">
        <ele>168.37</ele>
        <time>2014-04-05T14:47:53Z</time>
      </trkpt>
      <trkpt lat="43.88915" lon="0.75987">
        <ele>168.85</ele>
        <time>2014-04-05T14:47:58Z</time>
      </trkpt>
      <trkpt lat="43.88921" lon="0.76018">
        <ele>169.81</ele>
        <time>2014-04-05T14:48:18Z</time>
      </trkpt>
      <trkpt lat="43.88927" lon="0.76032">
        <ele>170.77</ele>
        <time>2014-04-05T14:48:30Z</time>
      </trkpt>
      <trkpt lat="43.88935" lon="0.76032">
        <ele>171.73</ele>
        <time>2014-04-05T14:48:43Z</time>
      </trkpt>
      <trkpt lat="43.88941" lon="0.76029">
        <ele>172.21</ele>
        <time>2014-04-05T14:48:58Z</time>
      </trkpt>
      <trkpt lat="43.88948" lon="0.76024">
        <ele>172.21</ele>
        <time>2014-04-05T14:49:09Z</time>
      </trkpt>
      <trkpt lat="43.88952" lon="0.7604">
        <ele>171.73</ele>
        <time>2014-04-05T14:49:21Z</time>
      </trkpt>
      <trkpt lat="43.88955" lon="0.76069">
        <ele>173.66</ele>
        <time>2014-04-05T14:49:39Z</time>
      </trkpt>
      <trkpt lat="43.88958" lon="0.76098">
        <ele>171.73</ele>
        <time>2014-04-05T14:49:57Z</time>
      </trkpt>
      <trkpt lat="43.8896" lon="0.76122">
        <ele>169.33</ele>
        <time>2014-04-05T14:50:12Z</time>
      </trkpt>
      <trkpt lat="43.88961" lon="0.76153">
        <ele>166.93</ele>
        <time>2014-04-05T14:50:31Z</time>
      </trkpt>
      <trkpt lat="43.88963" lon="0.76183">
        <ele>169.81</ele>
        <time>2014-04-05T14:50:49Z</time>
      </trkpt>
      <trkpt lat="43.88964" lon="0.76207">
        <ele>169.33</ele>
        <time>2014-04-05T14:51:05Z</time>
      </trkpt>
      <trkpt lat="43.88966" lon="0.76237">
        <ele>166.45</ele>
        <time>2014-04-05T14:51:24Z</time>
      </trkpt>
      <trkpt lat="43.88966" lon="0.76265">
        <ele>165</ele>
        <time>2014-04-05T14:51:41Z</time>
      </trkpt>
      <trkpt lat="43.88968" lon="0.76278">
        <ele>165.48</ele>
        <time>2014-04-05T14:51:49Z</time>
      </trkpt>
      <trkpt lat="43.88968" lon="0.76309">
        <ele>166.93</ele>
        <time>2014-04-05T14:52:07Z</time>
      </trkpt>
      <trkpt lat="43.88969" lon="0.76331">
        <ele>165.96</ele>
        <time>2014-04-05T14:52:21Z</time>
      </trkpt>
      <trkpt lat="43.88971" lon="0.76351">
        <ele>167.41</ele>
        <time>2014-04-05T14:52:34Z</time>
      </trkpt>
      <trkpt lat="43.88972" lon="0.76373">
        <ele>169.33</ele>
        <time>2014-04-05T14:52:48Z</time>
      </trkpt>
      <trkpt lat="43.88976" lon="0.76398">
        <ele>169.81</ele>
        <time>2014-04-05T14:53:04Z</time>
      </trkpt>
      <trkpt lat="43.88975" lon="0.76426">
        <ele>168.37</ele>
        <time>2014-04-05T14:53:20Z</time>
      </trkpt>
      <trkpt lat="43.88973" lon="0.76449">
        <ele>169.81</ele>
        <time>2014-04-05T14:53:36Z</time>
      </trkpt>
      <trkpt lat="43.88973" lon="0.7648">
        <ele>170.29</ele>
        <time>2014-04-05T14:53:55Z</time>
      </trkpt>
      <trkpt lat="43.88974" lon="0.76486">
        <ele>170.29</ele>
        <time>2014-04-05T14:53:59Z</time>
      </trkpt>
      <trkpt lat="43.88974" lon="0.76494">
        <ele>169.33</ele>
        <time>2014-04-05T14:54:06Z</time>
      </trkpt>
      <trkpt lat="43.88978" lon="0.76523">
        <ele>169.81</ele>
        <time>2014-04-05T14:54:25Z</time>
      </trkpt>
      <trkpt lat="43.88979" lon="0.76528">
        <ele>169.81</ele>
        <time>2014-04-05T14:54:28Z</time>
      </trkpt>
      <trkpt lat="43.88982" lon="0.76538">
        <ele>168.85</ele>
        <time>2014-04-05T14:54:35Z</time>
      </trkpt>
      <trkpt lat="43.88982" lon="0.76541">
        <ele>168.37</ele>
        <time>2014-04-05T14:54:37Z</time>
      </trkpt>
      <trkpt lat="43.88981" lon="0.76548">
        <ele>168.37</ele>
        <time>2014-04-05T14:54:42Z</time>
      </trkpt>
      <trkpt lat="43.88983" lon="0.76564">
        <ele>170.29</ele>
        <time>2014-04-05T14:54:55Z</time>
      </trkpt>
      <trkpt lat="43.88985" lon="0.76592">
        <ele>169.33</ele>
        <time>2014-04-05T14:55:11Z</time>
      </trkpt>
      <trkpt lat="43.88987" lon="0.76617">
        <ele>167.41</ele>
        <time>2014-04-05T14:55:28Z</time>
      </trkpt>
      <trkpt lat="43.8899" lon="0.76628">
        <ele>168.85</ele>
        <time>2014-04-05T14:55:38Z</time>
      </trkpt>
      <trkpt lat="43.88991" lon="0.76648">
        <ele>171.25</ele>
        <time>2014-04-05T14:55:54Z</time>
      </trkpt>
      <trkpt lat="43.88991" lon="0.76651">
        <ele>171.73</ele>
        <time>2014-04-05T14:55:56Z</time>
      </trkpt>
      <trkpt lat="43.88993" lon="0.76666">
        <ele>173.17</ele>
        <time>2014-04-05T14:56:07Z</time>
      </trkpt>
      <trkpt lat="43.88995" lon="0.76674">
        <ele>175.1</ele>
        <time>2014-04-05T14:56:12Z</time>
      </trkpt>
      <trkpt lat="43.88991" lon="0.76691">
        <ele>177.5</ele>
        <time>2014-04-05T14:56:19Z</time>
      </trkpt>
      <trkpt lat="43.8899" lon="0.76715">
        <ele>179.9</ele>
        <time>2014-04-05T14:56:34Z</time>
      </trkpt>
      <trkpt lat="43.8899" lon="0.76735">
        <ele>178.46</ele>
        <time>2014-04-05T14:56:45Z</time>
      </trkpt>
      <trkpt lat="43.88997" lon="0.76757">
        <ele>179.42</ele>
        <time>2014-04-05T14:57:00Z</time>
      </trkpt>
      <trkpt lat="43.89001" lon="0.76786">
        <ele>175.58</ele>
        <time>2014-04-05T14:57:14Z</time>
      </trkpt>
      <trkpt lat="43.89008" lon="0.76812">
        <ele>172.69</ele>
        <time>2014-04-05T14:57:29Z</time>
      </trkpt>
      <trkpt lat="43.89016" lon="0.7683">
        <ele>171.73</ele>
        <time>2014-04-05T14:57:43Z</time>
      </trkpt>
      <trkpt lat="43.89018" lon="0.76858">
        <ele>171.25</ele>
        <time>2014-04-05T14:57:59Z</time>
      </trkpt>
      <trkpt lat="43.8902" lon="0.76868">
        <ele>170.77</ele>
        <time>2014-04-05T14:58:11Z</time>
      </trkpt>
      <trkpt lat="43.89034" lon="0.76869">
        <ele>172.21</ele>
        <time>2014-04-05T14:58:23Z</time>
      </trkpt>
      <trkpt lat="43.8904" lon="0.76871">
        <ele>171.73</ele>
        <time>2014-04-05T14:58:29Z</time>
      </trkpt>
      <trkpt lat="43.89048" lon="0.7687">
        <ele>172.21</ele>
        <time>2014-04-05T14:58:37Z</time>
      </trkpt>
      <trkpt lat="43.89053" lon="0.76867">
        <ele>169.81</ele>
        <time>2014-04-05T14:58:50Z</time>
      </trkpt>
      <trkpt lat="43.89056" lon="0.76869">
        <ele>171.25</ele>
        <time>2014-04-05T14:58:53Z</time>
      </trkpt>
      <trkpt lat="43.89073" lon="0.76881">
        <ele>172.69</ele>
        <time>2014-04-05T14:59:08Z</time>
      </trkpt>
      <trkpt lat="43.89077" lon="0.76881">
        <ele>172.21</ele>
        <time>2014-04-05T14:59:12Z</time>
      </trkpt>
      <trkpt lat="43.89084" lon="0.76879">
        <ele>170.77</ele>
        <time>2014-04-05T14:59:17Z</time>
      </trkpt>
      <trkpt lat="43.89085" lon="0.76877">
        <ele>171.25</ele>
        <time>2014-04-05T14:59:19Z</time>
      </trkpt>
      <trkpt lat="43.89088" lon="0.76873">
        <ele>171.25</ele>
        <time>2014-04-05T14:59:23Z</time>
      </trkpt>
      <trkpt lat="43.89103" lon="0.76856">
        <ele>170.77</ele>
        <time>2014-04-05T14:59:40Z</time>
      </trkpt>
      <trkpt lat="43.89115" lon="0.76843">
        <ele>171.25</ele>
        <time>2014-04-05T14:59:53Z</time>
      </trkpt>
      <trkpt lat="43.89117" lon="0.76839">
        <ele>170.77</ele>
        <time>2014-04-05T14:59:56Z</time>
      </trkpt>
      <trkpt lat="43.89122" lon="0.76833">
        <ele>171.73</ele>
        <time>2014-04-05T15:00:01Z</time>
      </trkpt>
      <trkpt lat="43.89129" lon="0.76823">
        <ele>172.21</ele>
        <time>2014-04-05T15:00:11Z</time>
      </trkpt>
      <trkpt lat="43.89145" lon="0.76803">
        <ele>169.81</ele>
        <time>2014-04-05T15:00:28Z</time>
      </trkpt>
      <trkpt lat="43.89155" lon="0.7679">
        <ele>167.89</ele>
        <time>2014-04-05T15:00:40Z</time>
      </trkpt>
      <trkpt lat="43.89172" lon="0.7677">
        <ele>168.37</ele>
        <time>2014-04-05T15:00:58Z</time>
      </trkpt>
      <trkpt lat="43.89189" lon="0.76765">
        <ele>169.81</ele>
        <time>2014-04-05T15:01:13Z</time>
      </trkpt>
      <trkpt lat="43.89205" lon="0.76761">
        <ele>171.73</ele>
        <time>2014-04-05T15:01:28Z</time>
      </trkpt>
      <trkpt lat="43.89209" lon="0.7677">
        <ele>173.66</ele>
        <time>2014-04-05T15:01:54Z</time>
      </trkpt>
      <trkpt lat="43.89209" lon="0.7677">
        <ele>168.85</ele>
        <time>2014-04-05T15:02:15Z</time>
      </trkpt>
    </trkseg>
  </trk>
  <trk>
    <name><![CDATA[Tracé actuel: 05 AVR 2014 10:21]]></name>
    <trkseg>
      <trkpt lat="43.89206" lon="0.76767">
        <ele>160.68</ele>
        <time>2014-04-05T08:21:43Z</time>
      </trkpt>
      <trkpt lat="43.89206" lon="0.76768">
        <ele>154.91</ele>
        <time>2014-04-05T08:22:12Z</time>
      </trkpt>
    </trkseg>
  </trk>
  <trk>
    <name><![CDATA[Tracé actuel: 05 AVR 2014 10:22]]></name>
    <trkseg>
      <trkpt lat="43.89203" lon="0.76764">
        <ele>158.27</ele>
        <time>2014-04-05T08:22:40Z</time>
      </trkpt>
      <trkpt lat="43.89205" lon="0.76764">
        <ele>156.83</ele>
        <time>2014-04-05T08:22:54Z</time>
      </trkpt>
      <trkpt lat="43.89206" lon="0.76763">
        <ele>155.87</ele>
        <time>2014-04-05T08:23:18Z</time>
      </trkpt>
      <trkpt lat="43.89208" lon="0.76765">
        <ele>152.51</ele>
        <time>2014-04-05T08:23:46Z</time>
      </trkpt>
      <trkpt lat="43.89205" lon="0.76765">
        <ele>151.06</ele>
        <time>2014-04-05T08:24:13Z</time>
      </trkpt>
      <trkpt lat="43.89204" lon="0.76763">
        <ele>152.03</ele>
        <time>2014-04-05T08:24:46Z</time>
      </trkpt>
      <trkpt lat="43.89203" lon="0.76759">
        <ele>153.47</ele>
        <time>2014-04-05T08:25:19Z</time>
      </trkpt>
      <trkpt lat="43.89206" lon="0.76761">
        <ele>147.7</ele>
        <time>2014-04-05T08:25:48Z</time>
      </trkpt>
      <trkpt lat="43.89207" lon="0.76761">
        <ele>147.7</ele>
        <time>2014-04-05T08:26:15Z</time>
      </trkpt>
      <trkpt lat="43.89204" lon="0.76764">
        <ele>154.43</ele>
        <time>2014-04-05T08:26:48Z</time>
      </trkpt>
      <trkpt lat="43.89204" lon="0.76767">
        <ele>156.83</ele>
        <time>2014-04-05T08:27:30Z</time>
      </trkpt>
    </trkseg>
  </trk>
</gpx>